<?xml version="1.0" encoding="UTF-8" standalone="no" ?>
<gpx xmlns="http://www.topografix.com/GPX/1/1" xmlns:xsi="http://www.w3.org/2001/XMLSchema-instance" xsi:schemaLocation="http://www.topografix.com/GPX/1/1 http://www.topografix.com/GPX/1/1/gpx.xsd" version="1.1" creator="VisuGPX - https://www.visugpx.com">
  <metadata>
    <name>VTT Cavillore - Paradis depuis Bar sur Loup</name>
    <desc><![CDATA[Montée par le col Ouest, descente par le col Est de Cavillore, descente technique bien trialisante par moment avec des épingles à foison ! Le paradis :-)]]></desc>
  </metadata>
  <trk>
    <name><![CDATA[cavillore paradis]]></name>
    <trkseg>
      <trkpt lat="43.70198" lon="6.99515">
        <ele>222</ele>
        <time>2012-04-24T09:03:15Z</time>
      </trkpt>
      <trkpt lat="43.70188" lon="6.99524">
        <ele>222</ele>
        <time>2012-04-24T09:03:17Z</time>
      </trkpt>
      <trkpt lat="43.70168" lon="6.99531">
        <ele>222</ele>
        <time>2012-04-24T09:03:22Z</time>
      </trkpt>
      <trkpt lat="43.70161" lon="6.99528">
        <ele>224</ele>
        <time>2012-04-24T09:03:26Z</time>
      </trkpt>
      <trkpt lat="43.70159" lon="6.99514">
        <ele>226</ele>
        <time>2012-04-24T09:03:32Z</time>
      </trkpt>
      <trkpt lat="43.70159" lon="6.99498">
        <ele>232</ele>
        <time>2012-04-24T09:03:38Z</time>
      </trkpt>
      <trkpt lat="43.70148" lon="6.99493">
        <ele>233</ele>
        <time>2012-04-24T09:03:43Z</time>
      </trkpt>
      <trkpt lat="43.70121" lon="6.99501">
        <ele>225</ele>
        <time>2012-04-24T09:03:53Z</time>
      </trkpt>
      <trkpt lat="43.70103" lon="6.99499">
        <ele>233</ele>
        <time>2012-04-24T09:03:59Z</time>
      </trkpt>
      <trkpt lat="43.70083" lon="6.99494">
        <ele>230</ele>
        <time>2012-04-24T09:04:05Z</time>
      </trkpt>
      <trkpt lat="43.70055" lon="6.99486">
        <ele>231</ele>
        <time>2012-04-24T09:04:12Z</time>
      </trkpt>
      <trkpt lat="43.70045" lon="6.99478">
        <ele>231</ele>
        <time>2012-04-24T09:04:16Z</time>
      </trkpt>
      <trkpt lat="43.70044" lon="6.99469">
        <ele>231</ele>
        <time>2012-04-24T09:04:20Z</time>
      </trkpt>
      <trkpt lat="43.70052" lon="6.99449">
        <ele>233</ele>
        <time>2012-04-24T09:04:31Z</time>
      </trkpt>
      <trkpt lat="43.70055" lon="6.99432">
        <ele>235</ele>
        <time>2012-04-24T09:04:40Z</time>
      </trkpt>
      <trkpt lat="43.70055" lon="6.99417">
        <ele>236</ele>
        <time>2012-04-24T09:04:49Z</time>
      </trkpt>
      <trkpt lat="43.70055" lon="6.99401">
        <ele>244</ele>
        <time>2012-04-24T09:04:58Z</time>
      </trkpt>
      <trkpt lat="43.70055" lon="6.9939">
        <ele>244</ele>
        <time>2012-04-24T09:05:05Z</time>
      </trkpt>
      <trkpt lat="43.70055" lon="6.99374">
        <ele>246</ele>
        <time>2012-04-24T09:05:14Z</time>
      </trkpt>
      <trkpt lat="43.70055" lon="6.99357">
        <ele>247</ele>
        <time>2012-04-24T09:05:24Z</time>
      </trkpt>
      <trkpt lat="43.70056" lon="6.9934">
        <ele>248</ele>
        <time>2012-04-24T09:05:34Z</time>
      </trkpt>
      <trkpt lat="43.70058" lon="6.99324">
        <ele>256</ele>
        <time>2012-04-24T09:05:43Z</time>
      </trkpt>
      <trkpt lat="43.70058" lon="6.99312">
        <ele>257</ele>
        <time>2012-04-24T09:05:50Z</time>
      </trkpt>
      <trkpt lat="43.70058" lon="6.99298">
        <ele>258</ele>
        <time>2012-04-24T09:05:59Z</time>
      </trkpt>
      <trkpt lat="43.70058" lon="6.99287">
        <ele>259</ele>
        <time>2012-04-24T09:06:06Z</time>
      </trkpt>
      <trkpt lat="43.70056" lon="6.99273">
        <ele>260</ele>
        <time>2012-04-24T09:06:15Z</time>
      </trkpt>
      <trkpt lat="43.70055" lon="6.99261">
        <ele>261</ele>
        <time>2012-04-24T09:06:24Z</time>
      </trkpt>
      <trkpt lat="43.70055" lon="6.99249">
        <ele>269</ele>
        <time>2012-04-24T09:06:33Z</time>
      </trkpt>
      <trkpt lat="43.70054" lon="6.99236">
        <ele>269</ele>
        <time>2012-04-24T09:06:43Z</time>
      </trkpt>
      <trkpt lat="43.70053" lon="6.99224">
        <ele>270</ele>
        <time>2012-04-24T09:06:51Z</time>
      </trkpt>
      <trkpt lat="43.70049" lon="6.9921">
        <ele>271</ele>
        <time>2012-04-24T09:07:00Z</time>
      </trkpt>
      <trkpt lat="43.70043" lon="6.99194">
        <ele>273</ele>
        <time>2012-04-24T09:07:11Z</time>
      </trkpt>
      <trkpt lat="43.70037" lon="6.99178">
        <ele>273</ele>
        <time>2012-04-24T09:07:22Z</time>
      </trkpt>
      <trkpt lat="43.70036" lon="6.99172">
        <ele>273</ele>
        <time>2012-04-24T09:07:26Z</time>
      </trkpt>
      <trkpt lat="43.70042" lon="6.99161">
        <ele>283</ele>
        <time>2012-04-24T09:07:35Z</time>
      </trkpt>
      <trkpt lat="43.7005" lon="6.99151">
        <ele>284</ele>
        <time>2012-04-24T09:07:44Z</time>
      </trkpt>
      <trkpt lat="43.7006" lon="6.9914">
        <ele>286</ele>
        <time>2012-04-24T09:07:54Z</time>
      </trkpt>
      <trkpt lat="43.70063" lon="6.99131">
        <ele>287</ele>
        <time>2012-04-24T09:08:00Z</time>
      </trkpt>
      <trkpt lat="43.70057" lon="6.99117">
        <ele>288</ele>
        <time>2012-04-24T09:08:09Z</time>
      </trkpt>
      <trkpt lat="43.70051" lon="6.991">
        <ele>289</ele>
        <time>2012-04-24T09:08:18Z</time>
      </trkpt>
      <trkpt lat="43.70044" lon="6.99077">
        <ele>297</ele>
        <time>2012-04-24T09:08:30Z</time>
      </trkpt>
      <trkpt lat="43.70039" lon="6.9906">
        <ele>297</ele>
        <time>2012-04-24T09:08:39Z</time>
      </trkpt>
      <trkpt lat="43.70034" lon="6.99041">
        <ele>298</ele>
        <time>2012-04-24T09:08:49Z</time>
      </trkpt>
      <trkpt lat="43.70032" lon="6.99031">
        <ele>298</ele>
        <time>2012-04-24T09:08:56Z</time>
      </trkpt>
      <trkpt lat="43.70032" lon="6.9902">
        <ele>299</ele>
        <time>2012-04-24T09:09:02Z</time>
      </trkpt>
      <trkpt lat="43.70029" lon="6.99002">
        <ele>299</ele>
        <time>2012-04-24T09:09:10Z</time>
      </trkpt>
      <trkpt lat="43.70023" lon="6.98985">
        <ele>305</ele>
        <time>2012-04-24T09:09:17Z</time>
      </trkpt>
      <trkpt lat="43.70008" lon="6.98965">
        <ele>306</ele>
        <time>2012-04-24T09:09:26Z</time>
      </trkpt>
      <trkpt lat="43.69995" lon="6.98949">
        <ele>295</ele>
        <time>2012-04-24T09:09:33Z</time>
      </trkpt>
      <trkpt lat="43.69998" lon="6.98943">
        <ele>296</ele>
        <time>2012-04-24T09:09:37Z</time>
      </trkpt>
      <trkpt lat="43.70001" lon="6.98946">
        <ele>307</ele>
        <time>2012-04-24T09:09:39Z</time>
      </trkpt>
      <trkpt lat="43.70017" lon="6.98954">
        <ele>308</ele>
        <time>2012-04-24T09:09:48Z</time>
      </trkpt>
      <trkpt lat="43.70027" lon="6.98954">
        <ele>309</ele>
        <time>2012-04-24T09:09:54Z</time>
      </trkpt>
      <trkpt lat="43.70038" lon="6.98956">
        <ele>310</ele>
        <time>2012-04-24T09:10:01Z</time>
      </trkpt>
      <trkpt lat="43.70047" lon="6.98958">
        <ele>311</ele>
        <time>2012-04-24T09:10:08Z</time>
      </trkpt>
      <trkpt lat="43.70057" lon="6.98959">
        <ele>313</ele>
        <time>2012-04-24T09:10:15Z</time>
      </trkpt>
      <trkpt lat="43.70064" lon="6.98961">
        <ele>313</ele>
        <time>2012-04-24T09:10:21Z</time>
      </trkpt>
      <trkpt lat="43.7007" lon="6.98959">
        <ele>314</ele>
        <time>2012-04-24T09:10:27Z</time>
      </trkpt>
      <trkpt lat="43.70072" lon="6.98958">
        <ele>314</ele>
        <time>2012-04-24T09:10:29Z</time>
      </trkpt>
      <trkpt lat="43.70073" lon="6.98954">
        <ele>315</ele>
        <time>2012-04-24T09:10:32Z</time>
      </trkpt>
      <trkpt lat="43.70074" lon="6.98938">
        <ele>317</ele>
        <time>2012-04-24T09:10:38Z</time>
      </trkpt>
      <trkpt lat="43.70075" lon="6.98928">
        <ele>320</ele>
        <time>2012-04-24T09:10:44Z</time>
      </trkpt>
      <trkpt lat="43.70077" lon="6.98919">
        <ele>323</ele>
        <time>2012-04-24T09:10:52Z</time>
      </trkpt>
      <trkpt lat="43.70078" lon="6.9891">
        <ele>325</ele>
        <time>2012-04-24T09:10:59Z</time>
      </trkpt>
      <trkpt lat="43.70079" lon="6.98903">
        <ele>324</ele>
        <time>2012-04-24T09:11:02Z</time>
      </trkpt>
      <trkpt lat="43.70074" lon="6.98891">
        <ele>323</ele>
        <time>2012-04-24T09:11:08Z</time>
      </trkpt>
      <trkpt lat="43.70073" lon="6.98887">
        <ele>323</ele>
        <time>2012-04-24T09:11:09Z</time>
      </trkpt>
      <trkpt lat="43.70066" lon="6.98867">
        <ele>323</ele>
        <time>2012-04-24T09:11:15Z</time>
      </trkpt>
      <trkpt lat="43.70055" lon="6.98845">
        <ele>324</ele>
        <time>2012-04-24T09:11:22Z</time>
      </trkpt>
      <trkpt lat="43.70056" lon="6.98829">
        <ele>329</ele>
        <time>2012-04-24T09:11:28Z</time>
      </trkpt>
      <trkpt lat="43.70058" lon="6.98819">
        <ele>330</ele>
        <time>2012-04-24T09:11:34Z</time>
      </trkpt>
      <trkpt lat="43.70056" lon="6.98806">
        <ele>330</ele>
        <time>2012-04-24T09:11:41Z</time>
      </trkpt>
      <trkpt lat="43.70054" lon="6.98795">
        <ele>330</ele>
        <time>2012-04-24T09:11:47Z</time>
      </trkpt>
      <trkpt lat="43.70047" lon="6.98777">
        <ele>330</ele>
        <time>2012-04-24T09:11:58Z</time>
      </trkpt>
      <trkpt lat="43.70038" lon="6.98761">
        <ele>330</ele>
        <time>2012-04-24T09:12:08Z</time>
      </trkpt>
      <trkpt lat="43.70031" lon="6.98745">
        <ele>334</ele>
        <time>2012-04-24T09:12:15Z</time>
      </trkpt>
      <trkpt lat="43.70022" lon="6.98726">
        <ele>334</ele>
        <time>2012-04-24T09:12:22Z</time>
      </trkpt>
      <trkpt lat="43.70014" lon="6.98703">
        <ele>335</ele>
        <time>2012-04-24T09:12:28Z</time>
      </trkpt>
      <trkpt lat="43.69996" lon="6.98667">
        <ele>332</ele>
        <time>2012-04-24T09:12:37Z</time>
      </trkpt>
      <trkpt lat="43.69982" lon="6.98639">
        <ele>332</ele>
        <time>2012-04-24T09:12:45Z</time>
      </trkpt>
      <trkpt lat="43.6998" lon="6.98622">
        <ele>333</ele>
        <time>2012-04-24T09:12:51Z</time>
      </trkpt>
      <trkpt lat="43.69976" lon="6.98609">
        <ele>334</ele>
        <time>2012-04-24T09:12:57Z</time>
      </trkpt>
      <trkpt lat="43.69971" lon="6.98592">
        <ele>334</ele>
        <time>2012-04-24T09:13:05Z</time>
      </trkpt>
      <trkpt lat="43.69968" lon="6.98581">
        <ele>341</ele>
        <time>2012-04-24T09:13:11Z</time>
      </trkpt>
      <trkpt lat="43.69963" lon="6.98569">
        <ele>342</ele>
        <time>2012-04-24T09:13:18Z</time>
      </trkpt>
      <trkpt lat="43.69957" lon="6.98553">
        <ele>342</ele>
        <time>2012-04-24T09:13:26Z</time>
      </trkpt>
      <trkpt lat="43.69944" lon="6.98534">
        <ele>342</ele>
        <time>2012-04-24T09:13:37Z</time>
      </trkpt>
      <trkpt lat="43.69936" lon="6.9852">
        <ele>342</ele>
        <time>2012-04-24T09:13:45Z</time>
      </trkpt>
      <trkpt lat="43.69925" lon="6.98502">
        <ele>341</ele>
        <time>2012-04-24T09:13:54Z</time>
      </trkpt>
      <trkpt lat="43.69914" lon="6.98483">
        <ele>339</ele>
        <time>2012-04-24T09:14:01Z</time>
      </trkpt>
      <trkpt lat="43.69898" lon="6.98457">
        <ele>339</ele>
        <time>2012-04-24T09:14:11Z</time>
      </trkpt>
      <trkpt lat="43.69885" lon="6.98436">
        <ele>339</ele>
        <time>2012-04-24T09:14:19Z</time>
      </trkpt>
      <trkpt lat="43.69881" lon="6.98419">
        <ele>339</ele>
        <time>2012-04-24T09:14:25Z</time>
      </trkpt>
      <trkpt lat="43.69888" lon="6.98402">
        <ele>344</ele>
        <time>2012-04-24T09:14:31Z</time>
      </trkpt>
      <trkpt lat="43.69898" lon="6.9838">
        <ele>345</ele>
        <time>2012-04-24T09:14:39Z</time>
      </trkpt>
      <trkpt lat="43.69907" lon="6.98361">
        <ele>347</ele>
        <time>2012-04-24T09:14:47Z</time>
      </trkpt>
      <trkpt lat="43.69908" lon="6.98342">
        <ele>351</ele>
        <time>2012-04-24T09:14:55Z</time>
      </trkpt>
      <trkpt lat="43.69906" lon="6.98322">
        <ele>351</ele>
        <time>2012-04-24T09:15:04Z</time>
      </trkpt>
      <trkpt lat="43.69905" lon="6.98308">
        <ele>349</ele>
        <time>2012-04-24T09:15:12Z</time>
      </trkpt>
      <trkpt lat="43.69907" lon="6.9829">
        <ele>348</ele>
        <time>2012-04-24T09:15:22Z</time>
      </trkpt>
      <trkpt lat="43.69909" lon="6.98274">
        <ele>350</ele>
        <time>2012-04-24T09:15:31Z</time>
      </trkpt>
      <trkpt lat="43.69915" lon="6.9826">
        <ele>353</ele>
        <time>2012-04-24T09:15:40Z</time>
      </trkpt>
      <trkpt lat="43.69922" lon="6.98246">
        <ele>361</ele>
        <time>2012-04-24T09:15:49Z</time>
      </trkpt>
      <trkpt lat="43.69928" lon="6.98234">
        <ele>365</ele>
        <time>2012-04-24T09:15:56Z</time>
      </trkpt>
      <trkpt lat="43.69935" lon="6.98219">
        <ele>367</ele>
        <time>2012-04-24T09:16:05Z</time>
      </trkpt>
      <trkpt lat="43.69946" lon="6.9821">
        <ele>369</ele>
        <time>2012-04-24T09:16:14Z</time>
      </trkpt>
      <trkpt lat="43.69956" lon="6.98207">
        <ele>371</ele>
        <time>2012-04-24T09:16:22Z</time>
      </trkpt>
      <trkpt lat="43.69965" lon="6.98201">
        <ele>373</ele>
        <time>2012-04-24T09:16:31Z</time>
      </trkpt>
      <trkpt lat="43.69971" lon="6.98188">
        <ele>374</ele>
        <time>2012-04-24T09:16:41Z</time>
      </trkpt>
      <trkpt lat="43.69977" lon="6.98173">
        <ele>377</ele>
        <time>2012-04-24T09:16:51Z</time>
      </trkpt>
      <trkpt lat="43.69986" lon="6.98157">
        <ele>378</ele>
        <time>2012-04-24T09:17:03Z</time>
      </trkpt>
      <trkpt lat="43.6999" lon="6.98144">
        <ele>375</ele>
        <time>2012-04-24T09:17:11Z</time>
      </trkpt>
      <trkpt lat="43.69997" lon="6.98133">
        <ele>374</ele>
        <time>2012-04-24T09:17:19Z</time>
      </trkpt>
      <trkpt lat="43.70002" lon="6.98127">
        <ele>400</ele>
        <time>2012-04-24T09:17:25Z</time>
      </trkpt>
      <trkpt lat="43.70011" lon="6.98117">
        <ele>400</ele>
        <time>2012-04-24T09:17:32Z</time>
      </trkpt>
      <trkpt lat="43.70022" lon="6.98101">
        <ele>400</ele>
        <time>2012-04-24T09:17:40Z</time>
      </trkpt>
      <trkpt lat="43.70024" lon="6.98091">
        <ele>400</ele>
        <time>2012-04-24T09:17:45Z</time>
      </trkpt>
      <trkpt lat="43.70025" lon="6.98079">
        <ele>400</ele>
        <time>2012-04-24T09:17:51Z</time>
      </trkpt>
      <trkpt lat="43.70026" lon="6.98063">
        <ele>401</ele>
        <time>2012-04-24T09:17:58Z</time>
      </trkpt>
      <trkpt lat="43.70025" lon="6.98046">
        <ele>402</ele>
        <time>2012-04-24T09:18:04Z</time>
      </trkpt>
      <trkpt lat="43.70025" lon="6.9803">
        <ele>402</ele>
        <time>2012-04-24T09:18:11Z</time>
      </trkpt>
      <trkpt lat="43.70024" lon="6.98015">
        <ele>401</ele>
        <time>2012-04-24T09:18:17Z</time>
      </trkpt>
      <trkpt lat="43.70024" lon="6.97998">
        <ele>402</ele>
        <time>2012-04-24T09:18:24Z</time>
      </trkpt>
      <trkpt lat="43.70023" lon="6.9798">
        <ele>404</ele>
        <time>2012-04-24T09:18:33Z</time>
      </trkpt>
      <trkpt lat="43.70023" lon="6.97963">
        <ele>406</ele>
        <time>2012-04-24T09:18:41Z</time>
      </trkpt>
      <trkpt lat="43.70023" lon="6.97947">
        <ele>407</ele>
        <time>2012-04-24T09:18:49Z</time>
      </trkpt>
      <trkpt lat="43.70022" lon="6.97932">
        <ele>406</ele>
        <time>2012-04-24T09:18:57Z</time>
      </trkpt>
      <trkpt lat="43.7002" lon="6.97911">
        <ele>408</ele>
        <time>2012-04-24T09:19:07Z</time>
      </trkpt>
      <trkpt lat="43.7002" lon="6.97896">
        <ele>410</ele>
        <time>2012-04-24T09:19:15Z</time>
      </trkpt>
      <trkpt lat="43.7002" lon="6.97882">
        <ele>413</ele>
        <time>2012-04-24T09:19:22Z</time>
      </trkpt>
      <trkpt lat="43.70021" lon="6.97869">
        <ele>414</ele>
        <time>2012-04-24T09:19:29Z</time>
      </trkpt>
      <trkpt lat="43.70021" lon="6.97853">
        <ele>413</ele>
        <time>2012-04-24T09:19:38Z</time>
      </trkpt>
      <trkpt lat="43.70023" lon="6.97844">
        <ele>413</ele>
        <time>2012-04-24T09:19:44Z</time>
      </trkpt>
      <trkpt lat="43.70024" lon="6.97831">
        <ele>417</ele>
        <time>2012-04-24T09:19:53Z</time>
      </trkpt>
      <trkpt lat="43.70025" lon="6.97821">
        <ele>418</ele>
        <time>2012-04-24T09:20:00Z</time>
      </trkpt>
      <trkpt lat="43.70026" lon="6.97817">
        <ele>419</ele>
        <time>2012-04-24T09:20:02Z</time>
      </trkpt>
      <trkpt lat="43.70025" lon="6.97803">
        <ele>420</ele>
        <time>2012-04-24T09:20:10Z</time>
      </trkpt>
      <trkpt lat="43.70026" lon="6.9779">
        <ele>421</ele>
        <time>2012-04-24T09:20:17Z</time>
      </trkpt>
      <trkpt lat="43.70032" lon="6.97786">
        <ele>422</ele>
        <time>2012-04-24T09:20:22Z</time>
      </trkpt>
      <trkpt lat="43.70041" lon="6.97781">
        <ele>424</ele>
        <time>2012-04-24T09:20:30Z</time>
      </trkpt>
      <trkpt lat="43.70042" lon="6.9777">
        <ele>425</ele>
        <time>2012-04-24T09:20:37Z</time>
      </trkpt>
      <trkpt lat="43.70043" lon="6.97756">
        <ele>426</ele>
        <time>2012-04-24T09:20:46Z</time>
      </trkpt>
      <trkpt lat="43.70042" lon="6.97741">
        <ele>431</ele>
        <time>2012-04-24T09:20:55Z</time>
      </trkpt>
      <trkpt lat="43.70037" lon="6.97724">
        <ele>430</ele>
        <time>2012-04-24T09:21:05Z</time>
      </trkpt>
      <trkpt lat="43.70035" lon="6.97707">
        <ele>431</ele>
        <time>2012-04-24T09:21:13Z</time>
      </trkpt>
      <trkpt lat="43.70033" lon="6.97688">
        <ele>431</ele>
        <time>2012-04-24T09:21:22Z</time>
      </trkpt>
      <trkpt lat="43.70031" lon="6.97676">
        <ele>430</ele>
        <time>2012-04-24T09:21:28Z</time>
      </trkpt>
      <trkpt lat="43.70029" lon="6.97666">
        <ele>436</ele>
        <time>2012-04-24T09:21:35Z</time>
      </trkpt>
      <trkpt lat="43.70029" lon="6.97665">
        <ele>436</ele>
        <time>2012-04-24T09:21:36Z</time>
      </trkpt>
      <trkpt lat="43.70027" lon="6.97654">
        <ele>436</ele>
        <time>2012-04-24T09:21:43Z</time>
      </trkpt>
      <trkpt lat="43.70028" lon="6.97651">
        <ele>437</ele>
        <time>2012-04-24T09:21:48Z</time>
      </trkpt>
      <trkpt lat="43.70032" lon="6.97643">
        <ele>439</ele>
        <time>2012-04-24T09:21:58Z</time>
      </trkpt>
      <trkpt lat="43.70036" lon="6.97635">
        <ele>441</ele>
        <time>2012-04-24T09:22:09Z</time>
      </trkpt>
      <trkpt lat="43.70037" lon="6.97629">
        <ele>442</ele>
        <time>2012-04-24T09:22:17Z</time>
      </trkpt>
      <trkpt lat="43.70038" lon="6.97624">
        <ele>442</ele>
        <time>2012-04-24T09:22:24Z</time>
      </trkpt>
      <trkpt lat="43.70038" lon="6.97621">
        <ele>442</ele>
        <time>2012-04-24T09:22:31Z</time>
      </trkpt>
      <trkpt lat="43.7004" lon="6.97616">
        <ele>443</ele>
        <time>2012-04-24T09:22:39Z</time>
      </trkpt>
      <trkpt lat="43.70041" lon="6.97609">
        <ele>443</ele>
        <time>2012-04-24T09:22:47Z</time>
      </trkpt>
      <trkpt lat="43.70041" lon="6.97603">
        <ele>444</ele>
        <time>2012-04-24T09:22:54Z</time>
      </trkpt>
      <trkpt lat="43.70041" lon="6.97594">
        <ele>444</ele>
        <time>2012-04-24T09:23:05Z</time>
      </trkpt>
      <trkpt lat="43.70042" lon="6.97587">
        <ele>445</ele>
        <time>2012-04-24T09:23:14Z</time>
      </trkpt>
      <trkpt lat="43.70042" lon="6.97581">
        <ele>450</ele>
        <time>2012-04-24T09:23:22Z</time>
      </trkpt>
      <trkpt lat="43.70046" lon="6.97571">
        <ele>452</ele>
        <time>2012-04-24T09:23:30Z</time>
      </trkpt>
      <trkpt lat="43.70047" lon="6.97566">
        <ele>452</ele>
        <time>2012-04-24T09:23:36Z</time>
      </trkpt>
      <trkpt lat="43.70048" lon="6.97564">
        <ele>452</ele>
        <time>2012-04-24T09:23:43Z</time>
      </trkpt>
      <trkpt lat="43.70049" lon="6.97561">
        <ele>452</ele>
        <time>2012-04-24T09:23:46Z</time>
      </trkpt>
      <trkpt lat="43.70051" lon="6.97551">
        <ele>453</ele>
        <time>2012-04-24T09:23:54Z</time>
      </trkpt>
      <trkpt lat="43.70055" lon="6.97542">
        <ele>454</ele>
        <time>2012-04-24T09:24:01Z</time>
      </trkpt>
      <trkpt lat="43.70058" lon="6.97533">
        <ele>455</ele>
        <time>2012-04-24T09:24:09Z</time>
      </trkpt>
      <trkpt lat="43.70059" lon="6.97526">
        <ele>456</ele>
        <time>2012-04-24T09:24:14Z</time>
      </trkpt>
      <trkpt lat="43.70059" lon="6.97514">
        <ele>458</ele>
        <time>2012-04-24T09:24:22Z</time>
      </trkpt>
      <trkpt lat="43.70058" lon="6.97501">
        <ele>458</ele>
        <time>2012-04-24T09:24:31Z</time>
      </trkpt>
      <trkpt lat="43.70061" lon="6.97488">
        <ele>462</ele>
        <time>2012-04-24T09:24:40Z</time>
      </trkpt>
      <trkpt lat="43.70065" lon="6.97482">
        <ele>462</ele>
        <time>2012-04-24T09:24:47Z</time>
      </trkpt>
      <trkpt lat="43.70068" lon="6.97478">
        <ele>462</ele>
        <time>2012-04-24T09:24:52Z</time>
      </trkpt>
      <trkpt lat="43.7007" lon="6.97473">
        <ele>462</ele>
        <time>2012-04-24T09:24:58Z</time>
      </trkpt>
      <trkpt lat="43.70072" lon="6.9747">
        <ele>462</ele>
        <time>2012-04-24T09:25:06Z</time>
      </trkpt>
      <trkpt lat="43.70076" lon="6.97463">
        <ele>463</ele>
        <time>2012-04-24T09:25:15Z</time>
      </trkpt>
      <trkpt lat="43.7008" lon="6.97461">
        <ele>463</ele>
        <time>2012-04-24T09:25:23Z</time>
      </trkpt>
      <trkpt lat="43.70084" lon="6.97464">
        <ele>486</ele>
        <time>2012-04-24T09:25:31Z</time>
      </trkpt>
      <trkpt lat="43.70088" lon="6.97475">
        <ele>485</ele>
        <time>2012-04-24T09:25:40Z</time>
      </trkpt>
      <trkpt lat="43.70091" lon="6.97481">
        <ele>484</ele>
        <time>2012-04-24T09:25:48Z</time>
      </trkpt>
      <trkpt lat="43.70095" lon="6.97485">
        <ele>484</ele>
        <time>2012-04-24T09:25:58Z</time>
      </trkpt>
      <trkpt lat="43.70098" lon="6.9749">
        <ele>484</ele>
        <time>2012-04-24T09:26:05Z</time>
      </trkpt>
      <trkpt lat="43.70102" lon="6.97489">
        <ele>485</ele>
        <time>2012-04-24T09:26:12Z</time>
      </trkpt>
      <trkpt lat="43.70105" lon="6.97482">
        <ele>487</ele>
        <time>2012-04-24T09:26:21Z</time>
      </trkpt>
      <trkpt lat="43.70108" lon="6.97475">
        <ele>489</ele>
        <time>2012-04-24T09:26:30Z</time>
      </trkpt>
      <trkpt lat="43.70111" lon="6.97471">
        <ele>490</ele>
        <time>2012-04-24T09:26:37Z</time>
      </trkpt>
      <trkpt lat="43.70115" lon="6.97465">
        <ele>491</ele>
        <time>2012-04-24T09:26:45Z</time>
      </trkpt>
      <trkpt lat="43.70118" lon="6.97461">
        <ele>492</ele>
        <time>2012-04-24T09:26:51Z</time>
      </trkpt>
      <trkpt lat="43.70123" lon="6.97454">
        <ele>493</ele>
        <time>2012-04-24T09:27:01Z</time>
      </trkpt>
      <trkpt lat="43.70128" lon="6.97447">
        <ele>494</ele>
        <time>2012-04-24T09:27:11Z</time>
      </trkpt>
      <trkpt lat="43.70131" lon="6.97443">
        <ele>495</ele>
        <time>2012-04-24T09:27:18Z</time>
      </trkpt>
      <trkpt lat="43.70135" lon="6.97439">
        <ele>496</ele>
        <time>2012-04-24T09:27:25Z</time>
      </trkpt>
      <trkpt lat="43.70139" lon="6.97432">
        <ele>498</ele>
        <time>2012-04-24T09:27:32Z</time>
      </trkpt>
      <trkpt lat="43.70141" lon="6.97425">
        <ele>498</ele>
        <time>2012-04-24T09:27:38Z</time>
      </trkpt>
      <trkpt lat="43.70142" lon="6.97414">
        <ele>500</ele>
        <time>2012-04-24T09:27:46Z</time>
      </trkpt>
      <trkpt lat="43.70144" lon="6.97405">
        <ele>500</ele>
        <time>2012-04-24T09:27:52Z</time>
      </trkpt>
      <trkpt lat="43.70145" lon="6.974">
        <ele>500</ele>
        <time>2012-04-24T09:27:56Z</time>
      </trkpt>
      <trkpt lat="43.70146" lon="6.97389">
        <ele>499</ele>
        <time>2012-04-24T09:28:03Z</time>
      </trkpt>
      <trkpt lat="43.70148" lon="6.97384">
        <ele>499</ele>
        <time>2012-04-24T09:28:07Z</time>
      </trkpt>
      <trkpt lat="43.70156" lon="6.97373">
        <ele>500</ele>
        <time>2012-04-24T09:28:17Z</time>
      </trkpt>
      <trkpt lat="43.70156" lon="6.97372">
        <ele>500</ele>
        <time>2012-04-24T09:28:18Z</time>
      </trkpt>
      <trkpt lat="43.7016" lon="6.97362">
        <ele>501</ele>
        <time>2012-04-24T09:28:26Z</time>
      </trkpt>
      <trkpt lat="43.70164" lon="6.97352">
        <ele>503</ele>
        <time>2012-04-24T09:28:33Z</time>
      </trkpt>
      <trkpt lat="43.7017" lon="6.97343">
        <ele>518</ele>
        <time>2012-04-24T09:28:41Z</time>
      </trkpt>
      <trkpt lat="43.70177" lon="6.97334">
        <ele>519</ele>
        <time>2012-04-24T09:28:51Z</time>
      </trkpt>
      <trkpt lat="43.70181" lon="6.97329">
        <ele>521</ele>
        <time>2012-04-24T09:28:57Z</time>
      </trkpt>
      <trkpt lat="43.70184" lon="6.97326">
        <ele>523</ele>
        <time>2012-04-24T09:29:01Z</time>
      </trkpt>
      <trkpt lat="43.70189" lon="6.97316">
        <ele>528</ele>
        <time>2012-04-24T09:29:10Z</time>
      </trkpt>
      <trkpt lat="43.70193" lon="6.97306">
        <ele>530</ele>
        <time>2012-04-24T09:29:17Z</time>
      </trkpt>
      <trkpt lat="43.70198" lon="6.97298">
        <ele>532</ele>
        <time>2012-04-24T09:29:24Z</time>
      </trkpt>
      <trkpt lat="43.70202" lon="6.97287">
        <ele>533</ele>
        <time>2012-04-24T09:29:32Z</time>
      </trkpt>
      <trkpt lat="43.70206" lon="6.97274">
        <ele>533</ele>
        <time>2012-04-24T09:29:40Z</time>
      </trkpt>
      <trkpt lat="43.70208" lon="6.97264">
        <ele>534</ele>
        <time>2012-04-24T09:29:47Z</time>
      </trkpt>
      <trkpt lat="43.7021" lon="6.97254">
        <ele>535</ele>
        <time>2012-04-24T09:29:54Z</time>
      </trkpt>
      <trkpt lat="43.70213" lon="6.97244">
        <ele>535</ele>
        <time>2012-04-24T09:30:01Z</time>
      </trkpt>
      <trkpt lat="43.70214" lon="6.97227">
        <ele>535</ele>
        <time>2012-04-24T09:30:09Z</time>
      </trkpt>
      <trkpt lat="43.70216" lon="6.97208">
        <ele>535</ele>
        <time>2012-04-24T09:30:17Z</time>
      </trkpt>
      <trkpt lat="43.70214" lon="6.97183">
        <ele>535</ele>
        <time>2012-04-24T09:30:27Z</time>
      </trkpt>
      <trkpt lat="43.70213" lon="6.97179">
        <ele>535</ele>
        <time>2012-04-24T09:30:29Z</time>
      </trkpt>
      <trkpt lat="43.70218" lon="6.97172">
        <ele>537</ele>
        <time>2012-04-24T09:30:35Z</time>
      </trkpt>
      <trkpt lat="43.70222" lon="6.9718">
        <ele>538</ele>
        <time>2012-04-24T09:30:41Z</time>
      </trkpt>
      <trkpt lat="43.70221" lon="6.97185">
        <ele>538</ele>
        <time>2012-04-24T09:30:44Z</time>
      </trkpt>
      <trkpt lat="43.70225" lon="6.97201">
        <ele>538</ele>
        <time>2012-04-24T09:30:55Z</time>
      </trkpt>
      <trkpt lat="43.70229" lon="6.97213">
        <ele>538</ele>
        <time>2012-04-24T09:31:04Z</time>
      </trkpt>
      <trkpt lat="43.7023" lon="6.97227">
        <ele>540</ele>
        <time>2012-04-24T09:31:13Z</time>
      </trkpt>
      <trkpt lat="43.70229" lon="6.97244">
        <ele>542</ele>
        <time>2012-04-24T09:31:23Z</time>
      </trkpt>
      <trkpt lat="43.70229" lon="6.97254">
        <ele>543</ele>
        <time>2012-04-24T09:31:29Z</time>
      </trkpt>
      <trkpt lat="43.70228" lon="6.97266">
        <ele>541</ele>
        <time>2012-04-24T09:31:36Z</time>
      </trkpt>
      <trkpt lat="43.70228" lon="6.97284">
        <ele>540</ele>
        <time>2012-04-24T09:31:47Z</time>
      </trkpt>
      <trkpt lat="43.70229" lon="6.97289">
        <ele>540</ele>
        <time>2012-04-24T09:31:50Z</time>
      </trkpt>
      <trkpt lat="43.70233" lon="6.9729">
        <ele>541</ele>
        <time>2012-04-24T09:31:54Z</time>
      </trkpt>
      <trkpt lat="43.70234" lon="6.97288">
        <ele>541</ele>
        <time>2012-04-24T09:31:56Z</time>
      </trkpt>
      <trkpt lat="43.70234" lon="6.97273">
        <ele>542</ele>
        <time>2012-04-24T09:32:05Z</time>
      </trkpt>
      <trkpt lat="43.70235" lon="6.9727">
        <ele>543</ele>
        <time>2012-04-24T09:32:07Z</time>
      </trkpt>
      <trkpt lat="43.70237" lon="6.97264">
        <ele>544</ele>
        <time>2012-04-24T09:32:11Z</time>
      </trkpt>
      <trkpt lat="43.7024" lon="6.97247">
        <ele>547</ele>
        <time>2012-04-24T09:32:21Z</time>
      </trkpt>
      <trkpt lat="43.70242" lon="6.97236">
        <ele>545</ele>
        <time>2012-04-24T09:32:28Z</time>
      </trkpt>
      <trkpt lat="43.70244" lon="6.97219">
        <ele>542</ele>
        <time>2012-04-24T09:32:37Z</time>
      </trkpt>
      <trkpt lat="43.70248" lon="6.97203">
        <ele>542</ele>
        <time>2012-04-24T09:32:46Z</time>
      </trkpt>
      <trkpt lat="43.70251" lon="6.97184">
        <ele>567</ele>
        <time>2012-04-24T09:32:57Z</time>
      </trkpt>
      <trkpt lat="43.70252" lon="6.97173">
        <ele>561</ele>
        <time>2012-04-24T09:33:04Z</time>
      </trkpt>
      <trkpt lat="43.70251" lon="6.97161">
        <ele>561</ele>
        <time>2012-04-24T09:33:12Z</time>
      </trkpt>
      <trkpt lat="43.70254" lon="6.97162">
        <ele>562</ele>
        <time>2012-04-24T09:33:17Z</time>
      </trkpt>
      <trkpt lat="43.70256" lon="6.97174">
        <ele>564</ele>
        <time>2012-04-24T09:33:24Z</time>
      </trkpt>
      <trkpt lat="43.70257" lon="6.97176">
        <ele>565</ele>
        <time>2012-04-24T09:33:25Z</time>
      </trkpt>
      <trkpt lat="43.70262" lon="6.97194">
        <ele>572</ele>
        <time>2012-04-24T09:33:35Z</time>
      </trkpt>
      <trkpt lat="43.70266" lon="6.97212">
        <ele>574</ele>
        <time>2012-04-24T09:33:45Z</time>
      </trkpt>
      <trkpt lat="43.70265" lon="6.97229">
        <ele>572</ele>
        <time>2012-04-24T09:33:54Z</time>
      </trkpt>
      <trkpt lat="43.70266" lon="6.97246">
        <ele>568</ele>
        <time>2012-04-24T09:34:04Z</time>
      </trkpt>
      <trkpt lat="43.70268" lon="6.97259">
        <ele>570</ele>
        <time>2012-04-24T09:34:12Z</time>
      </trkpt>
      <trkpt lat="43.7027" lon="6.97252">
        <ele>570</ele>
        <time>2012-04-24T09:34:17Z</time>
      </trkpt>
      <trkpt lat="43.7027" lon="6.9725">
        <ele>570</ele>
        <time>2012-04-24T09:34:18Z</time>
      </trkpt>
      <trkpt lat="43.70271" lon="6.97227">
        <ele>574</ele>
        <time>2012-04-24T09:34:28Z</time>
      </trkpt>
      <trkpt lat="43.70273" lon="6.97208">
        <ele>576</ele>
        <time>2012-04-24T09:34:36Z</time>
      </trkpt>
      <trkpt lat="43.70273" lon="6.9719">
        <ele>575</ele>
        <time>2012-04-24T09:34:43Z</time>
      </trkpt>
      <trkpt lat="43.70275" lon="6.9717">
        <ele>573</ele>
        <time>2012-04-24T09:34:50Z</time>
      </trkpt>
      <trkpt lat="43.70275" lon="6.97155">
        <ele>577</ele>
        <time>2012-04-24T09:34:56Z</time>
      </trkpt>
      <trkpt lat="43.70275" lon="6.97136">
        <ele>580</ele>
        <time>2012-04-24T09:35:03Z</time>
      </trkpt>
      <trkpt lat="43.70275" lon="6.9712">
        <ele>581</ele>
        <time>2012-04-24T09:35:10Z</time>
      </trkpt>
      <trkpt lat="43.70274" lon="6.97104">
        <ele>580</ele>
        <time>2012-04-24T09:35:19Z</time>
      </trkpt>
      <trkpt lat="43.70273" lon="6.97095">
        <ele>579</ele>
        <time>2012-04-24T09:35:25Z</time>
      </trkpt>
      <trkpt lat="43.70273" lon="6.97087">
        <ele>578</ele>
        <time>2012-04-24T09:35:31Z</time>
      </trkpt>
      <trkpt lat="43.70272" lon="6.97073">
        <ele>582</ele>
        <time>2012-04-24T09:35:39Z</time>
      </trkpt>
      <trkpt lat="43.7027" lon="6.97059">
        <ele>584</ele>
        <time>2012-04-24T09:35:46Z</time>
      </trkpt>
      <trkpt lat="43.70269" lon="6.97045">
        <ele>585</ele>
        <time>2012-04-24T09:35:53Z</time>
      </trkpt>
      <trkpt lat="43.70269" lon="6.97026">
        <ele>585</ele>
        <time>2012-04-24T09:36:02Z</time>
      </trkpt>
      <trkpt lat="43.70269" lon="6.97012">
        <ele>582</ele>
        <time>2012-04-24T09:36:09Z</time>
      </trkpt>
      <trkpt lat="43.70269" lon="6.96997">
        <ele>583</ele>
        <time>2012-04-24T09:36:17Z</time>
      </trkpt>
      <trkpt lat="43.7027" lon="6.96979">
        <ele>588</ele>
        <time>2012-04-24T09:36:25Z</time>
      </trkpt>
      <trkpt lat="43.70271" lon="6.96962">
        <ele>590</ele>
        <time>2012-04-24T09:36:33Z</time>
      </trkpt>
      <trkpt lat="43.70271" lon="6.96945">
        <ele>590</ele>
        <time>2012-04-24T09:36:41Z</time>
      </trkpt>
      <trkpt lat="43.70271" lon="6.96925">
        <ele>587</ele>
        <time>2012-04-24T09:36:51Z</time>
      </trkpt>
      <trkpt lat="43.70272" lon="6.96912">
        <ele>588</ele>
        <time>2012-04-24T09:36:57Z</time>
      </trkpt>
      <trkpt lat="43.70272" lon="6.96897">
        <ele>590</ele>
        <time>2012-04-24T09:37:04Z</time>
      </trkpt>
      <trkpt lat="43.70269" lon="6.96881">
        <ele>592</ele>
        <time>2012-04-24T09:37:12Z</time>
      </trkpt>
      <trkpt lat="43.70267" lon="6.96865">
        <ele>591</ele>
        <time>2012-04-24T09:37:20Z</time>
      </trkpt>
      <trkpt lat="43.70266" lon="6.96843">
        <ele>586</ele>
        <time>2012-04-24T09:37:30Z</time>
      </trkpt>
      <trkpt lat="43.70268" lon="6.96829">
        <ele>586</ele>
        <time>2012-04-24T09:37:37Z</time>
      </trkpt>
      <trkpt lat="43.70274" lon="6.9681">
        <ele>593</ele>
        <time>2012-04-24T09:37:46Z</time>
      </trkpt>
      <trkpt lat="43.70274" lon="6.96799">
        <ele>594</ele>
        <time>2012-04-24T09:37:52Z</time>
      </trkpt>
      <trkpt lat="43.70272" lon="6.96779">
        <ele>592</ele>
        <time>2012-04-24T09:38:02Z</time>
      </trkpt>
      <trkpt lat="43.70274" lon="6.96764">
        <ele>591</ele>
        <time>2012-04-24T09:38:09Z</time>
      </trkpt>
      <trkpt lat="43.70282" lon="6.96747">
        <ele>598</ele>
        <time>2012-04-24T09:38:18Z</time>
      </trkpt>
      <trkpt lat="43.70286" lon="6.96732">
        <ele>601</ele>
        <time>2012-04-24T09:38:26Z</time>
      </trkpt>
      <trkpt lat="43.70284" lon="6.96721">
        <ele>602</ele>
        <time>2012-04-24T09:38:31Z</time>
      </trkpt>
      <trkpt lat="43.70278" lon="6.96704">
        <ele>600</ele>
        <time>2012-04-24T09:38:36Z</time>
      </trkpt>
      <trkpt lat="43.70269" lon="6.96678">
        <ele>594</ele>
        <time>2012-04-24T09:38:43Z</time>
      </trkpt>
      <trkpt lat="43.70261" lon="6.9665">
        <ele>598</ele>
        <time>2012-04-24T09:38:50Z</time>
      </trkpt>
      <trkpt lat="43.70259" lon="6.96625">
        <ele>606</ele>
        <time>2012-04-24T09:38:56Z</time>
      </trkpt>
      <trkpt lat="43.70255" lon="6.96602">
        <ele>605</ele>
        <time>2012-04-24T09:39:02Z</time>
      </trkpt>
      <trkpt lat="43.70252" lon="6.96574">
        <ele>606</ele>
        <time>2012-04-24T09:39:08Z</time>
      </trkpt>
      <trkpt lat="43.70246" lon="6.96545">
        <ele>597</ele>
        <time>2012-04-24T09:39:13Z</time>
      </trkpt>
      <trkpt lat="43.70237" lon="6.96519">
        <ele>600</ele>
        <time>2012-04-24T09:39:18Z</time>
      </trkpt>
      <trkpt lat="43.70229" lon="6.96477">
        <ele>608</ele>
        <time>2012-04-24T09:39:25Z</time>
      </trkpt>
      <trkpt lat="43.70223" lon="6.96445">
        <ele>610</ele>
        <time>2012-04-24T09:39:32Z</time>
      </trkpt>
      <trkpt lat="43.70217" lon="6.96421">
        <ele>611</ele>
        <time>2012-04-24T09:39:39Z</time>
      </trkpt>
      <trkpt lat="43.70214" lon="6.96403">
        <ele>618</ele>
        <time>2012-04-24T09:39:45Z</time>
      </trkpt>
      <trkpt lat="43.70206" lon="6.96381">
        <ele>618</ele>
        <time>2012-04-24T09:39:53Z</time>
      </trkpt>
      <trkpt lat="43.702" lon="6.96362">
        <ele>619</ele>
        <time>2012-04-24T09:40:01Z</time>
      </trkpt>
      <trkpt lat="43.70196" lon="6.96344">
        <ele>618</ele>
        <time>2012-04-24T09:40:08Z</time>
      </trkpt>
      <trkpt lat="43.70192" lon="6.96327">
        <ele>624</ele>
        <time>2012-04-24T09:40:15Z</time>
      </trkpt>
      <trkpt lat="43.70181" lon="6.96307">
        <ele>625</ele>
        <time>2012-04-24T09:40:24Z</time>
      </trkpt>
      <trkpt lat="43.70169" lon="6.96283">
        <ele>626</ele>
        <time>2012-04-24T09:40:35Z</time>
      </trkpt>
      <trkpt lat="43.7016" lon="6.96266">
        <ele>620</ele>
        <time>2012-04-24T09:40:43Z</time>
      </trkpt>
      <trkpt lat="43.70151" lon="6.9625">
        <ele>621</ele>
        <time>2012-04-24T09:40:51Z</time>
      </trkpt>
      <trkpt lat="43.70145" lon="6.96241">
        <ele>626</ele>
        <time>2012-04-24T09:40:57Z</time>
      </trkpt>
      <trkpt lat="43.70137" lon="6.9623">
        <ele>627</ele>
        <time>2012-04-24T09:41:04Z</time>
      </trkpt>
      <trkpt lat="43.70129" lon="6.96219">
        <ele>628</ele>
        <time>2012-04-24T09:41:11Z</time>
      </trkpt>
      <trkpt lat="43.70123" lon="6.96215">
        <ele>628</ele>
        <time>2012-04-24T09:41:16Z</time>
      </trkpt>
      <trkpt lat="43.70114" lon="6.96203">
        <ele>629</ele>
        <time>2012-04-24T09:41:23Z</time>
      </trkpt>
      <trkpt lat="43.70106" lon="6.96189">
        <ele>629</ele>
        <time>2012-04-24T09:41:31Z</time>
      </trkpt>
      <trkpt lat="43.7009" lon="6.96177">
        <ele>628</ele>
        <time>2012-04-24T09:41:41Z</time>
      </trkpt>
      <trkpt lat="43.70079" lon="6.96163">
        <ele>629</ele>
        <time>2012-04-24T09:41:50Z</time>
      </trkpt>
      <trkpt lat="43.7007" lon="6.96153">
        <ele>631</ele>
        <time>2012-04-24T09:41:57Z</time>
      </trkpt>
      <trkpt lat="43.70058" lon="6.96135">
        <ele>632</ele>
        <time>2012-04-24T09:42:07Z</time>
      </trkpt>
      <trkpt lat="43.70054" lon="6.9613">
        <ele>632</ele>
        <time>2012-04-24T09:42:10Z</time>
      </trkpt>
      <trkpt lat="43.70059" lon="6.96127">
        <ele>633</ele>
        <time>2012-04-24T09:42:15Z</time>
      </trkpt>
      <trkpt lat="43.70064" lon="6.9613">
        <ele>633</ele>
        <time>2012-04-24T09:42:18Z</time>
      </trkpt>
      <trkpt lat="43.70089" lon="6.96149">
        <ele>638</ele>
        <time>2012-04-24T09:42:28Z</time>
      </trkpt>
      <trkpt lat="43.70119" lon="6.96169">
        <ele>631</ele>
        <time>2012-04-24T09:42:38Z</time>
      </trkpt>
      <trkpt lat="43.7015" lon="6.96191">
        <ele>633</ele>
        <time>2012-04-24T09:42:49Z</time>
      </trkpt>
      <trkpt lat="43.70177" lon="6.9621">
        <ele>643</ele>
        <time>2012-04-24T09:42:58Z</time>
      </trkpt>
      <trkpt lat="43.70204" lon="6.96237">
        <ele>644</ele>
        <time>2012-04-24T09:43:08Z</time>
      </trkpt>
      <trkpt lat="43.7022" lon="6.96265">
        <ele>636</ele>
        <time>2012-04-24T09:43:15Z</time>
      </trkpt>
      <trkpt lat="43.70239" lon="6.96306">
        <ele>634</ele>
        <time>2012-04-24T09:43:25Z</time>
      </trkpt>
      <trkpt lat="43.70264" lon="6.96358">
        <ele>646</ele>
        <time>2012-04-24T09:43:38Z</time>
      </trkpt>
      <trkpt lat="43.70279" lon="6.96391">
        <ele>647</ele>
        <time>2012-04-24T09:43:46Z</time>
      </trkpt>
      <trkpt lat="43.70291" lon="6.96432">
        <ele>641</ele>
        <time>2012-04-24T09:43:55Z</time>
      </trkpt>
      <trkpt lat="43.703" lon="6.96485">
        <ele>642</ele>
        <time>2012-04-24T09:44:06Z</time>
      </trkpt>
      <trkpt lat="43.7031" lon="6.96542">
        <ele>634</ele>
        <time>2012-04-24T09:44:18Z</time>
      </trkpt>
      <trkpt lat="43.70318" lon="6.96594">
        <ele>633</ele>
        <time>2012-04-24T09:44:29Z</time>
      </trkpt>
      <trkpt lat="43.70328" lon="6.96646">
        <ele>630</ele>
        <time>2012-04-24T09:44:40Z</time>
      </trkpt>
      <trkpt lat="43.70338" lon="6.96704">
        <ele>656</ele>
        <time>2012-04-24T09:44:52Z</time>
      </trkpt>
      <trkpt lat="43.70347" lon="6.96755">
        <ele>647</ele>
        <time>2012-04-24T09:45:03Z</time>
      </trkpt>
      <trkpt lat="43.70349" lon="6.96799">
        <ele>651</ele>
        <time>2012-04-24T09:45:12Z</time>
      </trkpt>
      <trkpt lat="43.70352" lon="6.96836">
        <ele>644</ele>
        <time>2012-04-24T09:45:20Z</time>
      </trkpt>
      <trkpt lat="43.70359" lon="6.96885">
        <ele>647</ele>
        <time>2012-04-24T09:45:30Z</time>
      </trkpt>
      <trkpt lat="43.70365" lon="6.96938">
        <ele>643</ele>
        <time>2012-04-24T09:45:41Z</time>
      </trkpt>
      <trkpt lat="43.70371" lon="6.96981">
        <ele>643</ele>
        <time>2012-04-24T09:45:50Z</time>
      </trkpt>
      <trkpt lat="43.70378" lon="6.97021">
        <ele>639</ele>
        <time>2012-04-24T09:45:59Z</time>
      </trkpt>
      <trkpt lat="43.70387" lon="6.97041">
        <ele>640</ele>
        <time>2012-04-24T09:46:04Z</time>
      </trkpt>
      <trkpt lat="43.70411" lon="6.9707">
        <ele>644</ele>
        <time>2012-04-24T09:46:13Z</time>
      </trkpt>
      <trkpt lat="43.70432" lon="6.97092">
        <ele>651</ele>
        <time>2012-04-24T09:46:21Z</time>
      </trkpt>
      <trkpt lat="43.70454" lon="6.97115">
        <ele>653</ele>
        <time>2012-04-24T09:46:29Z</time>
      </trkpt>
      <trkpt lat="43.70475" lon="6.97134">
        <ele>653</ele>
        <time>2012-04-24T09:46:36Z</time>
      </trkpt>
      <trkpt lat="43.70503" lon="6.97152">
        <ele>659</ele>
        <time>2012-04-24T09:46:45Z</time>
      </trkpt>
      <trkpt lat="43.70526" lon="6.97161">
        <ele>661</ele>
        <time>2012-04-24T09:46:52Z</time>
      </trkpt>
      <trkpt lat="43.70553" lon="6.97167">
        <ele>653</ele>
        <time>2012-04-24T09:47:00Z</time>
      </trkpt>
      <trkpt lat="43.70577" lon="6.97168">
        <ele>658</ele>
        <time>2012-04-24T09:47:07Z</time>
      </trkpt>
      <trkpt lat="43.70612" lon="6.97167">
        <ele>658</ele>
        <time>2012-04-24T09:47:17Z</time>
      </trkpt>
      <trkpt lat="43.70643" lon="6.97173">
        <ele>659</ele>
        <time>2012-04-24T09:47:26Z</time>
      </trkpt>
      <trkpt lat="43.7068" lon="6.97186">
        <ele>664</ele>
        <time>2012-04-24T09:47:37Z</time>
      </trkpt>
      <trkpt lat="43.70708" lon="6.97206">
        <ele>665</ele>
        <time>2012-04-24T09:47:46Z</time>
      </trkpt>
      <trkpt lat="43.70739" lon="6.97244">
        <ele>665</ele>
        <time>2012-04-24T09:47:57Z</time>
      </trkpt>
      <trkpt lat="43.70755" lon="6.97282">
        <ele>669</ele>
        <time>2012-04-24T09:48:06Z</time>
      </trkpt>
      <trkpt lat="43.70768" lon="6.97329">
        <ele>667</ele>
        <time>2012-04-24T09:48:16Z</time>
      </trkpt>
      <trkpt lat="43.7078" lon="6.97357">
        <ele>667</ele>
        <time>2012-04-24T09:48:23Z</time>
      </trkpt>
      <trkpt lat="43.70786" lon="6.97375">
        <ele>668</ele>
        <time>2012-04-24T09:48:29Z</time>
      </trkpt>
      <trkpt lat="43.70793" lon="6.97373">
        <ele>669</ele>
        <time>2012-04-24T09:48:33Z</time>
      </trkpt>
      <trkpt lat="43.70797" lon="6.97362">
        <ele>669</ele>
        <time>2012-04-24T09:48:38Z</time>
      </trkpt>
      <trkpt lat="43.70798" lon="6.97358">
        <ele>669</ele>
        <time>2012-04-24T09:48:40Z</time>
      </trkpt>
      <trkpt lat="43.70802" lon="6.9733">
        <ele>672</ele>
        <time>2012-04-24T09:48:51Z</time>
      </trkpt>
      <trkpt lat="43.70807" lon="6.97312">
        <ele>672</ele>
        <time>2012-04-24T09:48:59Z</time>
      </trkpt>
      <trkpt lat="43.70811" lon="6.97298">
        <ele>673</ele>
        <time>2012-04-24T09:49:06Z</time>
      </trkpt>
      <trkpt lat="43.70815" lon="6.97281">
        <ele>674</ele>
        <time>2012-04-24T09:49:14Z</time>
      </trkpt>
      <trkpt lat="43.70824" lon="6.97264">
        <ele>676</ele>
        <time>2012-04-24T09:49:23Z</time>
      </trkpt>
      <trkpt lat="43.70833" lon="6.97249">
        <ele>681</ele>
        <time>2012-04-24T09:49:32Z</time>
      </trkpt>
      <trkpt lat="43.70845" lon="6.97234">
        <ele>684</ele>
        <time>2012-04-24T09:49:42Z</time>
      </trkpt>
      <trkpt lat="43.70853" lon="6.97224">
        <ele>685</ele>
        <time>2012-04-24T09:49:49Z</time>
      </trkpt>
      <trkpt lat="43.70868" lon="6.97209">
        <ele>686</ele>
        <time>2012-04-24T09:50:00Z</time>
      </trkpt>
      <trkpt lat="43.7088" lon="6.97196">
        <ele>687</ele>
        <time>2012-04-24T09:50:09Z</time>
      </trkpt>
      <trkpt lat="43.70888" lon="6.97179">
        <ele>688</ele>
        <time>2012-04-24T09:50:18Z</time>
      </trkpt>
      <trkpt lat="43.70896" lon="6.97157">
        <ele>692</ele>
        <time>2012-04-24T09:50:29Z</time>
      </trkpt>
      <trkpt lat="43.70899" lon="6.97145">
        <ele>693</ele>
        <time>2012-04-24T09:50:35Z</time>
      </trkpt>
      <trkpt lat="43.70905" lon="6.97127">
        <ele>693</ele>
        <time>2012-04-24T09:50:44Z</time>
      </trkpt>
      <trkpt lat="43.70911" lon="6.97115">
        <ele>694</ele>
        <time>2012-04-24T09:50:51Z</time>
      </trkpt>
      <trkpt lat="43.70919" lon="6.97104">
        <ele>695</ele>
        <time>2012-04-24T09:50:59Z</time>
      </trkpt>
      <trkpt lat="43.70926" lon="6.97085">
        <ele>696</ele>
        <time>2012-04-24T09:51:08Z</time>
      </trkpt>
      <trkpt lat="43.70935" lon="6.97062">
        <ele>700</ele>
        <time>2012-04-24T09:51:18Z</time>
      </trkpt>
      <trkpt lat="43.70946" lon="6.97037">
        <ele>701</ele>
        <time>2012-04-24T09:51:29Z</time>
      </trkpt>
      <trkpt lat="43.70954" lon="6.97015">
        <ele>702</ele>
        <time>2012-04-24T09:51:39Z</time>
      </trkpt>
      <trkpt lat="43.70959" lon="6.9699">
        <ele>708</ele>
        <time>2012-04-24T09:51:49Z</time>
      </trkpt>
      <trkpt lat="43.70962" lon="6.96966">
        <ele>709</ele>
        <time>2012-04-24T09:51:58Z</time>
      </trkpt>
      <trkpt lat="43.70963" lon="6.9694">
        <ele>711</ele>
        <time>2012-04-24T09:52:07Z</time>
      </trkpt>
      <trkpt lat="43.70968" lon="6.96909">
        <ele>717</ele>
        <time>2012-04-24T09:52:17Z</time>
      </trkpt>
      <trkpt lat="43.70978" lon="6.96898">
        <ele>717</ele>
        <time>2012-04-24T09:52:22Z</time>
      </trkpt>
      <trkpt lat="43.70988" lon="6.96907">
        <ele>716</ele>
        <time>2012-04-24T09:52:27Z</time>
      </trkpt>
      <trkpt lat="43.70998" lon="6.96932">
        <ele>711</ele>
        <time>2012-04-24T09:52:36Z</time>
      </trkpt>
      <trkpt lat="43.71008" lon="6.96954">
        <ele>713</ele>
        <time>2012-04-24T09:52:44Z</time>
      </trkpt>
      <trkpt lat="43.71018" lon="6.96974">
        <ele>712</ele>
        <time>2012-04-24T09:52:52Z</time>
      </trkpt>
      <trkpt lat="43.71031" lon="6.96984">
        <ele>713</ele>
        <time>2012-04-24T09:52:59Z</time>
      </trkpt>
      <trkpt lat="43.71048" lon="6.96989">
        <ele>714</ele>
        <time>2012-04-24T09:53:07Z</time>
      </trkpt>
      <trkpt lat="43.71063" lon="6.96993">
        <ele>715</ele>
        <time>2012-04-24T09:53:14Z</time>
      </trkpt>
      <trkpt lat="43.71078" lon="6.97">
        <ele>715</ele>
        <time>2012-04-24T09:53:22Z</time>
      </trkpt>
      <trkpt lat="43.71089" lon="6.97007">
        <ele>717</ele>
        <time>2012-04-24T09:53:28Z</time>
      </trkpt>
      <trkpt lat="43.7111" lon="6.97014">
        <ele>717</ele>
        <time>2012-04-24T09:53:38Z</time>
      </trkpt>
      <trkpt lat="43.71126" lon="6.97017">
        <ele>718</ele>
        <time>2012-04-24T09:53:46Z</time>
      </trkpt>
      <trkpt lat="43.71139" lon="6.9702">
        <ele>719</ele>
        <time>2012-04-24T09:53:52Z</time>
      </trkpt>
      <trkpt lat="43.71154" lon="6.97024">
        <ele>721</ele>
        <time>2012-04-24T09:53:59Z</time>
      </trkpt>
      <trkpt lat="43.71174" lon="6.9703">
        <ele>727</ele>
        <time>2012-04-24T09:54:09Z</time>
      </trkpt>
      <trkpt lat="43.71191" lon="6.97037">
        <ele>727</ele>
        <time>2012-04-24T09:54:18Z</time>
      </trkpt>
      <trkpt lat="43.71203" lon="6.97042">
        <ele>727</ele>
        <time>2012-04-24T09:54:25Z</time>
      </trkpt>
      <trkpt lat="43.71217" lon="6.97048">
        <ele>728</ele>
        <time>2012-04-24T09:54:33Z</time>
      </trkpt>
      <trkpt lat="43.71226" lon="6.97048">
        <ele>728</ele>
        <time>2012-04-24T09:54:38Z</time>
      </trkpt>
      <trkpt lat="43.71242" lon="6.97048">
        <ele>729</ele>
        <time>2012-04-24T09:54:45Z</time>
      </trkpt>
      <trkpt lat="43.71258" lon="6.9705">
        <ele>736</ele>
        <time>2012-04-24T09:54:53Z</time>
      </trkpt>
      <trkpt lat="43.71273" lon="6.97054">
        <ele>736</ele>
        <time>2012-04-24T09:55:01Z</time>
      </trkpt>
      <trkpt lat="43.71288" lon="6.97059">
        <ele>737</ele>
        <time>2012-04-24T09:55:09Z</time>
      </trkpt>
      <trkpt lat="43.713" lon="6.97065">
        <ele>737</ele>
        <time>2012-04-24T09:55:15Z</time>
      </trkpt>
      <trkpt lat="43.71312" lon="6.97072">
        <ele>737</ele>
        <time>2012-04-24T09:55:21Z</time>
      </trkpt>
      <trkpt lat="43.71325" lon="6.9708">
        <ele>737</ele>
        <time>2012-04-24T09:55:27Z</time>
      </trkpt>
      <trkpt lat="43.71337" lon="6.97089">
        <ele>736</ele>
        <time>2012-04-24T09:55:33Z</time>
      </trkpt>
      <trkpt lat="43.71358" lon="6.97108">
        <ele>736</ele>
        <time>2012-04-24T09:55:42Z</time>
      </trkpt>
      <trkpt lat="43.71377" lon="6.97126">
        <ele>736</ele>
        <time>2012-04-24T09:55:51Z</time>
      </trkpt>
      <trkpt lat="43.7139" lon="6.97139">
        <ele>736</ele>
        <time>2012-04-24T09:55:57Z</time>
      </trkpt>
      <trkpt lat="43.71409" lon="6.97162">
        <ele>737</ele>
        <time>2012-04-24T09:56:06Z</time>
      </trkpt>
      <trkpt lat="43.71424" lon="6.97181">
        <ele>738</ele>
        <time>2012-04-24T09:56:14Z</time>
      </trkpt>
      <trkpt lat="43.71442" lon="6.97195">
        <ele>737</ele>
        <time>2012-04-24T09:56:22Z</time>
      </trkpt>
      <trkpt lat="43.71454" lon="6.97204">
        <ele>738</ele>
        <time>2012-04-24T09:56:28Z</time>
      </trkpt>
      <trkpt lat="43.71465" lon="6.97214">
        <ele>737</ele>
        <time>2012-04-24T09:56:34Z</time>
      </trkpt>
      <trkpt lat="43.7147" lon="6.97204">
        <ele>739</ele>
        <time>2012-04-24T09:56:39Z</time>
      </trkpt>
      <trkpt lat="43.71464" lon="6.97194">
        <ele>739</ele>
        <time>2012-04-24T09:56:43Z</time>
      </trkpt>
      <trkpt lat="43.71449" lon="6.97177">
        <ele>739</ele>
        <time>2012-04-24T09:56:52Z</time>
      </trkpt>
      <trkpt lat="43.71437" lon="6.97163">
        <ele>746</ele>
        <time>2012-04-24T09:56:59Z</time>
      </trkpt>
      <trkpt lat="43.71425" lon="6.97139">
        <ele>747</ele>
        <time>2012-04-24T09:57:08Z</time>
      </trkpt>
      <trkpt lat="43.71409" lon="6.9711">
        <ele>742</ele>
        <time>2012-04-24T09:57:19Z</time>
      </trkpt>
      <trkpt lat="43.71395" lon="6.97089">
        <ele>743</ele>
        <time>2012-04-24T09:57:28Z</time>
      </trkpt>
      <trkpt lat="43.71379" lon="6.97066">
        <ele>750</ele>
        <time>2012-04-24T09:57:38Z</time>
      </trkpt>
      <trkpt lat="43.71369" lon="6.9705">
        <ele>750</ele>
        <time>2012-04-24T09:57:46Z</time>
      </trkpt>
      <trkpt lat="43.71364" lon="6.97042">
        <ele>751</ele>
        <time>2012-04-24T09:57:50Z</time>
      </trkpt>
      <trkpt lat="43.71349" lon="6.97016">
        <ele>752</ele>
        <time>2012-04-24T09:58:00Z</time>
      </trkpt>
      <trkpt lat="43.71333" lon="6.96989">
        <ele>757</ele>
        <time>2012-04-24T09:58:11Z</time>
      </trkpt>
      <trkpt lat="43.71321" lon="6.96974">
        <ele>753</ele>
        <time>2012-04-24T09:58:19Z</time>
      </trkpt>
      <trkpt lat="43.71309" lon="6.96952">
        <ele>753</ele>
        <time>2012-04-24T09:58:28Z</time>
      </trkpt>
      <trkpt lat="43.71304" lon="6.96936">
        <ele>754</ele>
        <time>2012-04-24T09:58:34Z</time>
      </trkpt>
      <trkpt lat="43.71299" lon="6.96916">
        <ele>759</ele>
        <time>2012-04-24T09:58:41Z</time>
      </trkpt>
      <trkpt lat="43.71295" lon="6.96895">
        <ele>759</ele>
        <time>2012-04-24T09:58:49Z</time>
      </trkpt>
      <trkpt lat="43.71292" lon="6.96868">
        <ele>760</ele>
        <time>2012-04-24T09:58:58Z</time>
      </trkpt>
      <trkpt lat="43.71285" lon="6.9684">
        <ele>761</ele>
        <time>2012-04-24T09:59:08Z</time>
      </trkpt>
      <trkpt lat="43.71276" lon="6.9681">
        <ele>765</ele>
        <time>2012-04-24T09:59:18Z</time>
      </trkpt>
      <trkpt lat="43.71265" lon="6.96779">
        <ele>766</ele>
        <time>2012-04-24T09:59:29Z</time>
      </trkpt>
      <trkpt lat="43.71257" lon="6.96758">
        <ele>766</ele>
        <time>2012-04-24T09:59:37Z</time>
      </trkpt>
      <trkpt lat="43.71251" lon="6.96743">
        <ele>767</ele>
        <time>2012-04-24T09:59:43Z</time>
      </trkpt>
      <trkpt lat="43.71239" lon="6.9672">
        <ele>765</ele>
        <time>2012-04-24T09:59:52Z</time>
      </trkpt>
      <trkpt lat="43.71227" lon="6.96692">
        <ele>766</ele>
        <time>2012-04-24T10:00:02Z</time>
      </trkpt>
      <trkpt lat="43.71224" lon="6.96667">
        <ele>767</ele>
        <time>2012-04-24T10:00:10Z</time>
      </trkpt>
      <trkpt lat="43.71225" lon="6.96648">
        <ele>770</ele>
        <time>2012-04-24T10:00:16Z</time>
      </trkpt>
      <trkpt lat="43.71224" lon="6.9662">
        <ele>771</ele>
        <time>2012-04-24T10:00:25Z</time>
      </trkpt>
      <trkpt lat="43.71222" lon="6.96588">
        <ele>772</ele>
        <time>2012-04-24T10:00:35Z</time>
      </trkpt>
      <trkpt lat="43.71221" lon="6.96565">
        <ele>775</ele>
        <time>2012-04-24T10:00:43Z</time>
      </trkpt>
      <trkpt lat="43.71219" lon="6.96542">
        <ele>775</ele>
        <time>2012-04-24T10:00:51Z</time>
      </trkpt>
      <trkpt lat="43.71219" lon="6.96522">
        <ele>775</ele>
        <time>2012-04-24T10:00:58Z</time>
      </trkpt>
      <trkpt lat="43.71219" lon="6.96492">
        <ele>777</ele>
        <time>2012-04-24T10:01:08Z</time>
      </trkpt>
      <trkpt lat="43.71217" lon="6.9646">
        <ele>778</ele>
        <time>2012-04-24T10:01:18Z</time>
      </trkpt>
      <trkpt lat="43.71208" lon="6.9643">
        <ele>778</ele>
        <time>2012-04-24T10:01:27Z</time>
      </trkpt>
      <trkpt lat="43.71194" lon="6.96408">
        <ele>780</ele>
        <time>2012-04-24T10:01:35Z</time>
      </trkpt>
      <trkpt lat="43.71184" lon="6.96391">
        <ele>780</ele>
        <time>2012-04-24T10:01:41Z</time>
      </trkpt>
      <trkpt lat="43.71172" lon="6.96363">
        <ele>781</ele>
        <time>2012-04-24T10:01:50Z</time>
      </trkpt>
      <trkpt lat="43.71165" lon="6.96346">
        <ele>781</ele>
        <time>2012-04-24T10:01:56Z</time>
      </trkpt>
      <trkpt lat="43.71163" lon="6.96325">
        <ele>782</ele>
        <time>2012-04-24T10:02:03Z</time>
      </trkpt>
      <trkpt lat="43.71163" lon="6.963">
        <ele>783</ele>
        <time>2012-04-24T10:02:12Z</time>
      </trkpt>
      <trkpt lat="43.71162" lon="6.96278">
        <ele>784</ele>
        <time>2012-04-24T10:02:20Z</time>
      </trkpt>
      <trkpt lat="43.71162" lon="6.96272">
        <ele>785</ele>
        <time>2012-04-24T10:02:22Z</time>
      </trkpt>
      <trkpt lat="43.71171" lon="6.96266">
        <ele>787</ele>
        <time>2012-04-24T10:02:27Z</time>
      </trkpt>
      <trkpt lat="43.7118" lon="6.96275">
        <ele>787</ele>
        <time>2012-04-24T10:02:32Z</time>
      </trkpt>
      <trkpt lat="43.712" lon="6.96289">
        <ele>786</ele>
        <time>2012-04-24T10:02:42Z</time>
      </trkpt>
      <trkpt lat="43.71218" lon="6.96289">
        <ele>787</ele>
        <time>2012-04-24T10:02:50Z</time>
      </trkpt>
      <trkpt lat="43.71238" lon="6.96283">
        <ele>788</ele>
        <time>2012-04-24T10:02:57Z</time>
      </trkpt>
      <trkpt lat="43.71256" lon="6.96281">
        <ele>790</ele>
        <time>2012-04-24T10:03:03Z</time>
      </trkpt>
      <trkpt lat="43.71276" lon="6.96277">
        <ele>791</ele>
        <time>2012-04-24T10:03:09Z</time>
      </trkpt>
      <trkpt lat="43.71296" lon="6.96275">
        <ele>791</ele>
        <time>2012-04-24T10:03:15Z</time>
      </trkpt>
      <trkpt lat="43.71307" lon="6.96288">
        <ele>791</ele>
        <time>2012-04-24T10:03:19Z</time>
      </trkpt>
      <trkpt lat="43.71324" lon="6.96305">
        <ele>790</ele>
        <time>2012-04-24T10:03:25Z</time>
      </trkpt>
      <trkpt lat="43.71347" lon="6.96313">
        <ele>792</ele>
        <time>2012-04-24T10:03:31Z</time>
      </trkpt>
      <trkpt lat="43.71364" lon="6.96323">
        <ele>792</ele>
        <time>2012-04-24T10:03:36Z</time>
      </trkpt>
      <trkpt lat="43.71379" lon="6.96339">
        <ele>789</ele>
        <time>2012-04-24T10:03:40Z</time>
      </trkpt>
      <trkpt lat="43.71387" lon="6.96355">
        <ele>789</ele>
        <time>2012-04-24T10:03:43Z</time>
      </trkpt>
      <trkpt lat="43.71406" lon="6.9639">
        <ele>788</ele>
        <time>2012-04-24T10:03:50Z</time>
      </trkpt>
      <trkpt lat="43.71427" lon="6.96426">
        <ele>789</ele>
        <time>2012-04-24T10:03:57Z</time>
      </trkpt>
      <trkpt lat="43.71433" lon="6.96443">
        <ele>790</ele>
        <time>2012-04-24T10:04:00Z</time>
      </trkpt>
      <trkpt lat="43.71434" lon="6.96476">
        <ele>789</ele>
        <time>2012-04-24T10:04:05Z</time>
      </trkpt>
      <trkpt lat="43.71431" lon="6.96517">
        <ele>788</ele>
        <time>2012-04-24T10:04:11Z</time>
      </trkpt>
      <trkpt lat="43.7144" lon="6.96566">
        <ele>788</ele>
        <time>2012-04-24T10:04:18Z</time>
      </trkpt>
      <trkpt lat="43.71447" lon="6.96588">
        <ele>787</ele>
        <time>2012-04-24T10:04:21Z</time>
      </trkpt>
      <trkpt lat="43.71449" lon="6.96637">
        <ele>787</ele>
        <time>2012-04-24T10:04:27Z</time>
      </trkpt>
      <trkpt lat="43.71449" lon="6.96645">
        <ele>787</ele>
        <time>2012-04-24T10:04:28Z</time>
      </trkpt>
      <trkpt lat="43.7145" lon="6.96662">
        <ele>787</ele>
        <time>2012-04-24T10:04:30Z</time>
      </trkpt>
      <trkpt lat="43.71461" lon="6.96691">
        <ele>785</ele>
        <time>2012-04-24T10:04:34Z</time>
      </trkpt>
      <trkpt lat="43.71482" lon="6.96733">
        <ele>785</ele>
        <time>2012-04-24T10:04:40Z</time>
      </trkpt>
      <trkpt lat="43.71499" lon="6.96753">
        <ele>785</ele>
        <time>2012-04-24T10:04:44Z</time>
      </trkpt>
      <trkpt lat="43.71522" lon="6.96758">
        <ele>783</ele>
        <time>2012-04-24T10:04:48Z</time>
      </trkpt>
      <trkpt lat="43.71546" lon="6.9675">
        <ele>782</ele>
        <time>2012-04-24T10:04:52Z</time>
      </trkpt>
      <trkpt lat="43.71575" lon="6.96716">
        <ele>781</ele>
        <time>2012-04-24T10:04:58Z</time>
      </trkpt>
      <trkpt lat="43.71581" lon="6.96699">
        <ele>781</ele>
        <time>2012-04-24T10:05:00Z</time>
      </trkpt>
      <trkpt lat="43.71609" lon="6.96638">
        <ele>779</ele>
        <time>2012-04-24T10:05:08Z</time>
      </trkpt>
      <trkpt lat="43.71632" lon="6.96589">
        <ele>779</ele>
        <time>2012-04-24T10:05:15Z</time>
      </trkpt>
      <trkpt lat="43.71646" lon="6.96566">
        <ele>781</ele>
        <time>2012-04-24T10:05:19Z</time>
      </trkpt>
      <trkpt lat="43.7167" lon="6.96539">
        <ele>776</ele>
        <time>2012-04-24T10:05:26Z</time>
      </trkpt>
      <trkpt lat="43.71688" lon="6.96526">
        <ele>777</ele>
        <time>2012-04-24T10:05:32Z</time>
      </trkpt>
      <trkpt lat="43.71704" lon="6.96497">
        <ele>779</ele>
        <time>2012-04-24T10:05:39Z</time>
      </trkpt>
      <trkpt lat="43.7171" lon="6.96481">
        <ele>779</ele>
        <time>2012-04-24T10:05:42Z</time>
      </trkpt>
      <trkpt lat="43.7172" lon="6.96463">
        <ele>779</ele>
        <time>2012-04-24T10:05:46Z</time>
      </trkpt>
      <trkpt lat="43.71748" lon="6.96437">
        <ele>777</ele>
        <time>2012-04-24T10:05:53Z</time>
      </trkpt>
      <trkpt lat="43.71752" lon="6.96433">
        <ele>770</ele>
        <time>2012-04-24T10:05:54Z</time>
      </trkpt>
      <trkpt lat="43.71768" lon="6.96412">
        <ele>769</ele>
        <time>2012-04-24T10:05:58Z</time>
      </trkpt>
      <trkpt lat="43.71777" lon="6.96394">
        <ele>767</ele>
        <time>2012-04-24T10:06:01Z</time>
      </trkpt>
      <trkpt lat="43.71786" lon="6.96369">
        <ele>766</ele>
        <time>2012-04-24T10:06:05Z</time>
      </trkpt>
      <trkpt lat="43.71796" lon="6.96324">
        <ele>767</ele>
        <time>2012-04-24T10:06:12Z</time>
      </trkpt>
      <trkpt lat="43.71805" lon="6.96279">
        <ele>767</ele>
        <time>2012-04-24T10:06:18Z</time>
      </trkpt>
      <trkpt lat="43.71808" lon="6.96266">
        <ele>767</ele>
        <time>2012-04-24T10:06:20Z</time>
      </trkpt>
      <trkpt lat="43.71818" lon="6.96245">
        <ele>769</ele>
        <time>2012-04-24T10:06:24Z</time>
      </trkpt>
      <trkpt lat="43.71838" lon="6.96221">
        <ele>766</ele>
        <time>2012-04-24T10:06:30Z</time>
      </trkpt>
      <trkpt lat="43.71847" lon="6.96205">
        <ele>768</ele>
        <time>2012-04-24T10:06:33Z</time>
      </trkpt>
      <trkpt lat="43.71863" lon="6.96192">
        <ele>769</ele>
        <time>2012-04-24T10:06:37Z</time>
      </trkpt>
      <trkpt lat="43.71898" lon="6.96183">
        <ele>768</ele>
        <time>2012-04-24T10:06:44Z</time>
      </trkpt>
      <trkpt lat="43.71903" lon="6.96182">
        <ele>768</ele>
        <time>2012-04-24T10:06:45Z</time>
      </trkpt>
      <trkpt lat="43.71923" lon="6.96174">
        <ele>769</ele>
        <time>2012-04-24T10:06:49Z</time>
      </trkpt>
      <trkpt lat="43.71942" lon="6.96172">
        <ele>767</ele>
        <time>2012-04-24T10:06:53Z</time>
      </trkpt>
      <trkpt lat="43.71947" lon="6.96171">
        <ele>767</ele>
        <time>2012-04-24T10:06:54Z</time>
      </trkpt>
      <trkpt lat="43.71965" lon="6.96174">
        <ele>768</ele>
        <time>2012-04-24T10:06:59Z</time>
      </trkpt>
      <trkpt lat="43.71975" lon="6.96182">
        <ele>768</ele>
        <time>2012-04-24T10:07:04Z</time>
      </trkpt>
      <trkpt lat="43.7199" lon="6.96191">
        <ele>768</ele>
        <time>2012-04-24T10:07:11Z</time>
      </trkpt>
      <trkpt lat="43.72004" lon="6.96196">
        <ele>772</ele>
        <time>2012-04-24T10:07:17Z</time>
      </trkpt>
      <trkpt lat="43.72009" lon="6.96212">
        <ele>770</ele>
        <time>2012-04-24T10:07:22Z</time>
      </trkpt>
      <trkpt lat="43.72013" lon="6.96237">
        <ele>766</ele>
        <time>2012-04-24T10:07:27Z</time>
      </trkpt>
      <trkpt lat="43.72014" lon="6.96249">
        <ele>765</ele>
        <time>2012-04-24T10:07:29Z</time>
      </trkpt>
      <trkpt lat="43.72026" lon="6.96281">
        <ele>760</ele>
        <time>2012-04-24T10:07:34Z</time>
      </trkpt>
      <trkpt lat="43.72031" lon="6.96313">
        <ele>758</ele>
        <time>2012-04-24T10:07:38Z</time>
      </trkpt>
      <trkpt lat="43.72032" lon="6.9633">
        <ele>758</ele>
        <time>2012-04-24T10:07:40Z</time>
      </trkpt>
      <trkpt lat="43.72044" lon="6.96386">
        <ele>752</ele>
        <time>2012-04-24T10:07:46Z</time>
      </trkpt>
      <trkpt lat="43.72055" lon="6.96423">
        <ele>750</ele>
        <time>2012-04-24T10:07:51Z</time>
      </trkpt>
      <trkpt lat="43.72058" lon="6.96455">
        <ele>749</ele>
        <time>2012-04-24T10:07:57Z</time>
      </trkpt>
      <trkpt lat="43.72062" lon="6.96509">
        <ele>748</ele>
        <time>2012-04-24T10:08:08Z</time>
      </trkpt>
      <trkpt lat="43.72067" lon="6.96535">
        <ele>747</ele>
        <time>2012-04-24T10:08:16Z</time>
      </trkpt>
      <trkpt lat="43.72075" lon="6.96554">
        <ele>748</ele>
        <time>2012-04-24T10:08:24Z</time>
      </trkpt>
      <trkpt lat="43.72086" lon="6.96557">
        <ele>757</ele>
        <time>2012-04-24T10:08:29Z</time>
      </trkpt>
      <trkpt lat="43.72103" lon="6.96549">
        <ele>757</ele>
        <time>2012-04-24T10:08:37Z</time>
      </trkpt>
      <trkpt lat="43.72115" lon="6.96548">
        <ele>757</ele>
        <time>2012-04-24T10:08:42Z</time>
      </trkpt>
      <trkpt lat="43.72133" lon="6.96537">
        <ele>757</ele>
        <time>2012-04-24T10:08:49Z</time>
      </trkpt>
      <trkpt lat="43.72155" lon="6.96517">
        <ele>758</ele>
        <time>2012-04-24T10:08:56Z</time>
      </trkpt>
      <trkpt lat="43.7218" lon="6.96495">
        <ele>761</ele>
        <time>2012-04-24T10:09:03Z</time>
      </trkpt>
      <trkpt lat="43.72196" lon="6.96493">
        <ele>762</ele>
        <time>2012-04-24T10:09:07Z</time>
      </trkpt>
      <trkpt lat="43.72209" lon="6.96498">
        <ele>762</ele>
        <time>2012-04-24T10:09:11Z</time>
      </trkpt>
      <trkpt lat="43.72218" lon="6.96514">
        <ele>761</ele>
        <time>2012-04-24T10:09:15Z</time>
      </trkpt>
      <trkpt lat="43.72228" lon="6.96555">
        <ele>761</ele>
        <time>2012-04-24T10:09:24Z</time>
      </trkpt>
      <trkpt lat="43.72235" lon="6.96582">
        <ele>762</ele>
        <time>2012-04-24T10:09:31Z</time>
      </trkpt>
      <trkpt lat="43.72238" lon="6.96601">
        <ele>760</ele>
        <time>2012-04-24T10:09:37Z</time>
      </trkpt>
      <trkpt lat="43.72237" lon="6.96618">
        <ele>760</ele>
        <time>2012-04-24T10:09:43Z</time>
      </trkpt>
      <trkpt lat="43.72229" lon="6.96639">
        <ele>760</ele>
        <time>2012-04-24T10:09:52Z</time>
      </trkpt>
      <trkpt lat="43.72227" lon="6.96661">
        <ele>760</ele>
        <time>2012-04-24T10:10:00Z</time>
      </trkpt>
      <trkpt lat="43.72231" lon="6.96683">
        <ele>758</ele>
        <time>2012-04-24T10:10:08Z</time>
      </trkpt>
      <trkpt lat="43.72238" lon="6.96714">
        <ele>757</ele>
        <time>2012-04-24T10:10:16Z</time>
      </trkpt>
      <trkpt lat="43.72245" lon="6.96754">
        <ele>764</ele>
        <time>2012-04-24T10:10:26Z</time>
      </trkpt>
      <trkpt lat="43.72248" lon="6.96778">
        <ele>758</ele>
        <time>2012-04-24T10:10:32Z</time>
      </trkpt>
      <trkpt lat="43.72249" lon="6.96786">
        <ele>757</ele>
        <time>2012-04-24T10:10:35Z</time>
      </trkpt>
      <trkpt lat="43.72253" lon="6.96784">
        <ele>776</ele>
        <time>2012-04-24T10:10:40Z</time>
      </trkpt>
      <trkpt lat="43.72252" lon="6.9677">
        <ele>774</ele>
        <time>2012-04-24T10:10:46Z</time>
      </trkpt>
      <trkpt lat="43.72252" lon="6.96763">
        <ele>773</ele>
        <time>2012-04-24T10:10:49Z</time>
      </trkpt>
      <trkpt lat="43.72252" lon="6.96744">
        <ele>769</ele>
        <time>2012-04-24T10:10:58Z</time>
      </trkpt>
      <trkpt lat="43.72254" lon="6.96728">
        <ele>771</ele>
        <time>2012-04-24T10:11:05Z</time>
      </trkpt>
      <trkpt lat="43.72255" lon="6.96726">
        <ele>772</ele>
        <time>2012-04-24T10:11:06Z</time>
      </trkpt>
      <trkpt lat="43.72265" lon="6.9672">
        <ele>772</ele>
        <time>2012-04-24T10:11:13Z</time>
      </trkpt>
      <trkpt lat="43.72268" lon="6.96719">
        <ele>773</ele>
        <time>2012-04-24T10:11:15Z</time>
      </trkpt>
      <trkpt lat="43.72284" lon="6.96714">
        <ele>774</ele>
        <time>2012-04-24T10:11:24Z</time>
      </trkpt>
      <trkpt lat="43.72298" lon="6.96709">
        <ele>775</ele>
        <time>2012-04-24T10:11:31Z</time>
      </trkpt>
      <trkpt lat="43.72314" lon="6.96705">
        <ele>776</ele>
        <time>2012-04-24T10:11:38Z</time>
      </trkpt>
      <trkpt lat="43.72317" lon="6.96705">
        <ele>776</ele>
        <time>2012-04-24T10:11:39Z</time>
      </trkpt>
      <trkpt lat="43.72325" lon="6.96707">
        <ele>777</ele>
        <time>2012-04-24T10:11:43Z</time>
      </trkpt>
      <trkpt lat="43.72338" lon="6.96708">
        <ele>785</ele>
        <time>2012-04-24T10:11:50Z</time>
      </trkpt>
      <trkpt lat="43.7235" lon="6.96707">
        <ele>786</ele>
        <time>2012-04-24T10:11:57Z</time>
      </trkpt>
      <trkpt lat="43.72355" lon="6.96706">
        <ele>786</ele>
        <time>2012-04-24T10:12:00Z</time>
      </trkpt>
      <trkpt lat="43.72356" lon="6.96703">
        <ele>786</ele>
        <time>2012-04-24T10:12:05Z</time>
      </trkpt>
      <trkpt lat="43.7236" lon="6.96699">
        <ele>786</ele>
        <time>2012-04-24T10:12:11Z</time>
      </trkpt>
      <trkpt lat="43.72363" lon="6.96691">
        <ele>786</ele>
        <time>2012-04-24T10:12:14Z</time>
      </trkpt>
      <trkpt lat="43.72363" lon="6.96685">
        <ele>785</ele>
        <time>2012-04-24T10:12:16Z</time>
      </trkpt>
      <trkpt lat="43.7237" lon="6.96672">
        <ele>786</ele>
        <time>2012-04-24T10:12:22Z</time>
      </trkpt>
      <trkpt lat="43.72371" lon="6.96669">
        <ele>786</ele>
        <time>2012-04-24T10:12:23Z</time>
      </trkpt>
      <trkpt lat="43.72377" lon="6.9665">
        <ele>784</ele>
        <time>2012-04-24T10:12:31Z</time>
      </trkpt>
      <trkpt lat="43.72379" lon="6.96635">
        <ele>784</ele>
        <time>2012-04-24T10:12:37Z</time>
      </trkpt>
      <trkpt lat="43.7238" lon="6.96623">
        <ele>784</ele>
        <time>2012-04-24T10:12:43Z</time>
      </trkpt>
      <trkpt lat="43.72383" lon="6.96612">
        <ele>784</ele>
        <time>2012-04-24T10:12:49Z</time>
      </trkpt>
      <trkpt lat="43.7239" lon="6.96606">
        <ele>785</ele>
        <time>2012-04-24T10:12:55Z</time>
      </trkpt>
      <trkpt lat="43.72391" lon="6.96605">
        <ele>785</ele>
        <time>2012-04-24T10:12:56Z</time>
      </trkpt>
      <trkpt lat="43.72397" lon="6.96605">
        <ele>786</ele>
        <time>2012-04-24T10:13:00Z</time>
      </trkpt>
      <trkpt lat="43.72406" lon="6.96604">
        <ele>786</ele>
        <time>2012-04-24T10:13:07Z</time>
      </trkpt>
      <trkpt lat="43.72412" lon="6.96605">
        <ele>787</ele>
        <time>2012-04-24T10:13:13Z</time>
      </trkpt>
      <trkpt lat="43.72414" lon="6.96605">
        <ele>787</ele>
        <time>2012-04-24T10:13:19Z</time>
      </trkpt>
      <trkpt lat="43.72415" lon="6.96606">
        <ele>787</ele>
        <time>2012-04-24T10:13:24Z</time>
      </trkpt>
      <trkpt lat="43.72417" lon="6.96607">
        <ele>797</ele>
        <time>2012-04-24T10:13:29Z</time>
      </trkpt>
      <trkpt lat="43.72422" lon="6.96614">
        <ele>799</ele>
        <time>2012-04-24T10:13:35Z</time>
      </trkpt>
      <trkpt lat="43.72428" lon="6.96621">
        <ele>800</ele>
        <time>2012-04-24T10:13:40Z</time>
      </trkpt>
      <trkpt lat="43.72431" lon="6.96638">
        <ele>800</ele>
        <time>2012-04-24T10:13:49Z</time>
      </trkpt>
      <trkpt lat="43.72433" lon="6.96652">
        <ele>799</ele>
        <time>2012-04-24T10:13:56Z</time>
      </trkpt>
      <trkpt lat="43.72436" lon="6.96668">
        <ele>799</ele>
        <time>2012-04-24T10:14:04Z</time>
      </trkpt>
      <trkpt lat="43.72443" lon="6.96682">
        <ele>801</ele>
        <time>2012-04-24T10:14:13Z</time>
      </trkpt>
      <trkpt lat="43.72451" lon="6.9669">
        <ele>802</ele>
        <time>2012-04-24T10:14:20Z</time>
      </trkpt>
      <trkpt lat="43.72464" lon="6.96701">
        <ele>804</ele>
        <time>2012-04-24T10:14:30Z</time>
      </trkpt>
      <trkpt lat="43.7247" lon="6.96713">
        <ele>805</ele>
        <time>2012-04-24T10:14:38Z</time>
      </trkpt>
      <trkpt lat="43.72477" lon="6.96717">
        <ele>805</ele>
        <time>2012-04-24T10:14:43Z</time>
      </trkpt>
      <trkpt lat="43.72483" lon="6.96719">
        <ele>806</ele>
        <time>2012-04-24T10:14:48Z</time>
      </trkpt>
      <trkpt lat="43.72484" lon="6.96723">
        <ele>806</ele>
        <time>2012-04-24T10:14:55Z</time>
      </trkpt>
      <trkpt lat="43.72484" lon="6.96724">
        <ele>806</ele>
        <time>2012-04-24T10:14:56Z</time>
      </trkpt>
      <trkpt lat="43.72485" lon="6.96736">
        <ele>807</ele>
        <time>2012-04-24T10:15:03Z</time>
      </trkpt>
      <trkpt lat="43.72486" lon="6.9674">
        <ele>807</ele>
        <time>2012-04-24T10:15:05Z</time>
      </trkpt>
      <trkpt lat="43.72489" lon="6.96757">
        <ele>806</ele>
        <time>2012-04-24T10:15:14Z</time>
      </trkpt>
      <trkpt lat="43.72495" lon="6.96768">
        <ele>805</ele>
        <time>2012-04-24T10:15:21Z</time>
      </trkpt>
      <trkpt lat="43.725" lon="6.96771">
        <ele>805</ele>
        <time>2012-04-24T10:15:26Z</time>
      </trkpt>
      <trkpt lat="43.72501" lon="6.96769">
        <ele>814</ele>
        <time>2012-04-24T10:15:28Z</time>
      </trkpt>
      <trkpt lat="43.72499" lon="6.96757">
        <ele>808</ele>
        <time>2012-04-24T10:15:35Z</time>
      </trkpt>
      <trkpt lat="43.72501" lon="6.96749">
        <ele>812</ele>
        <time>2012-04-24T10:15:40Z</time>
      </trkpt>
      <trkpt lat="43.72507" lon="6.96751">
        <ele>813</ele>
        <time>2012-04-24T10:15:45Z</time>
      </trkpt>
      <trkpt lat="43.72511" lon="6.96754">
        <ele>814</ele>
        <time>2012-04-24T10:15:49Z</time>
      </trkpt>
      <trkpt lat="43.72521" lon="6.96764">
        <ele>815</ele>
        <time>2012-04-24T10:15:58Z</time>
      </trkpt>
      <trkpt lat="43.72531" lon="6.96771">
        <ele>817</ele>
        <time>2012-04-24T10:16:07Z</time>
      </trkpt>
      <trkpt lat="43.7254" lon="6.96778">
        <ele>818</ele>
        <time>2012-04-24T10:16:15Z</time>
      </trkpt>
      <trkpt lat="43.72553" lon="6.96787">
        <ele>819</ele>
        <time>2012-04-24T10:16:26Z</time>
      </trkpt>
      <trkpt lat="43.72558" lon="6.96791">
        <ele>820</ele>
        <time>2012-04-24T10:16:32Z</time>
      </trkpt>
      <trkpt lat="43.72565" lon="6.96796">
        <ele>820</ele>
        <time>2012-04-24T10:16:38Z</time>
      </trkpt>
      <trkpt lat="43.72575" lon="6.96803">
        <ele>821</ele>
        <time>2012-04-24T10:16:46Z</time>
      </trkpt>
      <trkpt lat="43.72584" lon="6.96815">
        <ele>829</ele>
        <time>2012-04-24T10:16:55Z</time>
      </trkpt>
      <trkpt lat="43.72595" lon="6.96829">
        <ele>829</ele>
        <time>2012-04-24T10:17:05Z</time>
      </trkpt>
      <trkpt lat="43.72608" lon="6.9684">
        <ele>831</ele>
        <time>2012-04-24T10:17:15Z</time>
      </trkpt>
      <trkpt lat="43.72618" lon="6.96849">
        <ele>832</ele>
        <time>2012-04-24T10:17:24Z</time>
      </trkpt>
      <trkpt lat="43.72628" lon="6.96858">
        <ele>833</ele>
        <time>2012-04-24T10:17:33Z</time>
      </trkpt>
      <trkpt lat="43.72637" lon="6.96862">
        <ele>834</ele>
        <time>2012-04-24T10:17:41Z</time>
      </trkpt>
      <trkpt lat="43.72641" lon="6.96859">
        <ele>834</ele>
        <time>2012-04-24T10:17:45Z</time>
      </trkpt>
      <trkpt lat="43.72651" lon="6.96848">
        <ele>835</ele>
        <time>2012-04-24T10:17:55Z</time>
      </trkpt>
      <trkpt lat="43.72661" lon="6.96844">
        <ele>836</ele>
        <time>2012-04-24T10:18:03Z</time>
      </trkpt>
      <trkpt lat="43.72673" lon="6.96836">
        <ele>841</ele>
        <time>2012-04-24T10:18:12Z</time>
      </trkpt>
      <trkpt lat="43.72679" lon="6.96837">
        <ele>843</ele>
        <time>2012-04-24T10:18:18Z</time>
      </trkpt>
      <trkpt lat="43.72686" lon="6.96835">
        <ele>844</ele>
        <time>2012-04-24T10:18:23Z</time>
      </trkpt>
      <trkpt lat="43.72697" lon="6.96824">
        <ele>846</ele>
        <time>2012-04-24T10:18:32Z</time>
      </trkpt>
      <trkpt lat="43.72699" lon="6.96823">
        <ele>846</ele>
        <time>2012-04-24T10:18:34Z</time>
      </trkpt>
      <trkpt lat="43.72708" lon="6.96833">
        <ele>848</ele>
        <time>2012-04-24T10:18:42Z</time>
      </trkpt>
      <trkpt lat="43.7271" lon="6.96849">
        <ele>849</ele>
        <time>2012-04-24T10:18:50Z</time>
      </trkpt>
      <trkpt lat="43.7271" lon="6.96869">
        <ele>849</ele>
        <time>2012-04-24T10:19:00Z</time>
      </trkpt>
      <trkpt lat="43.72715" lon="6.96887">
        <ele>850</ele>
        <time>2012-04-24T10:19:09Z</time>
      </trkpt>
      <trkpt lat="43.72723" lon="6.96903">
        <ele>851</ele>
        <time>2012-04-24T10:19:18Z</time>
      </trkpt>
      <trkpt lat="43.72734" lon="6.96912">
        <ele>853</ele>
        <time>2012-04-24T10:19:26Z</time>
      </trkpt>
      <trkpt lat="43.72745" lon="6.96918">
        <ele>856</ele>
        <time>2012-04-24T10:19:34Z</time>
      </trkpt>
      <trkpt lat="43.72754" lon="6.96927">
        <ele>863</ele>
        <time>2012-04-24T10:19:42Z</time>
      </trkpt>
      <trkpt lat="43.72756" lon="6.96944">
        <ele>868</ele>
        <time>2012-04-24T10:19:50Z</time>
      </trkpt>
      <trkpt lat="43.72755" lon="6.96956">
        <ele>869</ele>
        <time>2012-04-24T10:19:56Z</time>
      </trkpt>
      <trkpt lat="43.72753" lon="6.96974">
        <ele>868</ele>
        <time>2012-04-24T10:20:04Z</time>
      </trkpt>
      <trkpt lat="43.72745" lon="6.9699">
        <ele>858</ele>
        <time>2012-04-24T10:20:12Z</time>
      </trkpt>
      <trkpt lat="43.72744" lon="6.96995">
        <ele>858</ele>
        <time>2012-04-24T10:20:14Z</time>
      </trkpt>
      <trkpt lat="43.72746" lon="6.97003">
        <ele>860</ele>
        <time>2012-04-24T10:20:18Z</time>
      </trkpt>
      <trkpt lat="43.72757" lon="6.97015">
        <ele>869</ele>
        <time>2012-04-24T10:20:27Z</time>
      </trkpt>
      <trkpt lat="43.72759" lon="6.97031">
        <ele>872</ele>
        <time>2012-04-24T10:20:35Z</time>
      </trkpt>
      <trkpt lat="43.7276" lon="6.97046">
        <ele>873</ele>
        <time>2012-04-24T10:20:43Z</time>
      </trkpt>
      <trkpt lat="43.72759" lon="6.97064">
        <ele>872</ele>
        <time>2012-04-24T10:20:52Z</time>
      </trkpt>
      <trkpt lat="43.72754" lon="6.9708">
        <ele>868</ele>
        <time>2012-04-24T10:21:00Z</time>
      </trkpt>
      <trkpt lat="43.72747" lon="6.97102">
        <ele>864</ele>
        <time>2012-04-24T10:21:09Z</time>
      </trkpt>
      <trkpt lat="43.72741" lon="6.97126">
        <ele>864</ele>
        <time>2012-04-24T10:21:18Z</time>
      </trkpt>
      <trkpt lat="43.72741" lon="6.97143">
        <ele>866</ele>
        <time>2012-04-24T10:21:25Z</time>
      </trkpt>
      <trkpt lat="43.72746" lon="6.9716">
        <ele>871</ele>
        <time>2012-04-24T10:21:35Z</time>
      </trkpt>
      <trkpt lat="43.72747" lon="6.97174">
        <ele>872</ele>
        <time>2012-04-24T10:21:43Z</time>
      </trkpt>
      <trkpt lat="43.72746" lon="6.97194">
        <ele>871</ele>
        <time>2012-04-24T10:21:53Z</time>
      </trkpt>
      <trkpt lat="43.7275" lon="6.9721">
        <ele>871</ele>
        <time>2012-04-24T10:22:02Z</time>
      </trkpt>
      <trkpt lat="43.72752" lon="6.97224">
        <ele>887</ele>
        <time>2012-04-24T10:22:10Z</time>
      </trkpt>
      <trkpt lat="43.72754" lon="6.97231">
        <ele>886</ele>
        <time>2012-04-24T10:22:14Z</time>
      </trkpt>
      <trkpt lat="43.72761" lon="6.97232">
        <ele>887</ele>
        <time>2012-04-24T10:22:19Z</time>
      </trkpt>
      <trkpt lat="43.72767" lon="6.97232">
        <ele>888</ele>
        <time>2012-04-24T10:22:24Z</time>
      </trkpt>
      <trkpt lat="43.72776" lon="6.97246">
        <ele>890</ele>
        <time>2012-04-24T10:22:34Z</time>
      </trkpt>
      <trkpt lat="43.72776" lon="6.97246">
        <ele>890</ele>
        <time>2012-04-24T10:22:39Z</time>
      </trkpt>
      <trkpt lat="43.72778" lon="6.97249">
        <ele>890</ele>
        <time>2012-04-24T10:23:14Z</time>
      </trkpt>
      <trkpt lat="43.72778" lon="6.9725">
        <ele>890</ele>
        <time>2012-04-24T10:23:20Z</time>
      </trkpt>
      <trkpt lat="43.72778" lon="6.9725">
        <ele>896</ele>
        <time>2012-04-24T10:23:30Z</time>
      </trkpt>
      <trkpt lat="43.7278" lon="6.97258">
        <ele>897</ele>
        <time>2012-04-24T10:23:38Z</time>
      </trkpt>
      <trkpt lat="43.72781" lon="6.97263">
        <ele>898</ele>
        <time>2012-04-24T10:23:46Z</time>
      </trkpt>
      <trkpt lat="43.72781" lon="6.97268">
        <ele>899</ele>
        <time>2012-04-24T10:23:53Z</time>
      </trkpt>
      <trkpt lat="43.72782" lon="6.97272">
        <ele>899</ele>
        <time>2012-04-24T10:23:57Z</time>
      </trkpt>
      <trkpt lat="43.72778" lon="6.97283">
        <ele>899</ele>
        <time>2012-04-24T10:24:06Z</time>
      </trkpt>
      <trkpt lat="43.72779" lon="6.97285">
        <ele>900</ele>
        <time>2012-04-24T10:24:14Z</time>
      </trkpt>
      <trkpt lat="43.72777" lon="6.97293">
        <ele>900</ele>
        <time>2012-04-24T10:24:20Z</time>
      </trkpt>
      <trkpt lat="43.72777" lon="6.97304">
        <ele>900</ele>
        <time>2012-04-24T10:24:27Z</time>
      </trkpt>
      <trkpt lat="43.72778" lon="6.97306">
        <ele>901</ele>
        <time>2012-04-24T10:24:31Z</time>
      </trkpt>
      <trkpt lat="43.72777" lon="6.97312">
        <ele>900</ele>
        <time>2012-04-24T10:24:36Z</time>
      </trkpt>
      <trkpt lat="43.72775" lon="6.97329">
        <ele>900</ele>
        <time>2012-04-24T10:24:45Z</time>
      </trkpt>
      <trkpt lat="43.72775" lon="6.97344">
        <ele>908</ele>
        <time>2012-04-24T10:24:53Z</time>
      </trkpt>
      <trkpt lat="43.72775" lon="6.97347">
        <ele>908</ele>
        <time>2012-04-24T10:24:55Z</time>
      </trkpt>
      <trkpt lat="43.72774" lon="6.97362">
        <ele>911</ele>
        <time>2012-04-24T10:25:04Z</time>
      </trkpt>
      <trkpt lat="43.72772" lon="6.97372">
        <ele>912</ele>
        <time>2012-04-24T10:25:10Z</time>
      </trkpt>
      <trkpt lat="43.72772" lon="6.9739">
        <ele>913</ele>
        <time>2012-04-24T10:25:20Z</time>
      </trkpt>
      <trkpt lat="43.72769" lon="6.97405">
        <ele>911</ele>
        <time>2012-04-24T10:25:29Z</time>
      </trkpt>
      <trkpt lat="43.72762" lon="6.97418">
        <ele>913</ele>
        <time>2012-04-24T10:25:38Z</time>
      </trkpt>
      <trkpt lat="43.72758" lon="6.97427">
        <ele>914</ele>
        <time>2012-04-24T10:25:44Z</time>
      </trkpt>
      <trkpt lat="43.72759" lon="6.97431">
        <ele>917</ele>
        <time>2012-04-24T10:25:50Z</time>
      </trkpt>
      <trkpt lat="43.72761" lon="6.97431">
        <ele>917</ele>
        <time>2012-04-24T10:25:52Z</time>
      </trkpt>
      <trkpt lat="43.72769" lon="6.97422">
        <ele>919</ele>
        <time>2012-04-24T10:26:01Z</time>
      </trkpt>
      <trkpt lat="43.7278" lon="6.97416">
        <ele>915</ele>
        <time>2012-04-24T10:26:11Z</time>
      </trkpt>
      <trkpt lat="43.72786" lon="6.97407">
        <ele>917</ele>
        <time>2012-04-24T10:26:18Z</time>
      </trkpt>
      <trkpt lat="43.7279" lon="6.97391">
        <ele>918</ele>
        <time>2012-04-24T10:26:27Z</time>
      </trkpt>
      <trkpt lat="43.72798" lon="6.97379">
        <ele>919</ele>
        <time>2012-04-24T10:26:36Z</time>
      </trkpt>
      <trkpt lat="43.72806" lon="6.97371">
        <ele>920</ele>
        <time>2012-04-24T10:26:44Z</time>
      </trkpt>
      <trkpt lat="43.72813" lon="6.97361">
        <ele>921</ele>
        <time>2012-04-24T10:26:52Z</time>
      </trkpt>
      <trkpt lat="43.72819" lon="6.9735">
        <ele>922</ele>
        <time>2012-04-24T10:27:00Z</time>
      </trkpt>
      <trkpt lat="43.7282" lon="6.97348">
        <ele>922</ele>
        <time>2012-04-24T10:27:01Z</time>
      </trkpt>
      <trkpt lat="43.72825" lon="6.97344">
        <ele>924</ele>
        <time>2012-04-24T10:27:06Z</time>
      </trkpt>
      <trkpt lat="43.72829" lon="6.97333">
        <ele>924</ele>
        <time>2012-04-24T10:27:13Z</time>
      </trkpt>
      <trkpt lat="43.72829" lon="6.97332">
        <ele>924</ele>
        <time>2012-04-24T10:27:14Z</time>
      </trkpt>
      <trkpt lat="43.72836" lon="6.97317">
        <ele>937</ele>
        <time>2012-04-24T10:27:23Z</time>
      </trkpt>
      <trkpt lat="43.72843" lon="6.97304">
        <ele>939</ele>
        <time>2012-04-24T10:27:31Z</time>
      </trkpt>
      <trkpt lat="43.7285" lon="6.97293">
        <ele>941</ele>
        <time>2012-04-24T10:27:40Z</time>
      </trkpt>
      <trkpt lat="43.72857" lon="6.97283">
        <ele>941</ele>
        <time>2012-04-24T10:27:48Z</time>
      </trkpt>
      <trkpt lat="43.72858" lon="6.97278">
        <ele>941</ele>
        <time>2012-04-24T10:27:54Z</time>
      </trkpt>
      <trkpt lat="43.7286" lon="6.97274">
        <ele>940</ele>
        <time>2012-04-24T10:28:36Z</time>
      </trkpt>
      <trkpt lat="43.72867" lon="6.97261">
        <ele>941</ele>
        <time>2012-04-24T10:28:45Z</time>
      </trkpt>
      <trkpt lat="43.7287" lon="6.97254">
        <ele>942</ele>
        <time>2012-04-24T10:28:50Z</time>
      </trkpt>
      <trkpt lat="43.72873" lon="6.97253">
        <ele>944</ele>
        <time>2012-04-24T10:28:56Z</time>
      </trkpt>
      <trkpt lat="43.72873" lon="6.97258">
        <ele>944</ele>
        <time>2012-04-24T10:29:03Z</time>
      </trkpt>
      <trkpt lat="43.72873" lon="6.97258">
        <ele>944</ele>
        <time>2012-04-24T10:29:11Z</time>
      </trkpt>
      <trkpt lat="43.7287" lon="6.97267">
        <ele>944</ele>
        <time>2012-04-24T10:29:20Z</time>
      </trkpt>
      <trkpt lat="43.7287" lon="6.97268">
        <ele>944</ele>
        <time>2012-04-24T10:29:21Z</time>
      </trkpt>
      <trkpt lat="43.72868" lon="6.97278">
        <ele>944</ele>
        <time>2012-04-24T10:29:30Z</time>
      </trkpt>
      <trkpt lat="43.72868" lon="6.97283">
        <ele>944</ele>
        <time>2012-04-24T10:29:36Z</time>
      </trkpt>
      <trkpt lat="43.72866" lon="6.97291">
        <ele>945</ele>
        <time>2012-04-24T10:29:44Z</time>
      </trkpt>
      <trkpt lat="43.72863" lon="6.97302">
        <ele>945</ele>
        <time>2012-04-24T10:29:54Z</time>
      </trkpt>
      <trkpt lat="43.72865" lon="6.97302">
        <ele>945</ele>
        <time>2012-04-24T10:29:59Z</time>
      </trkpt>
      <trkpt lat="43.72869" lon="6.97298">
        <ele>946</ele>
        <time>2012-04-24T10:30:06Z</time>
      </trkpt>
      <trkpt lat="43.72873" lon="6.97294">
        <ele>947</ele>
        <time>2012-04-24T10:30:14Z</time>
      </trkpt>
      <trkpt lat="43.72876" lon="6.97289">
        <ele>948</ele>
        <time>2012-04-24T10:30:22Z</time>
      </trkpt>
      <trkpt lat="43.7288" lon="6.97283">
        <ele>948</ele>
        <time>2012-04-24T10:30:31Z</time>
      </trkpt>
      <trkpt lat="43.72883" lon="6.97279">
        <ele>949</ele>
        <time>2012-04-24T10:30:37Z</time>
      </trkpt>
      <trkpt lat="43.72887" lon="6.97272">
        <ele>950</ele>
        <time>2012-04-24T10:30:45Z</time>
      </trkpt>
      <trkpt lat="43.72893" lon="6.97263">
        <ele>952</ele>
        <time>2012-04-24T10:30:56Z</time>
      </trkpt>
      <trkpt lat="43.72895" lon="6.97265">
        <ele>953</ele>
        <time>2012-04-24T10:31:01Z</time>
      </trkpt>
      <trkpt lat="43.72895" lon="6.97269">
        <ele>953</ele>
        <time>2012-04-24T10:31:08Z</time>
      </trkpt>
      <trkpt lat="43.72895" lon="6.97269">
        <ele>953</ele>
        <time>2012-04-24T10:31:14Z</time>
      </trkpt>
      <trkpt lat="43.72895" lon="6.97272">
        <ele>953</ele>
        <time>2012-04-24T10:31:25Z</time>
      </trkpt>
      <trkpt lat="43.72894" lon="6.9728">
        <ele>952</ele>
        <time>2012-04-24T10:31:33Z</time>
      </trkpt>
      <trkpt lat="43.72895" lon="6.9728">
        <ele>953</ele>
        <time>2012-04-24T10:32:07Z</time>
      </trkpt>
      <trkpt lat="43.72894" lon="6.97286">
        <ele>953</ele>
        <time>2012-04-24T10:32:19Z</time>
      </trkpt>
      <trkpt lat="43.72895" lon="6.973">
        <ele>955</ele>
        <time>2012-04-24T10:32:27Z</time>
      </trkpt>
      <trkpt lat="43.72892" lon="6.9731">
        <ele>956</ele>
        <time>2012-04-24T10:32:33Z</time>
      </trkpt>
      <trkpt lat="43.72891" lon="6.97316">
        <ele>956</ele>
        <time>2012-04-24T10:32:39Z</time>
      </trkpt>
      <trkpt lat="43.72889" lon="6.97319">
        <ele>956</ele>
        <time>2012-04-24T10:32:45Z</time>
      </trkpt>
      <trkpt lat="43.72886" lon="6.9733">
        <ele>956</ele>
        <time>2012-04-24T10:32:51Z</time>
      </trkpt>
      <trkpt lat="43.72885" lon="6.97332">
        <ele>955</ele>
        <time>2012-04-24T10:32:54Z</time>
      </trkpt>
      <trkpt lat="43.72883" lon="6.97338">
        <ele>965</ele>
        <time>2012-04-24T10:32:58Z</time>
      </trkpt>
      <trkpt lat="43.72881" lon="6.97344">
        <ele>965</ele>
        <time>2012-04-24T10:33:05Z</time>
      </trkpt>
      <trkpt lat="43.72878" lon="6.97352">
        <ele>964</ele>
        <time>2012-04-24T10:33:11Z</time>
      </trkpt>
      <trkpt lat="43.7288" lon="6.97355">
        <ele>965</ele>
        <time>2012-04-24T10:33:17Z</time>
      </trkpt>
      <trkpt lat="43.72882" lon="6.97353">
        <ele>966</ele>
        <time>2012-04-24T10:33:24Z</time>
      </trkpt>
      <trkpt lat="43.72883" lon="6.97351">
        <ele>966</ele>
        <time>2012-04-24T10:33:30Z</time>
      </trkpt>
      <trkpt lat="43.72884" lon="6.9735">
        <ele>966</ele>
        <time>2012-04-24T10:33:31Z</time>
      </trkpt>
      <trkpt lat="43.72891" lon="6.97338">
        <ele>969</ele>
        <time>2012-04-24T10:33:40Z</time>
      </trkpt>
      <trkpt lat="43.72896" lon="6.97331">
        <ele>962</ele>
        <time>2012-04-24T10:33:46Z</time>
      </trkpt>
      <trkpt lat="43.72902" lon="6.97322">
        <ele>964</ele>
        <time>2012-04-24T10:33:53Z</time>
      </trkpt>
      <trkpt lat="43.72904" lon="6.97318">
        <ele>963</ele>
        <time>2012-04-24T10:33:58Z</time>
      </trkpt>
      <trkpt lat="43.72908" lon="6.97311">
        <ele>961</ele>
        <time>2012-04-24T10:34:04Z</time>
      </trkpt>
      <trkpt lat="43.72912" lon="6.97303">
        <ele>959</ele>
        <time>2012-04-24T10:34:10Z</time>
      </trkpt>
      <trkpt lat="43.72918" lon="6.97289">
        <ele>985</ele>
        <time>2012-04-24T10:34:20Z</time>
      </trkpt>
      <trkpt lat="43.72923" lon="6.9728">
        <ele>984</ele>
        <time>2012-04-24T10:34:27Z</time>
      </trkpt>
      <trkpt lat="43.72924" lon="6.97277">
        <ele>983</ele>
        <time>2012-04-24T10:34:39Z</time>
      </trkpt>
      <trkpt lat="43.72929" lon="6.97267">
        <ele>981</ele>
        <time>2012-04-24T10:34:46Z</time>
      </trkpt>
      <trkpt lat="43.72929" lon="6.97267">
        <ele>981</ele>
        <time>2012-04-24T10:34:47Z</time>
      </trkpt>
      <trkpt lat="43.72934" lon="6.97253">
        <ele>979</ele>
        <time>2012-04-24T10:34:56Z</time>
      </trkpt>
      <trkpt lat="43.72936" lon="6.97242">
        <ele>977</ele>
        <time>2012-04-24T10:35:03Z</time>
      </trkpt>
      <trkpt lat="43.72939" lon="6.97241">
        <ele>978</ele>
        <time>2012-04-24T10:35:09Z</time>
      </trkpt>
      <trkpt lat="43.7294" lon="6.97244">
        <ele>979</ele>
        <time>2012-04-24T10:35:14Z</time>
      </trkpt>
      <trkpt lat="43.7294" lon="6.97245">
        <ele>978</ele>
        <time>2012-04-24T10:35:21Z</time>
      </trkpt>
      <trkpt lat="43.72938" lon="6.97251">
        <ele>982</ele>
        <time>2012-04-24T10:35:25Z</time>
      </trkpt>
      <trkpt lat="43.72936" lon="6.97265">
        <ele>983</ele>
        <time>2012-04-24T10:35:32Z</time>
      </trkpt>
      <trkpt lat="43.72935" lon="6.9728">
        <ele>986</ele>
        <time>2012-04-24T10:35:40Z</time>
      </trkpt>
      <trkpt lat="43.72933" lon="6.97298">
        <ele>988</ele>
        <time>2012-04-24T10:35:50Z</time>
      </trkpt>
      <trkpt lat="43.72931" lon="6.97306">
        <ele>989</ele>
        <time>2012-04-24T10:35:55Z</time>
      </trkpt>
      <trkpt lat="43.72933" lon="6.97308">
        <ele>989</ele>
        <time>2012-04-24T10:35:58Z</time>
      </trkpt>
      <trkpt lat="43.72936" lon="6.97305">
        <ele>989</ele>
        <time>2012-04-24T10:36:05Z</time>
      </trkpt>
      <trkpt lat="43.7294" lon="6.97295">
        <ele>989</ele>
        <time>2012-04-24T10:36:11Z</time>
      </trkpt>
      <trkpt lat="43.72942" lon="6.97291">
        <ele>989</ele>
        <time>2012-04-24T10:36:16Z</time>
      </trkpt>
      <trkpt lat="43.72945" lon="6.97284">
        <ele>989</ele>
        <time>2012-04-24T10:36:23Z</time>
      </trkpt>
      <trkpt lat="43.72948" lon="6.97277">
        <ele>989</ele>
        <time>2012-04-24T10:36:31Z</time>
      </trkpt>
      <trkpt lat="43.72952" lon="6.97269">
        <ele>989</ele>
        <time>2012-04-24T10:36:40Z</time>
      </trkpt>
      <trkpt lat="43.72955" lon="6.9726">
        <ele>990</ele>
        <time>2012-04-24T10:36:50Z</time>
      </trkpt>
      <trkpt lat="43.72957" lon="6.97254">
        <ele>990</ele>
        <time>2012-04-24T10:36:56Z</time>
      </trkpt>
      <trkpt lat="43.72959" lon="6.97258">
        <ele>991</ele>
        <time>2012-04-24T10:37:02Z</time>
      </trkpt>
      <trkpt lat="43.72959" lon="6.97261">
        <ele>991</ele>
        <time>2012-04-24T10:37:05Z</time>
      </trkpt>
      <trkpt lat="43.72957" lon="6.97273">
        <ele>991</ele>
        <time>2012-04-24T10:37:14Z</time>
      </trkpt>
      <trkpt lat="43.72956" lon="6.97284">
        <ele>992</ele>
        <time>2012-04-24T10:37:23Z</time>
      </trkpt>
      <trkpt lat="43.72958" lon="6.97287">
        <ele>993</ele>
        <time>2012-04-24T10:37:28Z</time>
      </trkpt>
      <trkpt lat="43.72959" lon="6.97284">
        <ele>993</ele>
        <time>2012-04-24T10:37:31Z</time>
      </trkpt>
      <trkpt lat="43.72964" lon="6.97273">
        <ele>993</ele>
        <time>2012-04-24T10:37:40Z</time>
      </trkpt>
      <trkpt lat="43.72968" lon="6.97266">
        <ele>994</ele>
        <time>2012-04-24T10:37:47Z</time>
      </trkpt>
      <trkpt lat="43.72972" lon="6.97256">
        <ele>996</ele>
        <time>2012-04-24T10:37:56Z</time>
      </trkpt>
      <trkpt lat="43.72975" lon="6.97249">
        <ele>993</ele>
        <time>2012-04-24T10:38:03Z</time>
      </trkpt>
      <trkpt lat="43.72979" lon="6.97239">
        <ele>994</ele>
        <time>2012-04-24T10:38:12Z</time>
      </trkpt>
      <trkpt lat="43.72982" lon="6.97231">
        <ele>994</ele>
        <time>2012-04-24T10:38:19Z</time>
      </trkpt>
      <trkpt lat="43.72987" lon="6.97224">
        <ele>994</ele>
        <time>2012-04-24T10:38:28Z</time>
      </trkpt>
      <trkpt lat="43.72988" lon="6.97216">
        <ele>993</ele>
        <time>2012-04-24T10:38:36Z</time>
      </trkpt>
      <trkpt lat="43.7299" lon="6.97205">
        <ele>994</ele>
        <time>2012-04-24T10:38:44Z</time>
      </trkpt>
      <trkpt lat="43.7299" lon="6.97195">
        <ele>995</ele>
        <time>2012-04-24T10:38:53Z</time>
      </trkpt>
      <trkpt lat="43.7299" lon="6.9719">
        <ele>996</ele>
        <time>2012-04-24T10:39:00Z</time>
      </trkpt>
      <trkpt lat="43.72991" lon="6.97181">
        <ele>999</ele>
        <time>2012-04-24T10:39:09Z</time>
      </trkpt>
      <trkpt lat="43.72991" lon="6.97177">
        <ele>1001</ele>
        <time>2012-04-24T10:39:15Z</time>
      </trkpt>
      <trkpt lat="43.72991" lon="6.97171">
        <ele>1003</ele>
        <time>2012-04-24T10:39:22Z</time>
      </trkpt>
      <trkpt lat="43.72991" lon="6.97169">
        <ele>1003</ele>
        <time>2012-04-24T10:39:28Z</time>
      </trkpt>
      <trkpt lat="43.72989" lon="6.97161">
        <ele>1002</ele>
        <time>2012-04-24T10:39:35Z</time>
      </trkpt>
      <trkpt lat="43.72988" lon="6.97152">
        <ele>999</ele>
        <time>2012-04-24T10:39:43Z</time>
      </trkpt>
      <trkpt lat="43.72987" lon="6.97144">
        <ele>997</ele>
        <time>2012-04-24T10:39:51Z</time>
      </trkpt>
      <trkpt lat="43.72985" lon="6.97138">
        <ele>996</ele>
        <time>2012-04-24T10:39:58Z</time>
      </trkpt>
      <trkpt lat="43.72983" lon="6.97133">
        <ele>995</ele>
        <time>2012-04-24T10:40:03Z</time>
      </trkpt>
      <trkpt lat="43.72983" lon="6.97128">
        <ele>995</ele>
        <time>2012-04-24T10:40:08Z</time>
      </trkpt>
      <trkpt lat="43.72985" lon="6.97125">
        <ele>996</ele>
        <time>2012-04-24T10:40:14Z</time>
      </trkpt>
      <trkpt lat="43.72989" lon="6.97131">
        <ele>996</ele>
        <time>2012-04-24T10:40:21Z</time>
      </trkpt>
      <trkpt lat="43.7299" lon="6.97132">
        <ele>997</ele>
        <time>2012-04-24T10:40:23Z</time>
      </trkpt>
      <trkpt lat="43.72994" lon="6.97136">
        <ele>998</ele>
        <time>2012-04-24T10:40:28Z</time>
      </trkpt>
      <trkpt lat="43.72995" lon="6.97133">
        <ele>998</ele>
        <time>2012-04-24T10:40:31Z</time>
      </trkpt>
      <trkpt lat="43.72994" lon="6.97124">
        <ele>998</ele>
        <time>2012-04-24T10:40:39Z</time>
      </trkpt>
      <trkpt lat="43.72993" lon="6.9712">
        <ele>998</ele>
        <time>2012-04-24T10:40:46Z</time>
      </trkpt>
      <trkpt lat="43.7299" lon="6.97117">
        <ele>998</ele>
        <time>2012-04-24T10:40:52Z</time>
      </trkpt>
      <trkpt lat="43.72988" lon="6.97113">
        <ele>998</ele>
        <time>2012-04-24T10:40:57Z</time>
      </trkpt>
      <trkpt lat="43.72986" lon="6.97108">
        <ele>999</ele>
        <time>2012-04-24T10:41:02Z</time>
      </trkpt>
      <trkpt lat="43.72991" lon="6.97106">
        <ele>1001</ele>
        <time>2012-04-24T10:41:08Z</time>
      </trkpt>
      <trkpt lat="43.72994" lon="6.97107">
        <ele>1002</ele>
        <time>2012-04-24T10:41:12Z</time>
      </trkpt>
      <trkpt lat="43.73003" lon="6.97115">
        <ele>1023</ele>
        <time>2012-04-24T10:41:22Z</time>
      </trkpt>
      <trkpt lat="43.73004" lon="6.97118">
        <ele>1023</ele>
        <time>2012-04-24T10:41:30Z</time>
      </trkpt>
      <trkpt lat="43.73004" lon="6.97118">
        <ele>1023</ele>
        <time>2012-04-24T10:41:36Z</time>
      </trkpt>
      <trkpt lat="43.73005" lon="6.97123">
        <ele>1022</ele>
        <time>2012-04-24T10:42:59Z</time>
      </trkpt>
      <trkpt lat="43.73007" lon="6.97125">
        <ele>1022</ele>
        <time>2012-04-24T10:43:03Z</time>
      </trkpt>
      <trkpt lat="43.73013" lon="6.9713">
        <ele>1022</ele>
        <time>2012-04-24T10:43:09Z</time>
      </trkpt>
      <trkpt lat="43.73016" lon="6.97134">
        <ele>1022</ele>
        <time>2012-04-24T10:43:16Z</time>
      </trkpt>
      <trkpt lat="43.73026" lon="6.97142">
        <ele>1022</ele>
        <time>2012-04-24T10:43:24Z</time>
      </trkpt>
      <trkpt lat="43.73036" lon="6.97146">
        <ele>1023</ele>
        <time>2012-04-24T10:43:31Z</time>
      </trkpt>
      <trkpt lat="43.73051" lon="6.97151">
        <ele>1025</ele>
        <time>2012-04-24T10:43:37Z</time>
      </trkpt>
      <trkpt lat="43.73071" lon="6.9716">
        <ele>1028</ele>
        <time>2012-04-24T10:43:44Z</time>
      </trkpt>
      <trkpt lat="43.73094" lon="6.97169">
        <ele>1030</ele>
        <time>2012-04-24T10:43:51Z</time>
      </trkpt>
      <trkpt lat="43.73116" lon="6.97179">
        <ele>1031</ele>
        <time>2012-04-24T10:43:58Z</time>
      </trkpt>
      <trkpt lat="43.73133" lon="6.97186">
        <ele>1032</ele>
        <time>2012-04-24T10:44:04Z</time>
      </trkpt>
      <trkpt lat="43.73138" lon="6.97187">
        <ele>1032</ele>
        <time>2012-04-24T10:44:09Z</time>
      </trkpt>
      <trkpt lat="43.73144" lon="6.97189">
        <ele>1032</ele>
        <time>2012-04-24T10:44:14Z</time>
      </trkpt>
      <trkpt lat="43.73154" lon="6.97195">
        <ele>1032</ele>
        <time>2012-04-24T10:44:19Z</time>
      </trkpt>
      <trkpt lat="43.73166" lon="6.97199">
        <ele>1032</ele>
        <time>2012-04-24T10:44:24Z</time>
      </trkpt>
      <trkpt lat="43.73166" lon="6.97211">
        <ele>1032</ele>
        <time>2012-04-24T10:44:29Z</time>
      </trkpt>
      <trkpt lat="43.73164" lon="6.97215">
        <ele>1032</ele>
        <time>2012-04-24T10:44:30Z</time>
      </trkpt>
      <trkpt lat="43.73148" lon="6.97244">
        <ele>1031</ele>
        <time>2012-04-24T10:44:38Z</time>
      </trkpt>
      <trkpt lat="43.73142" lon="6.97275">
        <ele>1030</ele>
        <time>2012-04-24T10:44:44Z</time>
      </trkpt>
      <trkpt lat="43.73138" lon="6.97283">
        <ele>1030</ele>
        <time>2012-04-24T10:44:46Z</time>
      </trkpt>
      <trkpt lat="43.73136" lon="6.97291">
        <ele>1030</ele>
        <time>2012-04-24T10:44:50Z</time>
      </trkpt>
      <trkpt lat="43.73137" lon="6.97304">
        <ele>1030</ele>
        <time>2012-04-24T10:44:55Z</time>
      </trkpt>
      <trkpt lat="43.73138" lon="6.97317">
        <ele>1030</ele>
        <time>2012-04-24T10:44:58Z</time>
      </trkpt>
      <trkpt lat="43.73128" lon="6.97347">
        <ele>1030</ele>
        <time>2012-04-24T10:45:05Z</time>
      </trkpt>
      <trkpt lat="43.73126" lon="6.97365">
        <ele>1030</ele>
        <time>2012-04-24T10:45:09Z</time>
      </trkpt>
      <trkpt lat="43.73125" lon="6.97386">
        <ele>1030</ele>
        <time>2012-04-24T10:45:13Z</time>
      </trkpt>
      <trkpt lat="43.7312" lon="6.97411">
        <ele>1030</ele>
        <time>2012-04-24T10:45:18Z</time>
      </trkpt>
      <trkpt lat="43.73118" lon="6.97415">
        <ele>1030</ele>
        <time>2012-04-24T10:45:19Z</time>
      </trkpt>
      <trkpt lat="43.731" lon="6.97431">
        <ele>1030</ele>
        <time>2012-04-24T10:45:25Z</time>
      </trkpt>
      <trkpt lat="43.7308" lon="6.97461">
        <ele>1029</ele>
        <time>2012-04-24T10:45:32Z</time>
      </trkpt>
      <trkpt lat="43.73061" lon="6.9749">
        <ele>1028</ele>
        <time>2012-04-24T10:45:38Z</time>
      </trkpt>
      <trkpt lat="43.73046" lon="6.97514">
        <ele>1027</ele>
        <time>2012-04-24T10:45:43Z</time>
      </trkpt>
      <trkpt lat="43.73042" lon="6.97523">
        <ele>1027</ele>
        <time>2012-04-24T10:45:47Z</time>
      </trkpt>
      <trkpt lat="43.73041" lon="6.97527">
        <ele>1027</ele>
        <time>2012-04-24T10:45:49Z</time>
      </trkpt>
      <trkpt lat="43.73042" lon="6.97535">
        <ele>1027</ele>
        <time>2012-04-24T10:45:56Z</time>
      </trkpt>
      <trkpt lat="43.73037" lon="6.97537">
        <ele>1026</ele>
        <time>2012-04-24T10:46:02Z</time>
      </trkpt>
      <trkpt lat="43.73034" lon="6.97545">
        <ele>1026</ele>
        <time>2012-04-24T10:46:09Z</time>
      </trkpt>
      <trkpt lat="43.73034" lon="6.97549">
        <ele>1026</ele>
        <time>2012-04-24T10:46:14Z</time>
      </trkpt>
      <trkpt lat="43.73033" lon="6.97553">
        <ele>1026</ele>
        <time>2012-04-24T10:46:20Z</time>
      </trkpt>
      <trkpt lat="43.73025" lon="6.97565">
        <ele>1025</ele>
        <time>2012-04-24T10:46:25Z</time>
      </trkpt>
      <trkpt lat="43.73018" lon="6.97579">
        <ele>1024</ele>
        <time>2012-04-24T10:46:30Z</time>
      </trkpt>
      <trkpt lat="43.73007" lon="6.976">
        <ele>1024</ele>
        <time>2012-04-24T10:46:37Z</time>
      </trkpt>
      <trkpt lat="43.73006" lon="6.97621">
        <ele>1025</ele>
        <time>2012-04-24T10:46:42Z</time>
      </trkpt>
      <trkpt lat="43.73001" lon="6.97647">
        <ele>1025</ele>
        <time>2012-04-24T10:46:48Z</time>
      </trkpt>
      <trkpt lat="43.72991" lon="6.97666">
        <ele>1021</ele>
        <time>2012-04-24T10:46:54Z</time>
      </trkpt>
      <trkpt lat="43.72989" lon="6.97671">
        <ele>1019</ele>
        <time>2012-04-24T10:46:58Z</time>
      </trkpt>
      <trkpt lat="43.72988" lon="6.97677">
        <ele>1017</ele>
        <time>2012-04-24T10:47:17Z</time>
      </trkpt>
      <trkpt lat="43.72983" lon="6.97691">
        <ele>1015</ele>
        <time>2012-04-24T10:47:23Z</time>
      </trkpt>
      <trkpt lat="43.72982" lon="6.97696">
        <ele>1014</ele>
        <time>2012-04-24T10:47:28Z</time>
      </trkpt>
      <trkpt lat="43.7298" lon="6.97704">
        <ele>1013</ele>
        <time>2012-04-24T10:47:33Z</time>
      </trkpt>
      <trkpt lat="43.72982" lon="6.97712">
        <ele>1013</ele>
        <time>2012-04-24T10:47:38Z</time>
      </trkpt>
      <trkpt lat="43.72986" lon="6.97716">
        <ele>1014</ele>
        <time>2012-04-24T10:47:43Z</time>
      </trkpt>
      <trkpt lat="43.72992" lon="6.97721">
        <ele>1015</ele>
        <time>2012-04-24T10:47:50Z</time>
      </trkpt>
      <trkpt lat="43.73" lon="6.97726">
        <ele>1016</ele>
        <time>2012-04-24T10:47:57Z</time>
      </trkpt>
      <trkpt lat="43.73006" lon="6.97729">
        <ele>1026</ele>
        <time>2012-04-24T10:48:03Z</time>
      </trkpt>
      <trkpt lat="43.73012" lon="6.97732">
        <ele>1026</ele>
        <time>2012-04-24T10:48:10Z</time>
      </trkpt>
      <trkpt lat="43.7302" lon="6.97735">
        <ele>1026</ele>
        <time>2012-04-24T10:48:19Z</time>
      </trkpt>
      <trkpt lat="43.73025" lon="6.97738">
        <ele>1026</ele>
        <time>2012-04-24T10:48:26Z</time>
      </trkpt>
      <trkpt lat="43.73031" lon="6.97743">
        <ele>1027</ele>
        <time>2012-04-24T10:48:32Z</time>
      </trkpt>
      <trkpt lat="43.73033" lon="6.97744">
        <ele>1027</ele>
        <time>2012-04-24T10:48:34Z</time>
      </trkpt>
      <trkpt lat="43.73039" lon="6.97745">
        <ele>1027</ele>
        <time>2012-04-24T10:48:39Z</time>
      </trkpt>
      <trkpt lat="43.73042" lon="6.97744">
        <ele>1027</ele>
        <time>2012-04-24T10:48:46Z</time>
      </trkpt>
      <trkpt lat="43.73042" lon="6.97745">
        <ele>1027</ele>
        <time>2012-04-24T10:48:50Z</time>
      </trkpt>
      <trkpt lat="43.73042" lon="6.97754">
        <ele>1024</ele>
        <time>2012-04-24T10:48:55Z</time>
      </trkpt>
      <trkpt lat="43.73042" lon="6.97762">
        <ele>1024</ele>
        <time>2012-04-24T10:49:00Z</time>
      </trkpt>
      <trkpt lat="43.73044" lon="6.97766">
        <ele>1024</ele>
        <time>2012-04-24T10:49:05Z</time>
      </trkpt>
      <trkpt lat="43.73048" lon="6.9777">
        <ele>1024</ele>
        <time>2012-04-24T10:49:10Z</time>
      </trkpt>
      <trkpt lat="43.73049" lon="6.97772">
        <ele>1024</ele>
        <time>2012-04-24T10:49:16Z</time>
      </trkpt>
      <trkpt lat="43.7305" lon="6.97778">
        <ele>1024</ele>
        <time>2012-04-24T10:49:22Z</time>
      </trkpt>
      <trkpt lat="43.7305" lon="6.97782">
        <ele>1023</ele>
        <time>2012-04-24T10:49:28Z</time>
      </trkpt>
      <trkpt lat="43.7305" lon="6.97783">
        <ele>1023</ele>
        <time>2012-04-24T10:49:32Z</time>
      </trkpt>
      <trkpt lat="43.7305" lon="6.97788">
        <ele>1023</ele>
        <time>2012-04-24T10:49:36Z</time>
      </trkpt>
      <trkpt lat="43.73051" lon="6.97793">
        <ele>1023</ele>
        <time>2012-04-24T10:49:39Z</time>
      </trkpt>
      <trkpt lat="43.73054" lon="6.97797">
        <ele>1023</ele>
        <time>2012-04-24T10:49:44Z</time>
      </trkpt>
      <trkpt lat="43.73054" lon="6.97798">
        <ele>1023</ele>
        <time>2012-04-24T10:49:50Z</time>
      </trkpt>
      <trkpt lat="43.73053" lon="6.978">
        <ele>1023</ele>
        <time>2012-04-24T10:49:56Z</time>
      </trkpt>
      <trkpt lat="43.73053" lon="6.97803">
        <ele>1023</ele>
        <time>2012-04-24T10:49:58Z</time>
      </trkpt>
      <trkpt lat="43.73055" lon="6.97809">
        <ele>1023</ele>
        <time>2012-04-24T10:50:04Z</time>
      </trkpt>
      <trkpt lat="43.73056" lon="6.9781">
        <ele>1023</ele>
        <time>2012-04-24T10:50:05Z</time>
      </trkpt>
      <trkpt lat="43.73061" lon="6.97814">
        <ele>1024</ele>
        <time>2012-04-24T10:50:10Z</time>
      </trkpt>
      <trkpt lat="43.73062" lon="6.97826">
        <ele>1024</ele>
        <time>2012-04-24T10:50:18Z</time>
      </trkpt>
      <trkpt lat="43.73062" lon="6.97833">
        <ele>1019</ele>
        <time>2012-04-24T10:50:24Z</time>
      </trkpt>
      <trkpt lat="43.73061" lon="6.97835">
        <ele>1019</ele>
        <time>2012-04-24T10:51:07Z</time>
      </trkpt>
      <trkpt lat="43.73063" lon="6.97835">
        <ele>1020</ele>
        <time>2012-04-24T10:51:31Z</time>
      </trkpt>
      <trkpt lat="43.73063" lon="6.97834">
        <ele>1020</ele>
        <time>2012-04-24T10:51:37Z</time>
      </trkpt>
      <trkpt lat="43.73062" lon="6.97841">
        <ele>1019</ele>
        <time>2012-04-24T10:51:43Z</time>
      </trkpt>
      <trkpt lat="43.73062" lon="6.97841">
        <ele>1019</ele>
        <time>2012-04-24T10:51:46Z</time>
      </trkpt>
      <trkpt lat="43.73054" lon="6.97849">
        <ele>1016</ele>
        <time>2012-04-24T10:51:52Z</time>
      </trkpt>
      <trkpt lat="43.73054" lon="6.97854">
        <ele>1015</ele>
        <time>2012-04-24T10:51:56Z</time>
      </trkpt>
      <trkpt lat="43.73056" lon="6.97861">
        <ele>1015</ele>
        <time>2012-04-24T10:52:00Z</time>
      </trkpt>
      <trkpt lat="43.73058" lon="6.97869">
        <ele>1015</ele>
        <time>2012-04-24T10:52:04Z</time>
      </trkpt>
      <trkpt lat="43.73054" lon="6.97871">
        <ele>1014</ele>
        <time>2012-04-24T10:52:08Z</time>
      </trkpt>
      <trkpt lat="43.73058" lon="6.97881">
        <ele>1014</ele>
        <time>2012-04-24T10:52:12Z</time>
      </trkpt>
      <trkpt lat="43.7306" lon="6.97889">
        <ele>1014</ele>
        <time>2012-04-24T10:52:14Z</time>
      </trkpt>
      <trkpt lat="43.73059" lon="6.97903">
        <ele>1014</ele>
        <time>2012-04-24T10:52:18Z</time>
      </trkpt>
      <trkpt lat="43.73057" lon="6.97905">
        <ele>1014</ele>
        <time>2012-04-24T10:52:20Z</time>
      </trkpt>
      <trkpt lat="43.73053" lon="6.97898">
        <ele>1013</ele>
        <time>2012-04-24T10:52:25Z</time>
      </trkpt>
      <trkpt lat="43.73053" lon="6.97905">
        <ele>1013</ele>
        <time>2012-04-24T10:52:28Z</time>
      </trkpt>
      <trkpt lat="43.73052" lon="6.97911">
        <ele>1013</ele>
        <time>2012-04-24T10:52:30Z</time>
      </trkpt>
      <trkpt lat="43.73044" lon="6.97935">
        <ele>1007</ele>
        <time>2012-04-24T10:52:36Z</time>
      </trkpt>
      <trkpt lat="43.73041" lon="6.97944">
        <ele>1007</ele>
        <time>2012-04-24T10:52:40Z</time>
      </trkpt>
      <trkpt lat="43.7304" lon="6.97942">
        <ele>1007</ele>
        <time>2012-04-24T10:52:43Z</time>
      </trkpt>
      <trkpt lat="43.73039" lon="6.97927">
        <ele>1006</ele>
        <time>2012-04-24T10:52:49Z</time>
      </trkpt>
      <trkpt lat="43.73035" lon="6.97934">
        <ele>1005</ele>
        <time>2012-04-24T10:52:54Z</time>
      </trkpt>
      <trkpt lat="43.73028" lon="6.97946">
        <ele>1004</ele>
        <time>2012-04-24T10:52:59Z</time>
      </trkpt>
      <trkpt lat="43.73019" lon="6.97961">
        <ele>1003</ele>
        <time>2012-04-24T10:53:03Z</time>
      </trkpt>
      <trkpt lat="43.73012" lon="6.97972">
        <ele>1002</ele>
        <time>2012-04-24T10:53:06Z</time>
      </trkpt>
      <trkpt lat="43.73009" lon="6.97971">
        <ele>1002</ele>
        <time>2012-04-24T10:53:10Z</time>
      </trkpt>
      <trkpt lat="43.73014" lon="6.97957">
        <ele>1002</ele>
        <time>2012-04-24T10:53:15Z</time>
      </trkpt>
      <trkpt lat="43.73017" lon="6.97938">
        <ele>1000</ele>
        <time>2012-04-24T10:53:20Z</time>
      </trkpt>
      <trkpt lat="43.73018" lon="6.9792">
        <ele>998</ele>
        <time>2012-04-24T10:53:24Z</time>
      </trkpt>
      <trkpt lat="43.73014" lon="6.97908">
        <ele>999</ele>
        <time>2012-04-24T10:53:28Z</time>
      </trkpt>
      <trkpt lat="43.73012" lon="6.97917">
        <ele>995</ele>
        <time>2012-04-24T10:53:32Z</time>
      </trkpt>
      <trkpt lat="43.73006" lon="6.97932">
        <ele>996</ele>
        <time>2012-04-24T10:53:37Z</time>
      </trkpt>
      <trkpt lat="43.73005" lon="6.97931">
        <ele>996</ele>
        <time>2012-04-24T10:53:42Z</time>
      </trkpt>
      <trkpt lat="43.73004" lon="6.97929">
        <ele>995</ele>
        <time>2012-04-24T10:53:43Z</time>
      </trkpt>
      <trkpt lat="43.73003" lon="6.97909">
        <ele>994</ele>
        <time>2012-04-24T10:53:50Z</time>
      </trkpt>
      <trkpt lat="43.73002" lon="6.97906">
        <ele>996</ele>
        <time>2012-04-24T10:53:51Z</time>
      </trkpt>
      <trkpt lat="43.72989" lon="6.97885">
        <ele>980</ele>
        <time>2012-04-24T10:53:58Z</time>
      </trkpt>
      <trkpt lat="43.7299" lon="6.97898">
        <ele>980</ele>
        <time>2012-04-24T10:54:03Z</time>
      </trkpt>
      <trkpt lat="43.72988" lon="6.97914">
        <ele>981</ele>
        <time>2012-04-24T10:54:07Z</time>
      </trkpt>
      <trkpt lat="43.72981" lon="6.97926">
        <ele>974</ele>
        <time>2012-04-24T10:54:11Z</time>
      </trkpt>
      <trkpt lat="43.72977" lon="6.97933">
        <ele>971</ele>
        <time>2012-04-24T10:54:15Z</time>
      </trkpt>
      <trkpt lat="43.72976" lon="6.97932">
        <ele>971</ele>
        <time>2012-04-24T10:54:19Z</time>
      </trkpt>
      <trkpt lat="43.72975" lon="6.97918">
        <ele>971</ele>
        <time>2012-04-24T10:54:24Z</time>
      </trkpt>
      <trkpt lat="43.7297" lon="6.97899">
        <ele>975</ele>
        <time>2012-04-24T10:54:29Z</time>
      </trkpt>
      <trkpt lat="43.72965" lon="6.97891">
        <ele>974</ele>
        <time>2012-04-24T10:54:32Z</time>
      </trkpt>
      <trkpt lat="43.72962" lon="6.97894">
        <ele>972</ele>
        <time>2012-04-24T10:54:37Z</time>
      </trkpt>
      <trkpt lat="43.72961" lon="6.97893">
        <ele>972</ele>
        <time>2012-04-24T10:54:42Z</time>
      </trkpt>
      <trkpt lat="43.7296" lon="6.97893">
        <ele>972</ele>
        <time>2012-04-24T10:54:51Z</time>
      </trkpt>
      <trkpt lat="43.72954" lon="6.97887">
        <ele>971</ele>
        <time>2012-04-24T10:54:57Z</time>
      </trkpt>
      <trkpt lat="43.72948" lon="6.97883">
        <ele>970</ele>
        <time>2012-04-24T10:55:01Z</time>
      </trkpt>
      <trkpt lat="43.72942" lon="6.97878">
        <ele>969</ele>
        <time>2012-04-24T10:55:04Z</time>
      </trkpt>
      <trkpt lat="43.72941" lon="6.97882">
        <ele>968</ele>
        <time>2012-04-24T10:55:08Z</time>
      </trkpt>
      <trkpt lat="43.7294" lon="6.97886">
        <ele>967</ele>
        <time>2012-04-24T10:55:10Z</time>
      </trkpt>
      <trkpt lat="43.72933" lon="6.97878">
        <ele>967</ele>
        <time>2012-04-24T10:55:15Z</time>
      </trkpt>
      <trkpt lat="43.72928" lon="6.97874">
        <ele>967</ele>
        <time>2012-04-24T10:55:17Z</time>
      </trkpt>
      <trkpt lat="43.72925" lon="6.97877">
        <ele>965</ele>
        <time>2012-04-24T10:55:21Z</time>
      </trkpt>
      <trkpt lat="43.72927" lon="6.97897">
        <ele>960</ele>
        <time>2012-04-24T10:55:27Z</time>
      </trkpt>
      <trkpt lat="43.72928" lon="6.97903">
        <ele>957</ele>
        <time>2012-04-24T10:55:29Z</time>
      </trkpt>
      <trkpt lat="43.7292" lon="6.97904">
        <ele>954</ele>
        <time>2012-04-24T10:55:34Z</time>
      </trkpt>
      <trkpt lat="43.72914" lon="6.979">
        <ele>935</ele>
        <time>2012-04-24T10:55:37Z</time>
      </trkpt>
      <trkpt lat="43.72912" lon="6.979">
        <ele>935</ele>
        <time>2012-04-24T10:55:39Z</time>
      </trkpt>
      <trkpt lat="43.72916" lon="6.97911">
        <ele>938</ele>
        <time>2012-04-24T10:55:44Z</time>
      </trkpt>
      <trkpt lat="43.72914" lon="6.97913">
        <ele>938</ele>
        <time>2012-04-24T10:55:47Z</time>
      </trkpt>
      <trkpt lat="43.72905" lon="6.97911">
        <ele>934</ele>
        <time>2012-04-24T10:55:51Z</time>
      </trkpt>
      <trkpt lat="43.72902" lon="6.97906">
        <ele>933</ele>
        <time>2012-04-24T10:55:53Z</time>
      </trkpt>
      <trkpt lat="43.7289" lon="6.97883">
        <ele>930</ele>
        <time>2012-04-24T10:56:00Z</time>
      </trkpt>
      <trkpt lat="43.72881" lon="6.97874">
        <ele>929</ele>
        <time>2012-04-24T10:56:04Z</time>
      </trkpt>
      <trkpt lat="43.72879" lon="6.97876">
        <ele>928</ele>
        <time>2012-04-24T10:56:06Z</time>
      </trkpt>
      <trkpt lat="43.72883" lon="6.9789">
        <ele>928</ele>
        <time>2012-04-24T10:56:11Z</time>
      </trkpt>
      <trkpt lat="43.72886" lon="6.9791">
        <ele>928</ele>
        <time>2012-04-24T10:56:16Z</time>
      </trkpt>
      <trkpt lat="43.72886" lon="6.97914">
        <ele>928</ele>
        <time>2012-04-24T10:56:18Z</time>
      </trkpt>
      <trkpt lat="43.72876" lon="6.97903">
        <ele>925</ele>
        <time>2012-04-24T10:56:23Z</time>
      </trkpt>
      <trkpt lat="43.72863" lon="6.97883">
        <ele>923</ele>
        <time>2012-04-24T10:56:29Z</time>
      </trkpt>
      <trkpt lat="43.72851" lon="6.97869">
        <ele>922</ele>
        <time>2012-04-24T10:56:33Z</time>
      </trkpt>
      <trkpt lat="43.72841" lon="6.97853">
        <ele>920</ele>
        <time>2012-04-24T10:56:37Z</time>
      </trkpt>
      <trkpt lat="43.72819" lon="6.97827">
        <ele>909</ele>
        <time>2012-04-24T10:56:44Z</time>
      </trkpt>
      <trkpt lat="43.72807" lon="6.9782">
        <ele>905</ele>
        <time>2012-04-24T10:56:49Z</time>
      </trkpt>
      <trkpt lat="43.72793" lon="6.97812">
        <ele>902</ele>
        <time>2012-04-24T10:56:54Z</time>
      </trkpt>
      <trkpt lat="43.72779" lon="6.97801">
        <ele>900</ele>
        <time>2012-04-24T10:56:59Z</time>
      </trkpt>
      <trkpt lat="43.72768" lon="6.9779">
        <ele>899</ele>
        <time>2012-04-24T10:57:04Z</time>
      </trkpt>
      <trkpt lat="43.72754" lon="6.97775">
        <ele>898</ele>
        <time>2012-04-24T10:57:09Z</time>
      </trkpt>
      <trkpt lat="43.72742" lon="6.97764">
        <ele>879</ele>
        <time>2012-04-24T10:57:14Z</time>
      </trkpt>
      <trkpt lat="43.72735" lon="6.97752">
        <ele>879</ele>
        <time>2012-04-24T10:57:17Z</time>
      </trkpt>
      <trkpt lat="43.72722" lon="6.9773">
        <ele>885</ele>
        <time>2012-04-24T10:57:22Z</time>
      </trkpt>
      <trkpt lat="43.7272" lon="6.97727">
        <ele>884</ele>
        <time>2012-04-24T10:57:23Z</time>
      </trkpt>
      <trkpt lat="43.72713" lon="6.97715">
        <ele>884</ele>
        <time>2012-04-24T10:57:26Z</time>
      </trkpt>
      <trkpt lat="43.727" lon="6.97702">
        <ele>882</ele>
        <time>2012-04-24T10:57:31Z</time>
      </trkpt>
      <trkpt lat="43.72696" lon="6.97697">
        <ele>882</ele>
        <time>2012-04-24T10:57:33Z</time>
      </trkpt>
      <trkpt lat="43.72685" lon="6.97683">
        <ele>880</ele>
        <time>2012-04-24T10:57:38Z</time>
      </trkpt>
      <trkpt lat="43.72684" lon="6.97682">
        <ele>880</ele>
        <time>2012-04-24T10:57:43Z</time>
      </trkpt>
      <trkpt lat="43.72682" lon="6.97677">
        <ele>879</ele>
        <time>2012-04-24T10:57:50Z</time>
      </trkpt>
      <trkpt lat="43.72681" lon="6.97677">
        <ele>879</ele>
        <time>2012-04-24T10:57:56Z</time>
      </trkpt>
      <trkpt lat="43.72682" lon="6.97677">
        <ele>879</ele>
        <time>2012-04-24T10:58:05Z</time>
      </trkpt>
      <trkpt lat="43.72681" lon="6.97673">
        <ele>879</ele>
        <time>2012-04-24T10:58:36Z</time>
      </trkpt>
      <trkpt lat="43.72677" lon="6.97663">
        <ele>882</ele>
        <time>2012-04-24T10:58:41Z</time>
      </trkpt>
      <trkpt lat="43.72668" lon="6.97649">
        <ele>885</ele>
        <time>2012-04-24T10:58:46Z</time>
      </trkpt>
      <trkpt lat="43.72656" lon="6.97635">
        <ele>866</ele>
        <time>2012-04-24T10:58:51Z</time>
      </trkpt>
      <trkpt lat="43.72655" lon="6.97636">
        <ele>866</ele>
        <time>2012-04-24T10:58:52Z</time>
      </trkpt>
      <trkpt lat="43.72655" lon="6.97645">
        <ele>866</ele>
        <time>2012-04-24T10:58:56Z</time>
      </trkpt>
      <trkpt lat="43.72647" lon="6.9764">
        <ele>865</ele>
        <time>2012-04-24T10:59:01Z</time>
      </trkpt>
      <trkpt lat="43.72638" lon="6.97628">
        <ele>864</ele>
        <time>2012-04-24T10:59:05Z</time>
      </trkpt>
      <trkpt lat="43.72629" lon="6.97619">
        <ele>862</ele>
        <time>2012-04-24T10:59:08Z</time>
      </trkpt>
      <trkpt lat="43.72624" lon="6.97598">
        <ele>862</ele>
        <time>2012-04-24T10:59:13Z</time>
      </trkpt>
      <trkpt lat="43.7262" lon="6.97565">
        <ele>863</ele>
        <time>2012-04-24T10:59:20Z</time>
      </trkpt>
      <trkpt lat="43.72613" lon="6.97539">
        <ele>862</ele>
        <time>2012-04-24T10:59:25Z</time>
      </trkpt>
      <trkpt lat="43.7261" lon="6.97522">
        <ele>861</ele>
        <time>2012-04-24T10:59:29Z</time>
      </trkpt>
      <trkpt lat="43.72603" lon="6.97526">
        <ele>860</ele>
        <time>2012-04-24T10:59:34Z</time>
      </trkpt>
      <trkpt lat="43.72597" lon="6.97515">
        <ele>857</ele>
        <time>2012-04-24T10:59:38Z</time>
      </trkpt>
      <trkpt lat="43.72575" lon="6.97476">
        <ele>847</ele>
        <time>2012-04-24T10:59:44Z</time>
      </trkpt>
      <trkpt lat="43.72556" lon="6.97446">
        <ele>847</ele>
        <time>2012-04-24T10:59:49Z</time>
      </trkpt>
      <trkpt lat="43.72549" lon="6.97437">
        <ele>847</ele>
        <time>2012-04-24T10:59:51Z</time>
      </trkpt>
      <trkpt lat="43.72537" lon="6.97433">
        <ele>847</ele>
        <time>2012-04-24T10:59:55Z</time>
      </trkpt>
      <trkpt lat="43.72528" lon="6.9745">
        <ele>846</ele>
        <time>2012-04-24T10:59:59Z</time>
      </trkpt>
      <trkpt lat="43.72509" lon="6.97488">
        <ele>841</ele>
        <time>2012-04-24T11:00:06Z</time>
      </trkpt>
      <trkpt lat="43.72494" lon="6.97521">
        <ele>829</ele>
        <time>2012-04-24T11:00:12Z</time>
      </trkpt>
      <trkpt lat="43.72504" lon="6.97533">
        <ele>838</ele>
        <time>2012-04-24T11:00:17Z</time>
      </trkpt>
      <trkpt lat="43.72511" lon="6.9754">
        <ele>837</ele>
        <time>2012-04-24T11:00:19Z</time>
      </trkpt>
      <trkpt lat="43.72507" lon="6.97552">
        <ele>836</ele>
        <time>2012-04-24T11:00:23Z</time>
      </trkpt>
      <trkpt lat="43.72503" lon="6.97554">
        <ele>835</ele>
        <time>2012-04-24T11:00:24Z</time>
      </trkpt>
      <trkpt lat="43.72488" lon="6.97567">
        <ele>824</ele>
        <time>2012-04-24T11:00:27Z</time>
      </trkpt>
      <trkpt lat="43.72478" lon="6.97577">
        <ele>823</ele>
        <time>2012-04-24T11:00:29Z</time>
      </trkpt>
      <trkpt lat="43.7245" lon="6.97601">
        <ele>813</ele>
        <time>2012-04-24T11:00:35Z</time>
      </trkpt>
      <trkpt lat="43.72446" lon="6.97604">
        <ele>812</ele>
        <time>2012-04-24T11:00:36Z</time>
      </trkpt>
      <trkpt lat="43.72434" lon="6.97599">
        <ele>811</ele>
        <time>2012-04-24T11:00:41Z</time>
      </trkpt>
      <trkpt lat="43.72429" lon="6.97589">
        <ele>810</ele>
        <time>2012-04-24T11:00:44Z</time>
      </trkpt>
      <trkpt lat="43.7242" lon="6.97578">
        <ele>810</ele>
        <time>2012-04-24T11:00:50Z</time>
      </trkpt>
      <trkpt lat="43.7242" lon="6.97579">
        <ele>810</ele>
        <time>2012-04-24T11:00:51Z</time>
      </trkpt>
      <trkpt lat="43.72419" lon="6.97587">
        <ele>808</ele>
        <time>2012-04-24T11:00:55Z</time>
      </trkpt>
      <trkpt lat="43.72418" lon="6.97593">
        <ele>809</ele>
        <time>2012-04-24T11:00:57Z</time>
      </trkpt>
      <trkpt lat="43.72416" lon="6.97611">
        <ele>797</ele>
        <time>2012-04-24T11:01:04Z</time>
      </trkpt>
      <trkpt lat="43.72416" lon="6.97613">
        <ele>797</ele>
        <time>2012-04-24T11:01:07Z</time>
      </trkpt>
      <trkpt lat="43.72414" lon="6.97614">
        <ele>797</ele>
        <time>2012-04-24T11:01:09Z</time>
      </trkpt>
      <trkpt lat="43.7241" lon="6.97605">
        <ele>798</ele>
        <time>2012-04-24T11:01:13Z</time>
      </trkpt>
      <trkpt lat="43.72404" lon="6.9759">
        <ele>800</ele>
        <time>2012-04-24T11:01:16Z</time>
      </trkpt>
      <trkpt lat="43.72395" lon="6.97561">
        <ele>801</ele>
        <time>2012-04-24T11:01:20Z</time>
      </trkpt>
      <trkpt lat="43.72382" lon="6.97528">
        <ele>800</ele>
        <time>2012-04-24T11:01:24Z</time>
      </trkpt>
      <trkpt lat="43.72362" lon="6.97495">
        <ele>801</ele>
        <time>2012-04-24T11:01:29Z</time>
      </trkpt>
      <trkpt lat="43.72345" lon="6.97473">
        <ele>799</ele>
        <time>2012-04-24T11:01:33Z</time>
      </trkpt>
      <trkpt lat="43.72332" lon="6.9748">
        <ele>784</ele>
        <time>2012-04-24T11:01:37Z</time>
      </trkpt>
      <trkpt lat="43.72314" lon="6.97496">
        <ele>783</ele>
        <time>2012-04-24T11:01:40Z</time>
      </trkpt>
      <trkpt lat="43.72275" lon="6.97508">
        <ele>776</ele>
        <time>2012-04-24T11:01:45Z</time>
      </trkpt>
      <trkpt lat="43.72259" lon="6.97495">
        <ele>775</ele>
        <time>2012-04-24T11:01:48Z</time>
      </trkpt>
      <trkpt lat="43.72241" lon="6.97495">
        <ele>769</ele>
        <time>2012-04-24T11:01:51Z</time>
      </trkpt>
      <trkpt lat="43.72219" lon="6.97495">
        <ele>764</ele>
        <time>2012-04-24T11:01:55Z</time>
      </trkpt>
      <trkpt lat="43.72214" lon="6.97488">
        <ele>763</ele>
        <time>2012-04-24T11:01:56Z</time>
      </trkpt>
      <trkpt lat="43.72182" lon="6.97445">
        <ele>759</ele>
        <time>2012-04-24T11:02:01Z</time>
      </trkpt>
      <trkpt lat="43.7217" lon="6.97434">
        <ele>757</ele>
        <time>2012-04-24T11:02:05Z</time>
      </trkpt>
      <trkpt lat="43.7217" lon="6.97435">
        <ele>757</ele>
        <time>2012-04-24T11:02:09Z</time>
      </trkpt>
      <trkpt lat="43.72171" lon="6.9744">
        <ele>758</ele>
        <time>2012-04-24T11:02:14Z</time>
      </trkpt>
      <trkpt lat="43.72172" lon="6.97441">
        <ele>758</ele>
        <time>2012-04-24T11:02:16Z</time>
      </trkpt>
      <trkpt lat="43.7217" lon="6.9746">
        <ele>759</ele>
        <time>2012-04-24T11:02:21Z</time>
      </trkpt>
      <trkpt lat="43.72169" lon="6.97472">
        <ele>758</ele>
        <time>2012-04-24T11:02:23Z</time>
      </trkpt>
      <trkpt lat="43.72172" lon="6.97506">
        <ele>756</ele>
        <time>2012-04-24T11:02:28Z</time>
      </trkpt>
      <trkpt lat="43.72173" lon="6.97529">
        <ele>757</ele>
        <time>2012-04-24T11:02:32Z</time>
      </trkpt>
      <trkpt lat="43.72175" lon="6.97533">
        <ele>757</ele>
        <time>2012-04-24T11:02:33Z</time>
      </trkpt>
      <trkpt lat="43.7218" lon="6.97543">
        <ele>757</ele>
        <time>2012-04-24T11:02:36Z</time>
      </trkpt>
      <trkpt lat="43.72182" lon="6.97558">
        <ele>755</ele>
        <time>2012-04-24T11:02:39Z</time>
      </trkpt>
      <trkpt lat="43.72178" lon="6.97564">
        <ele>754</ele>
        <time>2012-04-24T11:02:43Z</time>
      </trkpt>
      <trkpt lat="43.72177" lon="6.97555">
        <ele>755</ele>
        <time>2012-04-24T11:02:46Z</time>
      </trkpt>
      <trkpt lat="43.72175" lon="6.97544">
        <ele>756</ele>
        <time>2012-04-24T11:02:50Z</time>
      </trkpt>
      <trkpt lat="43.72175" lon="6.97542">
        <ele>756</ele>
        <time>2012-04-24T11:02:51Z</time>
      </trkpt>
      <trkpt lat="43.72175" lon="6.97554">
        <ele>755</ele>
        <time>2012-04-24T11:02:55Z</time>
      </trkpt>
      <trkpt lat="43.72178" lon="6.97599">
        <ele>749</ele>
        <time>2012-04-24T11:03:01Z</time>
      </trkpt>
      <trkpt lat="43.72165" lon="6.97644">
        <ele>739</ele>
        <time>2012-04-24T11:03:06Z</time>
      </trkpt>
      <trkpt lat="43.72144" lon="6.97685">
        <ele>740</ele>
        <time>2012-04-24T11:03:11Z</time>
      </trkpt>
      <trkpt lat="43.72126" lon="6.977">
        <ele>740</ele>
        <time>2012-04-24T11:03:15Z</time>
      </trkpt>
      <trkpt lat="43.72123" lon="6.97711">
        <ele>741</ele>
        <time>2012-04-24T11:03:17Z</time>
      </trkpt>
      <trkpt lat="43.72125" lon="6.97725">
        <ele>741</ele>
        <time>2012-04-24T11:03:20Z</time>
      </trkpt>
      <trkpt lat="43.7212" lon="6.97739">
        <ele>741</ele>
        <time>2012-04-24T11:03:24Z</time>
      </trkpt>
      <trkpt lat="43.72117" lon="6.97746">
        <ele>742</ele>
        <time>2012-04-24T11:03:26Z</time>
      </trkpt>
      <trkpt lat="43.72104" lon="6.9777">
        <ele>743</ele>
        <time>2012-04-24T11:03:34Z</time>
      </trkpt>
      <trkpt lat="43.72093" lon="6.97787">
        <ele>743</ele>
        <time>2012-04-24T11:03:41Z</time>
      </trkpt>
      <trkpt lat="43.7208" lon="6.97803">
        <ele>744</ele>
        <time>2012-04-24T11:03:49Z</time>
      </trkpt>
      <trkpt lat="43.72064" lon="6.9782">
        <ele>745</ele>
        <time>2012-04-24T11:03:58Z</time>
      </trkpt>
      <trkpt lat="43.7205" lon="6.97836">
        <ele>747</ele>
        <time>2012-04-24T11:04:06Z</time>
      </trkpt>
      <trkpt lat="43.72041" lon="6.97846">
        <ele>748</ele>
        <time>2012-04-24T11:04:12Z</time>
      </trkpt>
      <trkpt lat="43.7204" lon="6.97862">
        <ele>747</ele>
        <time>2012-04-24T11:04:16Z</time>
      </trkpt>
      <trkpt lat="43.7205" lon="6.97898">
        <ele>746</ele>
        <time>2012-04-24T11:04:21Z</time>
      </trkpt>
      <trkpt lat="43.72055" lon="6.97915">
        <ele>745</ele>
        <time>2012-04-24T11:04:23Z</time>
      </trkpt>
      <trkpt lat="43.72062" lon="6.97937">
        <ele>734</ele>
        <time>2012-04-24T11:04:27Z</time>
      </trkpt>
      <trkpt lat="43.72063" lon="6.97939">
        <ele>733</ele>
        <time>2012-04-24T11:04:28Z</time>
      </trkpt>
      <trkpt lat="43.72062" lon="6.97942">
        <ele>733</ele>
        <time>2012-04-24T11:04:33Z</time>
      </trkpt>
      <trkpt lat="43.72059" lon="6.97946">
        <ele>732</ele>
        <time>2012-04-24T11:04:39Z</time>
      </trkpt>
      <trkpt lat="43.72061" lon="6.97945">
        <ele>732</ele>
        <time>2012-04-24T11:04:43Z</time>
      </trkpt>
      <trkpt lat="43.72069" lon="6.9795">
        <ele>731</ele>
        <time>2012-04-24T11:04:48Z</time>
      </trkpt>
      <trkpt lat="43.72075" lon="6.97952">
        <ele>731</ele>
        <time>2012-04-24T11:04:52Z</time>
      </trkpt>
      <trkpt lat="43.72083" lon="6.97953">
        <ele>731</ele>
        <time>2012-04-24T11:04:57Z</time>
      </trkpt>
      <trkpt lat="43.72083" lon="6.97953">
        <ele>731</ele>
        <time>2012-04-24T11:05:00Z</time>
      </trkpt>
      <trkpt lat="43.72078" lon="6.97963">
        <ele>729</ele>
        <time>2012-04-24T11:05:04Z</time>
      </trkpt>
      <trkpt lat="43.72072" lon="6.97962">
        <ele>729</ele>
        <time>2012-04-24T11:05:07Z</time>
      </trkpt>
      <trkpt lat="43.72064" lon="6.9796">
        <ele>730</ele>
        <time>2012-04-24T11:05:10Z</time>
      </trkpt>
      <trkpt lat="43.72044" lon="6.97959">
        <ele>729</ele>
        <time>2012-04-24T11:05:16Z</time>
      </trkpt>
      <trkpt lat="43.72031" lon="6.97953">
        <ele>730</ele>
        <time>2012-04-24T11:05:21Z</time>
      </trkpt>
      <trkpt lat="43.72019" lon="6.97953">
        <ele>730</ele>
        <time>2012-04-24T11:05:26Z</time>
      </trkpt>
      <trkpt lat="43.72011" lon="6.97956">
        <ele>730</ele>
        <time>2012-04-24T11:05:29Z</time>
      </trkpt>
      <trkpt lat="43.71999" lon="6.9796">
        <ele>716</ele>
        <time>2012-04-24T11:05:34Z</time>
      </trkpt>
      <trkpt lat="43.71984" lon="6.97965">
        <ele>713</ele>
        <time>2012-04-24T11:05:40Z</time>
      </trkpt>
      <trkpt lat="43.71975" lon="6.97954">
        <ele>715</ele>
        <time>2012-04-24T11:05:45Z</time>
      </trkpt>
      <trkpt lat="43.71968" lon="6.9795">
        <ele>714</ele>
        <time>2012-04-24T11:05:50Z</time>
      </trkpt>
      <trkpt lat="43.71967" lon="6.97949">
        <ele>714</ele>
        <time>2012-04-24T11:05:51Z</time>
      </trkpt>
      <trkpt lat="43.71963" lon="6.97949">
        <ele>713</ele>
        <time>2012-04-24T11:05:57Z</time>
      </trkpt>
      <trkpt lat="43.71962" lon="6.97949">
        <ele>713</ele>
        <time>2012-04-24T11:05:58Z</time>
      </trkpt>
      <trkpt lat="43.71962" lon="6.97952">
        <ele>712</ele>
        <time>2012-04-24T11:06:05Z</time>
      </trkpt>
      <trkpt lat="43.71962" lon="6.97953">
        <ele>712</ele>
        <time>2012-04-24T11:06:13Z</time>
      </trkpt>
      <trkpt lat="43.71962" lon="6.97955">
        <ele>712</ele>
        <time>2012-04-24T11:06:26Z</time>
      </trkpt>
      <trkpt lat="43.71969" lon="6.97964">
        <ele>711</ele>
        <time>2012-04-24T11:06:32Z</time>
      </trkpt>
      <trkpt lat="43.71968" lon="6.97965">
        <ele>711</ele>
        <time>2012-04-24T11:06:37Z</time>
      </trkpt>
      <trkpt lat="43.71967" lon="6.97964">
        <ele>711</ele>
        <time>2012-04-24T11:06:44Z</time>
      </trkpt>
      <trkpt lat="43.71962" lon="6.97962">
        <ele>710</ele>
        <time>2012-04-24T11:06:48Z</time>
      </trkpt>
      <trkpt lat="43.7195" lon="6.97963">
        <ele>707</ele>
        <time>2012-04-24T11:06:53Z</time>
      </trkpt>
      <trkpt lat="43.71952" lon="6.97968">
        <ele>707</ele>
        <time>2012-04-24T11:06:58Z</time>
      </trkpt>
      <trkpt lat="43.7196" lon="6.97973">
        <ele>708</ele>
        <time>2012-04-24T11:07:03Z</time>
      </trkpt>
      <trkpt lat="43.71959" lon="6.97974">
        <ele>707</ele>
        <time>2012-04-24T11:07:07Z</time>
      </trkpt>
      <trkpt lat="43.71949" lon="6.97979">
        <ele>704</ele>
        <time>2012-04-24T11:07:13Z</time>
      </trkpt>
      <trkpt lat="43.7195" lon="6.9798">
        <ele>704</ele>
        <time>2012-04-24T11:07:15Z</time>
      </trkpt>
      <trkpt lat="43.71962" lon="6.97981">
        <ele>707</ele>
        <time>2012-04-24T11:07:20Z</time>
      </trkpt>
      <trkpt lat="43.71963" lon="6.97984">
        <ele>707</ele>
        <time>2012-04-24T11:07:23Z</time>
      </trkpt>
      <trkpt lat="43.71961" lon="6.97985">
        <ele>706</ele>
        <time>2012-04-24T11:07:28Z</time>
      </trkpt>
      <trkpt lat="43.71955" lon="6.97985">
        <ele>705</ele>
        <time>2012-04-24T11:07:33Z</time>
      </trkpt>
      <trkpt lat="43.71952" lon="6.97988">
        <ele>703</ele>
        <time>2012-04-24T11:07:36Z</time>
      </trkpt>
      <trkpt lat="43.71959" lon="6.9799">
        <ele>705</ele>
        <time>2012-04-24T11:07:41Z</time>
      </trkpt>
      <trkpt lat="43.71962" lon="6.97991">
        <ele>706</ele>
        <time>2012-04-24T11:07:42Z</time>
      </trkpt>
      <trkpt lat="43.71975" lon="6.98">
        <ele>707</ele>
        <time>2012-04-24T11:07:47Z</time>
      </trkpt>
      <trkpt lat="43.71978" lon="6.98003">
        <ele>691</ele>
        <time>2012-04-24T11:07:51Z</time>
      </trkpt>
      <trkpt lat="43.71976" lon="6.98004">
        <ele>689</ele>
        <time>2012-04-24T11:07:54Z</time>
      </trkpt>
      <trkpt lat="43.71971" lon="6.98007">
        <ele>687</ele>
        <time>2012-04-24T11:07:57Z</time>
      </trkpt>
      <trkpt lat="43.71959" lon="6.98009">
        <ele>684</ele>
        <time>2012-04-24T11:08:03Z</time>
      </trkpt>
      <trkpt lat="43.71945" lon="6.98011">
        <ele>681</ele>
        <time>2012-04-24T11:08:07Z</time>
      </trkpt>
      <trkpt lat="43.71925" lon="6.98007">
        <ele>680</ele>
        <time>2012-04-24T11:08:13Z</time>
      </trkpt>
      <trkpt lat="43.71914" lon="6.97996">
        <ele>678</ele>
        <time>2012-04-24T11:08:18Z</time>
      </trkpt>
      <trkpt lat="43.71907" lon="6.97995">
        <ele>674</ele>
        <time>2012-04-24T11:08:23Z</time>
      </trkpt>
      <trkpt lat="43.71907" lon="6.97992">
        <ele>674</ele>
        <time>2012-04-24T11:08:25Z</time>
      </trkpt>
      <trkpt lat="43.7191" lon="6.9799">
        <ele>674</ele>
        <time>2012-04-24T11:08:28Z</time>
      </trkpt>
      <trkpt lat="43.71906" lon="6.97983">
        <ele>671</ele>
        <time>2012-04-24T11:08:32Z</time>
      </trkpt>
      <trkpt lat="43.71904" lon="6.97982">
        <ele>670</ele>
        <time>2012-04-24T11:08:37Z</time>
      </trkpt>
      <trkpt lat="43.71903" lon="6.97984">
        <ele>670</ele>
        <time>2012-04-24T11:08:39Z</time>
      </trkpt>
      <trkpt lat="43.71897" lon="6.97993">
        <ele>669</ele>
        <time>2012-04-24T11:08:45Z</time>
      </trkpt>
      <trkpt lat="43.71897" lon="6.97993">
        <ele>669</ele>
        <time>2012-04-24T11:08:47Z</time>
      </trkpt>
      <trkpt lat="43.71899" lon="6.97984">
        <ele>669</ele>
        <time>2012-04-24T11:08:53Z</time>
      </trkpt>
      <trkpt lat="43.71898" lon="6.97983">
        <ele>669</ele>
        <time>2012-04-24T11:08:57Z</time>
      </trkpt>
      <trkpt lat="43.71898" lon="6.97984">
        <ele>669</ele>
        <time>2012-04-24T11:09:03Z</time>
      </trkpt>
      <trkpt lat="43.71897" lon="6.97984">
        <ele>668</ele>
        <time>2012-04-24T11:09:41Z</time>
      </trkpt>
      <trkpt lat="43.71891" lon="6.97988">
        <ele>666</ele>
        <time>2012-04-24T11:09:45Z</time>
      </trkpt>
      <trkpt lat="43.71889" lon="6.97986">
        <ele>665</ele>
        <time>2012-04-24T11:09:50Z</time>
      </trkpt>
      <trkpt lat="43.71892" lon="6.97981">
        <ele>666</ele>
        <time>2012-04-24T11:09:54Z</time>
      </trkpt>
      <trkpt lat="43.71892" lon="6.97967">
        <ele>666</ele>
        <time>2012-04-24T11:09:59Z</time>
      </trkpt>
      <trkpt lat="43.71891" lon="6.97964">
        <ele>666</ele>
        <time>2012-04-24T11:10:02Z</time>
      </trkpt>
      <trkpt lat="43.71891" lon="6.97961">
        <ele>666</ele>
        <time>2012-04-24T11:10:04Z</time>
      </trkpt>
      <trkpt lat="43.7189" lon="6.97962">
        <ele>666</ele>
        <time>2012-04-24T11:10:06Z</time>
      </trkpt>
      <trkpt lat="43.71887" lon="6.97967">
        <ele>664</ele>
        <time>2012-04-24T11:10:12Z</time>
      </trkpt>
      <trkpt lat="43.71886" lon="6.97968">
        <ele>664</ele>
        <time>2012-04-24T11:10:18Z</time>
      </trkpt>
      <trkpt lat="43.71885" lon="6.97967">
        <ele>664</ele>
        <time>2012-04-24T11:10:23Z</time>
      </trkpt>
      <trkpt lat="43.71883" lon="6.9796">
        <ele>663</ele>
        <time>2012-04-24T11:10:28Z</time>
      </trkpt>
      <trkpt lat="43.71882" lon="6.97962">
        <ele>663</ele>
        <time>2012-04-24T11:10:31Z</time>
      </trkpt>
      <trkpt lat="43.71882" lon="6.97973">
        <ele>662</ele>
        <time>2012-04-24T11:10:37Z</time>
      </trkpt>
      <trkpt lat="43.71881" lon="6.97975">
        <ele>662</ele>
        <time>2012-04-24T11:10:42Z</time>
      </trkpt>
      <trkpt lat="43.7188" lon="6.97973">
        <ele>662</ele>
        <time>2012-04-24T11:10:48Z</time>
      </trkpt>
      <trkpt lat="43.7188" lon="6.97973">
        <ele>662</ele>
        <time>2012-04-24T11:10:52Z</time>
      </trkpt>
      <trkpt lat="43.71879" lon="6.97959">
        <ele>662</ele>
        <time>2012-04-24T11:10:58Z</time>
      </trkpt>
      <trkpt lat="43.71878" lon="6.97956">
        <ele>662</ele>
        <time>2012-04-24T11:11:01Z</time>
      </trkpt>
      <trkpt lat="43.71874" lon="6.97962">
        <ele>660</ele>
        <time>2012-04-24T11:11:06Z</time>
      </trkpt>
      <trkpt lat="43.71873" lon="6.97955">
        <ele>660</ele>
        <time>2012-04-24T11:11:10Z</time>
      </trkpt>
      <trkpt lat="43.71873" lon="6.97936">
        <ele>660</ele>
        <time>2012-04-24T11:11:18Z</time>
      </trkpt>
      <trkpt lat="43.71868" lon="6.9792">
        <ele>657</ele>
        <time>2012-04-24T11:11:23Z</time>
      </trkpt>
      <trkpt lat="43.71862" lon="6.97906">
        <ele>653</ele>
        <time>2012-04-24T11:11:27Z</time>
      </trkpt>
      <trkpt lat="43.71859" lon="6.97906">
        <ele>652</ele>
        <time>2012-04-24T11:11:31Z</time>
      </trkpt>
      <trkpt lat="43.7186" lon="6.97915">
        <ele>652</ele>
        <time>2012-04-24T11:11:35Z</time>
      </trkpt>
      <trkpt lat="43.71858" lon="6.97935">
        <ele>652</ele>
        <time>2012-04-24T11:11:41Z</time>
      </trkpt>
      <trkpt lat="43.71856" lon="6.97949">
        <ele>653</ele>
        <time>2012-04-24T11:11:45Z</time>
      </trkpt>
      <trkpt lat="43.71853" lon="6.97952">
        <ele>653</ele>
        <time>2012-04-24T11:11:48Z</time>
      </trkpt>
      <trkpt lat="43.71852" lon="6.97947">
        <ele>651</ele>
        <time>2012-04-24T11:11:53Z</time>
      </trkpt>
      <trkpt lat="43.71851" lon="6.97947">
        <ele>651</ele>
        <time>2012-04-24T11:11:58Z</time>
      </trkpt>
      <trkpt lat="43.71851" lon="6.97948">
        <ele>651</ele>
        <time>2012-04-24T11:11:59Z</time>
      </trkpt>
      <trkpt lat="43.71847" lon="6.97951">
        <ele>650</ele>
        <time>2012-04-24T11:12:02Z</time>
      </trkpt>
      <trkpt lat="43.71838" lon="6.97961">
        <ele>649</ele>
        <time>2012-04-24T11:12:08Z</time>
      </trkpt>
      <trkpt lat="43.71826" lon="6.97972">
        <ele>609</ele>
        <time>2012-04-24T11:12:13Z</time>
      </trkpt>
      <trkpt lat="43.71823" lon="6.97973">
        <ele>609</ele>
        <time>2012-04-24T11:12:16Z</time>
      </trkpt>
      <trkpt lat="43.71829" lon="6.97962">
        <ele>607</ele>
        <time>2012-04-24T11:12:20Z</time>
      </trkpt>
      <trkpt lat="43.71834" lon="6.97951">
        <ele>648</ele>
        <time>2012-04-24T11:12:23Z</time>
      </trkpt>
      <trkpt lat="43.71835" lon="6.97944">
        <ele>646</ele>
        <time>2012-04-24T11:12:26Z</time>
      </trkpt>
      <trkpt lat="43.71825" lon="6.97953">
        <ele>606</ele>
        <time>2012-04-24T11:12:31Z</time>
      </trkpt>
      <trkpt lat="43.71813" lon="6.97959">
        <ele>603</ele>
        <time>2012-04-24T11:12:35Z</time>
      </trkpt>
      <trkpt lat="43.71801" lon="6.97974">
        <ele>599</ele>
        <time>2012-04-24T11:12:40Z</time>
      </trkpt>
      <trkpt lat="43.71792" lon="6.97981">
        <ele>596</ele>
        <time>2012-04-24T11:12:43Z</time>
      </trkpt>
      <trkpt lat="43.7179" lon="6.97982">
        <ele>595</ele>
        <time>2012-04-24T11:12:45Z</time>
      </trkpt>
      <trkpt lat="43.71792" lon="6.97973">
        <ele>596</ele>
        <time>2012-04-24T11:12:50Z</time>
      </trkpt>
      <trkpt lat="43.71794" lon="6.97971">
        <ele>596</ele>
        <time>2012-04-24T11:12:51Z</time>
      </trkpt>
      <trkpt lat="43.71801" lon="6.9796">
        <ele>598</ele>
        <time>2012-04-24T11:12:55Z</time>
      </trkpt>
      <trkpt lat="43.71801" lon="6.97956">
        <ele>598</ele>
        <time>2012-04-24T11:12:58Z</time>
      </trkpt>
      <trkpt lat="43.71793" lon="6.97962">
        <ele>595</ele>
        <time>2012-04-24T11:13:03Z</time>
      </trkpt>
      <trkpt lat="43.7179" lon="6.97961">
        <ele>594</ele>
        <time>2012-04-24T11:13:07Z</time>
      </trkpt>
      <trkpt lat="43.71798" lon="6.9795">
        <ele>596</ele>
        <time>2012-04-24T11:13:12Z</time>
      </trkpt>
      <trkpt lat="43.718" lon="6.97947">
        <ele>597</ele>
        <time>2012-04-24T11:13:13Z</time>
      </trkpt>
      <trkpt lat="43.718" lon="6.97943">
        <ele>597</ele>
        <time>2012-04-24T11:13:17Z</time>
      </trkpt>
      <trkpt lat="43.7179" lon="6.97951">
        <ele>593</ele>
        <time>2012-04-24T11:13:22Z</time>
      </trkpt>
      <trkpt lat="43.71785" lon="6.97953">
        <ele>591</ele>
        <time>2012-04-24T11:13:24Z</time>
      </trkpt>
      <trkpt lat="43.71782" lon="6.97953">
        <ele>590</ele>
        <time>2012-04-24T11:13:26Z</time>
      </trkpt>
      <trkpt lat="43.71789" lon="6.97943">
        <ele>592</ele>
        <time>2012-04-24T11:13:31Z</time>
      </trkpt>
      <trkpt lat="43.71792" lon="6.97938">
        <ele>593</ele>
        <time>2012-04-24T11:13:33Z</time>
      </trkpt>
      <trkpt lat="43.71793" lon="6.97935">
        <ele>594</ele>
        <time>2012-04-24T11:13:36Z</time>
      </trkpt>
      <trkpt lat="43.71788" lon="6.97937">
        <ele>591</ele>
        <time>2012-04-24T11:13:41Z</time>
      </trkpt>
      <trkpt lat="43.71785" lon="6.97939">
        <ele>589</ele>
        <time>2012-04-24T11:13:43Z</time>
      </trkpt>
      <trkpt lat="43.71781" lon="6.97939">
        <ele>588</ele>
        <time>2012-04-24T11:13:48Z</time>
      </trkpt>
      <trkpt lat="43.71782" lon="6.97936">
        <ele>588</ele>
        <time>2012-04-24T11:13:53Z</time>
      </trkpt>
      <trkpt lat="43.71782" lon="6.97936">
        <ele>587</ele>
        <time>2012-04-24T11:13:57Z</time>
      </trkpt>
      <trkpt lat="43.71789" lon="6.97925">
        <ele>591</ele>
        <time>2012-04-24T11:14:03Z</time>
      </trkpt>
      <trkpt lat="43.71785" lon="6.97926">
        <ele>588</ele>
        <time>2012-04-24T11:14:06Z</time>
      </trkpt>
      <trkpt lat="43.71776" lon="6.97931">
        <ele>583</ele>
        <time>2012-04-24T11:14:10Z</time>
      </trkpt>
      <trkpt lat="43.71769" lon="6.97936">
        <ele>581</ele>
        <time>2012-04-24T11:14:13Z</time>
      </trkpt>
      <trkpt lat="43.71764" lon="6.97939">
        <ele>579</ele>
        <time>2012-04-24T11:14:15Z</time>
      </trkpt>
      <trkpt lat="43.71756" lon="6.97939">
        <ele>577</ele>
        <time>2012-04-24T11:14:19Z</time>
      </trkpt>
      <trkpt lat="43.71759" lon="6.97933">
        <ele>574</ele>
        <time>2012-04-24T11:14:23Z</time>
      </trkpt>
      <trkpt lat="43.71772" lon="6.97919">
        <ele>578</ele>
        <time>2012-04-24T11:14:28Z</time>
      </trkpt>
      <trkpt lat="43.71776" lon="6.97899">
        <ele>579</ele>
        <time>2012-04-24T11:14:33Z</time>
      </trkpt>
      <trkpt lat="43.71776" lon="6.97895">
        <ele>580</ele>
        <time>2012-04-24T11:14:34Z</time>
      </trkpt>
      <trkpt lat="43.71775" lon="6.9789">
        <ele>580</ele>
        <time>2012-04-24T11:14:37Z</time>
      </trkpt>
      <trkpt lat="43.71769" lon="6.97904">
        <ele>574</ele>
        <time>2012-04-24T11:14:42Z</time>
      </trkpt>
      <trkpt lat="43.71768" lon="6.97908">
        <ele>572</ele>
        <time>2012-04-24T11:14:43Z</time>
      </trkpt>
      <trkpt lat="43.71758" lon="6.97915">
        <ele>563</ele>
        <time>2012-04-24T11:14:47Z</time>
      </trkpt>
      <trkpt lat="43.71757" lon="6.97914">
        <ele>562</ele>
        <time>2012-04-24T11:14:48Z</time>
      </trkpt>
      <trkpt lat="43.71761" lon="6.97901">
        <ele>571</ele>
        <time>2012-04-24T11:14:52Z</time>
      </trkpt>
      <trkpt lat="43.71759" lon="6.97881">
        <ele>575</ele>
        <time>2012-04-24T11:14:56Z</time>
      </trkpt>
      <trkpt lat="43.71755" lon="6.97868">
        <ele>574</ele>
        <time>2012-04-24T11:15:00Z</time>
      </trkpt>
      <trkpt lat="43.71744" lon="6.9786">
        <ele>532</ele>
        <time>2012-04-24T11:15:04Z</time>
      </trkpt>
      <trkpt lat="43.71739" lon="6.97854">
        <ele>532</ele>
        <time>2012-04-24T11:15:08Z</time>
      </trkpt>
      <trkpt lat="43.71737" lon="6.97842">
        <ele>535</ele>
        <time>2012-04-24T11:15:11Z</time>
      </trkpt>
      <trkpt lat="43.71732" lon="6.97819">
        <ele>529</ele>
        <time>2012-04-24T11:15:17Z</time>
      </trkpt>
      <trkpt lat="43.71722" lon="6.97811">
        <ele>522</ele>
        <time>2012-04-24T11:15:23Z</time>
      </trkpt>
      <trkpt lat="43.71711" lon="6.97802">
        <ele>516</ele>
        <time>2012-04-24T11:15:29Z</time>
      </trkpt>
      <trkpt lat="43.71709" lon="6.97799">
        <ele>515</ele>
        <time>2012-04-24T11:15:34Z</time>
      </trkpt>
      <trkpt lat="43.71706" lon="6.97793">
        <ele>514</ele>
        <time>2012-04-24T11:15:44Z</time>
      </trkpt>
      <trkpt lat="43.71705" lon="6.97792">
        <ele>513</ele>
        <time>2012-04-24T11:15:45Z</time>
      </trkpt>
      <trkpt lat="43.71703" lon="6.97791">
        <ele>512</ele>
        <time>2012-04-24T11:15:47Z</time>
      </trkpt>
      <trkpt lat="43.71703" lon="6.97801">
        <ele>512</ele>
        <time>2012-04-24T11:15:52Z</time>
      </trkpt>
      <trkpt lat="43.7171" lon="6.97811">
        <ele>516</ele>
        <time>2012-04-24T11:15:55Z</time>
      </trkpt>
      <trkpt lat="43.71721" lon="6.9783">
        <ele>523</ele>
        <time>2012-04-24T11:16:00Z</time>
      </trkpt>
      <trkpt lat="43.71722" lon="6.97848">
        <ele>525</ele>
        <time>2012-04-24T11:16:04Z</time>
      </trkpt>
      <trkpt lat="43.71724" lon="6.97865">
        <ele>524</ele>
        <time>2012-04-24T11:16:07Z</time>
      </trkpt>
      <trkpt lat="43.71716" lon="6.97876">
        <ele>521</ele>
        <time>2012-04-24T11:16:12Z</time>
      </trkpt>
      <trkpt lat="43.71713" lon="6.97883">
        <ele>520</ele>
        <time>2012-04-24T11:16:14Z</time>
      </trkpt>
      <trkpt lat="43.71709" lon="6.97886">
        <ele>518</ele>
        <time>2012-04-24T11:16:18Z</time>
      </trkpt>
      <trkpt lat="43.71713" lon="6.97872">
        <ele>520</ele>
        <time>2012-04-24T11:16:24Z</time>
      </trkpt>
      <trkpt lat="43.71709" lon="6.97853">
        <ele>518</ele>
        <time>2012-04-24T11:16:29Z</time>
      </trkpt>
      <trkpt lat="43.71709" lon="6.97849">
        <ele>518</ele>
        <time>2012-04-24T11:16:34Z</time>
      </trkpt>
      <trkpt lat="43.71711" lon="6.97846">
        <ele>519</ele>
        <time>2012-04-24T11:16:41Z</time>
      </trkpt>
      <trkpt lat="43.71709" lon="6.97845">
        <ele>518</ele>
        <time>2012-04-24T11:16:43Z</time>
      </trkpt>
      <trkpt lat="43.71704" lon="6.97835">
        <ele>515</ele>
        <time>2012-04-24T11:16:49Z</time>
      </trkpt>
      <trkpt lat="43.71702" lon="6.97833">
        <ele>512</ele>
        <time>2012-04-24T11:16:51Z</time>
      </trkpt>
      <trkpt lat="43.717" lon="6.97835">
        <ele>512</ele>
        <time>2012-04-24T11:16:56Z</time>
      </trkpt>
      <trkpt lat="43.717" lon="6.97838">
        <ele>512</ele>
        <time>2012-04-24T11:17:01Z</time>
      </trkpt>
      <trkpt lat="43.717" lon="6.97838">
        <ele>512</ele>
        <time>2012-04-24T11:17:02Z</time>
      </trkpt>
      <trkpt lat="43.71703" lon="6.97851">
        <ele>515</ele>
        <time>2012-04-24T11:17:07Z</time>
      </trkpt>
      <trkpt lat="43.71705" lon="6.97864">
        <ele>516</ele>
        <time>2012-04-24T11:17:12Z</time>
      </trkpt>
      <trkpt lat="43.71698" lon="6.97877">
        <ele>514</ele>
        <time>2012-04-24T11:17:18Z</time>
      </trkpt>
      <trkpt lat="43.71698" lon="6.97881">
        <ele>513</ele>
        <time>2012-04-24T11:17:20Z</time>
      </trkpt>
      <trkpt lat="43.71691" lon="6.97896">
        <ele>509</ele>
        <time>2012-04-24T11:17:26Z</time>
      </trkpt>
      <trkpt lat="43.71685" lon="6.97904">
        <ele>505</ele>
        <time>2012-04-24T11:17:29Z</time>
      </trkpt>
      <trkpt lat="43.7168" lon="6.97915">
        <ele>499</ele>
        <time>2012-04-24T11:17:33Z</time>
      </trkpt>
      <trkpt lat="43.71677" lon="6.97927">
        <ele>502</ele>
        <time>2012-04-24T11:17:38Z</time>
      </trkpt>
      <trkpt lat="43.71673" lon="6.97935">
        <ele>504</ele>
        <time>2012-04-24T11:17:41Z</time>
      </trkpt>
      <trkpt lat="43.71669" lon="6.97939">
        <ele>505</ele>
        <time>2012-04-24T11:17:44Z</time>
      </trkpt>
      <trkpt lat="43.71667" lon="6.97926">
        <ele>496</ele>
        <time>2012-04-24T11:17:50Z</time>
      </trkpt>
      <trkpt lat="43.71669" lon="6.97918">
        <ele>488</ele>
        <time>2012-04-24T11:17:53Z</time>
      </trkpt>
      <trkpt lat="43.71668" lon="6.97899">
        <ele>500</ele>
        <time>2012-04-24T11:17:59Z</time>
      </trkpt>
      <trkpt lat="43.71668" lon="6.9789">
        <ele>503</ele>
        <time>2012-04-24T11:18:02Z</time>
      </trkpt>
      <trkpt lat="43.71667" lon="6.97886">
        <ele>504</ele>
        <time>2012-04-24T11:18:07Z</time>
      </trkpt>
      <trkpt lat="43.71666" lon="6.97887">
        <ele>466</ele>
        <time>2012-04-24T11:18:15Z</time>
      </trkpt>
      <trkpt lat="43.71666" lon="6.97889">
        <ele>466</ele>
        <time>2012-04-24T11:18:22Z</time>
      </trkpt>
      <trkpt lat="43.71666" lon="6.97889">
        <ele>466</ele>
        <time>2012-04-24T11:18:31Z</time>
      </trkpt>
      <trkpt lat="43.71666" lon="6.97891">
        <ele>467</ele>
        <time>2012-04-24T11:18:36Z</time>
      </trkpt>
      <trkpt lat="43.71664" lon="6.97895">
        <ele>468</ele>
        <time>2012-04-24T11:18:42Z</time>
      </trkpt>
      <trkpt lat="43.71663" lon="6.97896">
        <ele>468</ele>
        <time>2012-04-24T11:18:49Z</time>
      </trkpt>
      <trkpt lat="43.71663" lon="6.97896">
        <ele>468</ele>
        <time>2012-04-24T11:18:50Z</time>
      </trkpt>
      <trkpt lat="43.71662" lon="6.97901">
        <ele>470</ele>
        <time>2012-04-24T11:18:53Z</time>
      </trkpt>
      <trkpt lat="43.7166" lon="6.97902">
        <ele>470</ele>
        <time>2012-04-24T11:18:58Z</time>
      </trkpt>
      <trkpt lat="43.71659" lon="6.97901">
        <ele>469</ele>
        <time>2012-04-24T11:19:05Z</time>
      </trkpt>
      <trkpt lat="43.71659" lon="6.979">
        <ele>469</ele>
        <time>2012-04-24T11:19:07Z</time>
      </trkpt>
      <trkpt lat="43.71659" lon="6.97896">
        <ele>467</ele>
        <time>2012-04-24T11:19:11Z</time>
      </trkpt>
      <trkpt lat="43.71658" lon="6.97897">
        <ele>467</ele>
        <time>2012-04-24T11:19:17Z</time>
      </trkpt>
      <trkpt lat="43.71658" lon="6.97898">
        <ele>467</ele>
        <time>2012-04-24T11:19:26Z</time>
      </trkpt>
      <trkpt lat="43.71655" lon="6.97907">
        <ele>469</ele>
        <time>2012-04-24T11:19:32Z</time>
      </trkpt>
      <trkpt lat="43.71651" lon="6.97915">
        <ele>469</ele>
        <time>2012-04-24T11:19:35Z</time>
      </trkpt>
      <trkpt lat="43.71646" lon="6.97929">
        <ele>467</ele>
        <time>2012-04-24T11:19:40Z</time>
      </trkpt>
      <trkpt lat="43.71645" lon="6.9793">
        <ele>466</ele>
        <time>2012-04-24T11:19:41Z</time>
      </trkpt>
      <trkpt lat="43.71641" lon="6.97943">
        <ele>464</ele>
        <time>2012-04-24T11:19:46Z</time>
      </trkpt>
      <trkpt lat="43.71639" lon="6.97952">
        <ele>463</ele>
        <time>2012-04-24T11:19:53Z</time>
      </trkpt>
      <trkpt lat="43.71633" lon="6.97966">
        <ele>461</ele>
        <time>2012-04-24T11:19:57Z</time>
      </trkpt>
      <trkpt lat="43.71628" lon="6.97987">
        <ele>461</ele>
        <time>2012-04-24T11:20:02Z</time>
      </trkpt>
      <trkpt lat="43.71625" lon="6.98">
        <ele>460</ele>
        <time>2012-04-24T11:20:06Z</time>
      </trkpt>
      <trkpt lat="43.71623" lon="6.9801">
        <ele>461</ele>
        <time>2012-04-24T11:20:09Z</time>
      </trkpt>
      <trkpt lat="43.7162" lon="6.98013">
        <ele>459</ele>
        <time>2012-04-24T11:20:14Z</time>
      </trkpt>
      <trkpt lat="43.71619" lon="6.98011">
        <ele>459</ele>
        <time>2012-04-24T11:20:20Z</time>
      </trkpt>
      <trkpt lat="43.71617" lon="6.97997">
        <ele>456</ele>
        <time>2012-04-24T11:20:25Z</time>
      </trkpt>
      <trkpt lat="43.71615" lon="6.97997">
        <ele>454</ele>
        <time>2012-04-24T11:20:28Z</time>
      </trkpt>
      <trkpt lat="43.71614" lon="6.98006">
        <ele>456</ele>
        <time>2012-04-24T11:20:32Z</time>
      </trkpt>
      <trkpt lat="43.71609" lon="6.98024">
        <ele>455</ele>
        <time>2012-04-24T11:20:37Z</time>
      </trkpt>
      <trkpt lat="43.71606" lon="6.98042">
        <ele>455</ele>
        <time>2012-04-24T11:20:42Z</time>
      </trkpt>
      <trkpt lat="43.71605" lon="6.98041">
        <ele>455</ele>
        <time>2012-04-24T11:20:45Z</time>
      </trkpt>
      <trkpt lat="43.71601" lon="6.98025">
        <ele>452</ele>
        <time>2012-04-24T11:20:51Z</time>
      </trkpt>
      <trkpt lat="43.71599" lon="6.98011">
        <ele>448</ele>
        <time>2012-04-24T11:20:55Z</time>
      </trkpt>
      <trkpt lat="43.71595" lon="6.98013">
        <ele>447</ele>
        <time>2012-04-24T11:21:00Z</time>
      </trkpt>
      <trkpt lat="43.71593" lon="6.98016">
        <ele>447</ele>
        <time>2012-04-24T11:21:01Z</time>
      </trkpt>
      <trkpt lat="43.71583" lon="6.98039">
        <ele>415</ele>
        <time>2012-04-24T11:21:08Z</time>
      </trkpt>
      <trkpt lat="43.71582" lon="6.98052">
        <ele>416</ele>
        <time>2012-04-24T11:21:13Z</time>
      </trkpt>
      <trkpt lat="43.71581" lon="6.98056">
        <ele>416</ele>
        <time>2012-04-24T11:21:18Z</time>
      </trkpt>
      <trkpt lat="43.7158" lon="6.98059">
        <ele>417</ele>
        <time>2012-04-24T11:21:34Z</time>
      </trkpt>
      <trkpt lat="43.71581" lon="6.98075">
        <ele>424</ele>
        <time>2012-04-24T11:21:40Z</time>
      </trkpt>
      <trkpt lat="43.71581" lon="6.98093">
        <ele>422</ele>
        <time>2012-04-24T11:21:45Z</time>
      </trkpt>
      <trkpt lat="43.71582" lon="6.98111">
        <ele>413</ele>
        <time>2012-04-24T11:21:50Z</time>
      </trkpt>
      <trkpt lat="43.71579" lon="6.98131">
        <ele>410</ele>
        <time>2012-04-24T11:21:55Z</time>
      </trkpt>
      <trkpt lat="43.71577" lon="6.98157">
        <ele>414</ele>
        <time>2012-04-24T11:22:01Z</time>
      </trkpt>
      <trkpt lat="43.71576" lon="6.98162">
        <ele>416</ele>
        <time>2012-04-24T11:22:03Z</time>
      </trkpt>
      <trkpt lat="43.71577" lon="6.98172">
        <ele>412</ele>
        <time>2012-04-24T11:22:07Z</time>
      </trkpt>
      <trkpt lat="43.71575" lon="6.98177">
        <ele>408</ele>
        <time>2012-04-24T11:22:09Z</time>
      </trkpt>
      <trkpt lat="43.71568" lon="6.98162">
        <ele>411</ele>
        <time>2012-04-24T11:22:16Z</time>
      </trkpt>
      <trkpt lat="43.71564" lon="6.98149">
        <ele>407</ele>
        <time>2012-04-24T11:22:20Z</time>
      </trkpt>
      <trkpt lat="43.71557" lon="6.98139">
        <ele>405</ele>
        <time>2012-04-24T11:22:24Z</time>
      </trkpt>
      <trkpt lat="43.71554" lon="6.98137">
        <ele>404</ele>
        <time>2012-04-24T11:22:26Z</time>
      </trkpt>
      <trkpt lat="43.71553" lon="6.9815">
        <ele>404</ele>
        <time>2012-04-24T11:22:31Z</time>
      </trkpt>
      <trkpt lat="43.71554" lon="6.98168">
        <ele>396</ele>
        <time>2012-04-24T11:22:35Z</time>
      </trkpt>
      <trkpt lat="43.71553" lon="6.98183">
        <ele>394</ele>
        <time>2012-04-24T11:22:40Z</time>
      </trkpt>
      <trkpt lat="43.71552" lon="6.98196">
        <ele>392</ele>
        <time>2012-04-24T11:22:44Z</time>
      </trkpt>
      <trkpt lat="43.71557" lon="6.98209">
        <ele>391</ele>
        <time>2012-04-24T11:22:48Z</time>
      </trkpt>
      <trkpt lat="43.71566" lon="6.98232">
        <ele>393</ele>
        <time>2012-04-24T11:22:54Z</time>
      </trkpt>
      <trkpt lat="43.71571" lon="6.98249">
        <ele>396</ele>
        <time>2012-04-24T11:22:59Z</time>
      </trkpt>
      <trkpt lat="43.71575" lon="6.98262">
        <ele>387</ele>
        <time>2012-04-24T11:23:03Z</time>
      </trkpt>
      <trkpt lat="43.71579" lon="6.98284">
        <ele>378</ele>
        <time>2012-04-24T11:23:10Z</time>
      </trkpt>
      <trkpt lat="43.71581" lon="6.98298">
        <ele>376</ele>
        <time>2012-04-24T11:23:15Z</time>
      </trkpt>
      <trkpt lat="43.71582" lon="6.98315">
        <ele>376</ele>
        <time>2012-04-24T11:23:19Z</time>
      </trkpt>
      <trkpt lat="43.71583" lon="6.9833">
        <ele>379</ele>
        <time>2012-04-24T11:23:22Z</time>
      </trkpt>
      <trkpt lat="43.71587" lon="6.9835">
        <ele>384</ele>
        <time>2012-04-24T11:23:28Z</time>
      </trkpt>
      <trkpt lat="43.71588" lon="6.98373">
        <ele>383</ele>
        <time>2012-04-24T11:23:34Z</time>
      </trkpt>
      <trkpt lat="43.71589" lon="6.98386">
        <ele>381</ele>
        <time>2012-04-24T11:23:38Z</time>
      </trkpt>
      <trkpt lat="43.71595" lon="6.98413">
        <ele>374</ele>
        <time>2012-04-24T11:23:44Z</time>
      </trkpt>
      <trkpt lat="43.71599" lon="6.98431">
        <ele>366</ele>
        <time>2012-04-24T11:23:48Z</time>
      </trkpt>
      <trkpt lat="43.71604" lon="6.9845">
        <ele>365</ele>
        <time>2012-04-24T11:23:52Z</time>
      </trkpt>
      <trkpt lat="43.71597" lon="6.98464">
        <ele>363</ele>
        <time>2012-04-24T11:23:56Z</time>
      </trkpt>
      <trkpt lat="43.71591" lon="6.98471">
        <ele>361</ele>
        <time>2012-04-24T11:23:58Z</time>
      </trkpt>
      <trkpt lat="43.71579" lon="6.98484">
        <ele>343</ele>
        <time>2012-04-24T11:24:03Z</time>
      </trkpt>
      <trkpt lat="43.71569" lon="6.98493">
        <ele>343</ele>
        <time>2012-04-24T11:24:07Z</time>
      </trkpt>
      <trkpt lat="43.71568" lon="6.98495">
        <ele>342</ele>
        <time>2012-04-24T11:24:08Z</time>
      </trkpt>
      <trkpt lat="43.71557" lon="6.98488">
        <ele>340</ele>
        <time>2012-04-24T11:24:13Z</time>
      </trkpt>
      <trkpt lat="43.71552" lon="6.98483">
        <ele>339</ele>
        <time>2012-04-24T11:24:15Z</time>
      </trkpt>
      <trkpt lat="43.71549" lon="6.98479">
        <ele>338</ele>
        <time>2012-04-24T11:24:17Z</time>
      </trkpt>
      <trkpt lat="43.71547" lon="6.98487">
        <ele>337</ele>
        <time>2012-04-24T11:24:21Z</time>
      </trkpt>
      <trkpt lat="43.71544" lon="6.98505">
        <ele>325</ele>
        <time>2012-04-24T11:24:26Z</time>
      </trkpt>
      <trkpt lat="43.71539" lon="6.98506">
        <ele>324</ele>
        <time>2012-04-24T11:24:30Z</time>
      </trkpt>
      <trkpt lat="43.71539" lon="6.98505">
        <ele>324</ele>
        <time>2012-04-24T11:24:31Z</time>
      </trkpt>
      <trkpt lat="43.71535" lon="6.98508">
        <ele>323</ele>
        <time>2012-04-24T11:24:36Z</time>
      </trkpt>
      <trkpt lat="43.71535" lon="6.98513">
        <ele>323</ele>
        <time>2012-04-24T11:24:38Z</time>
      </trkpt>
      <trkpt lat="43.71534" lon="6.98536">
        <ele>321</ele>
        <time>2012-04-24T11:24:45Z</time>
      </trkpt>
      <trkpt lat="43.71535" lon="6.98558">
        <ele>318</ele>
        <time>2012-04-24T11:24:50Z</time>
      </trkpt>
      <trkpt lat="43.71537" lon="6.98579">
        <ele>317</ele>
        <time>2012-04-24T11:24:55Z</time>
      </trkpt>
      <trkpt lat="43.71543" lon="6.986">
        <ele>299</ele>
        <time>2012-04-24T11:25:00Z</time>
      </trkpt>
      <trkpt lat="43.71554" lon="6.98616">
        <ele>298</ele>
        <time>2012-04-24T11:25:05Z</time>
      </trkpt>
      <trkpt lat="43.71559" lon="6.98617">
        <ele>299</ele>
        <time>2012-04-24T11:25:07Z</time>
      </trkpt>
      <trkpt lat="43.7156" lon="6.98622">
        <ele>297</ele>
        <time>2012-04-24T11:25:10Z</time>
      </trkpt>
      <trkpt lat="43.71547" lon="6.98629">
        <ele>294</ele>
        <time>2012-04-24T11:25:15Z</time>
      </trkpt>
      <trkpt lat="43.71544" lon="6.98632">
        <ele>293</ele>
        <time>2012-04-24T11:25:18Z</time>
      </trkpt>
      <trkpt lat="43.71546" lon="6.98629">
        <ele>294</ele>
        <time>2012-04-24T11:25:33Z</time>
      </trkpt>
      <trkpt lat="43.71541" lon="6.98633">
        <ele>293</ele>
        <time>2012-04-24T11:25:47Z</time>
      </trkpt>
      <trkpt lat="43.71533" lon="6.98632">
        <ele>292</ele>
        <time>2012-04-24T11:25:52Z</time>
      </trkpt>
      <trkpt lat="43.7152" lon="6.98628">
        <ele>292</ele>
        <time>2012-04-24T11:25:57Z</time>
      </trkpt>
      <trkpt lat="43.71504" lon="6.98623">
        <ele>292</ele>
        <time>2012-04-24T11:26:02Z</time>
      </trkpt>
      <trkpt lat="43.7149" lon="6.98618">
        <ele>277</ele>
        <time>2012-04-24T11:26:07Z</time>
      </trkpt>
      <trkpt lat="43.71472" lon="6.98616">
        <ele>274</ele>
        <time>2012-04-24T11:26:12Z</time>
      </trkpt>
      <trkpt lat="43.71458" lon="6.9862">
        <ele>270</ele>
        <time>2012-04-24T11:26:16Z</time>
      </trkpt>
      <trkpt lat="43.71447" lon="6.98628">
        <ele>267</ele>
        <time>2012-04-24T11:26:21Z</time>
      </trkpt>
      <trkpt lat="43.71447" lon="6.98629">
        <ele>267</ele>
        <time>2012-04-24T11:26:22Z</time>
      </trkpt>
      <trkpt lat="43.71447" lon="6.98633">
        <ele>267</ele>
        <time>2012-04-24T11:26:24Z</time>
      </trkpt>
      <trkpt lat="43.71438" lon="6.98645">
        <ele>263</ele>
        <time>2012-04-24T11:26:29Z</time>
      </trkpt>
      <trkpt lat="43.71434" lon="6.98657">
        <ele>260</ele>
        <time>2012-04-24T11:26:34Z</time>
      </trkpt>
      <trkpt lat="43.71436" lon="6.9867">
        <ele>250</ele>
        <time>2012-04-24T11:26:37Z</time>
      </trkpt>
      <trkpt lat="43.71442" lon="6.98687">
        <ele>250</ele>
        <time>2012-04-24T11:26:41Z</time>
      </trkpt>
      <trkpt lat="43.7144" lon="6.98694">
        <ele>249</ele>
        <time>2012-04-24T11:26:46Z</time>
      </trkpt>
      <trkpt lat="43.71441" lon="6.98696">
        <ele>249</ele>
        <time>2012-04-24T11:26:58Z</time>
      </trkpt>
      <trkpt lat="43.71446" lon="6.98706">
        <ele>248</ele>
        <time>2012-04-24T11:27:03Z</time>
      </trkpt>
      <trkpt lat="43.7146" lon="6.98723">
        <ele>248</ele>
        <time>2012-04-24T11:27:09Z</time>
      </trkpt>
      <trkpt lat="43.71479" lon="6.98739">
        <ele>248</ele>
        <time>2012-04-24T11:27:16Z</time>
      </trkpt>
      <trkpt lat="43.7149" lon="6.98747">
        <ele>248</ele>
        <time>2012-04-24T11:27:22Z</time>
      </trkpt>
      <trkpt lat="43.71492" lon="6.98748">
        <ele>248</ele>
        <time>2012-04-24T11:27:26Z</time>
      </trkpt>
      <trkpt lat="43.7149" lon="6.98746">
        <ele>248</ele>
        <time>2012-04-24T11:27:31Z</time>
      </trkpt>
      <trkpt lat="43.71489" lon="6.98746">
        <ele>248</ele>
        <time>2012-04-24T11:27:38Z</time>
      </trkpt>
      <trkpt lat="43.71491" lon="6.98745">
        <ele>248</ele>
        <time>2012-04-24T11:28:26Z</time>
      </trkpt>
      <trkpt lat="43.71501" lon="6.98752">
        <ele>247</ele>
        <time>2012-04-24T11:28:33Z</time>
      </trkpt>
      <trkpt lat="43.71511" lon="6.98759">
        <ele>245</ele>
        <time>2012-04-24T11:28:38Z</time>
      </trkpt>
      <trkpt lat="43.71505" lon="6.98764">
        <ele>245</ele>
        <time>2012-04-24T11:28:41Z</time>
      </trkpt>
      <trkpt lat="43.71495" lon="6.98765">
        <ele>239</ele>
        <time>2012-04-24T11:28:45Z</time>
      </trkpt>
      <trkpt lat="43.71494" lon="6.98768">
        <ele>238</ele>
        <time>2012-04-24T11:28:46Z</time>
      </trkpt>
      <trkpt lat="43.71488" lon="6.98791">
        <ele>231</ele>
        <time>2012-04-24T11:28:52Z</time>
      </trkpt>
      <trkpt lat="43.71479" lon="6.98826">
        <ele>226</ele>
        <time>2012-04-24T11:28:57Z</time>
      </trkpt>
      <trkpt lat="43.71476" lon="6.98838">
        <ele>216</ele>
        <time>2012-04-24T11:28:59Z</time>
      </trkpt>
      <trkpt lat="43.71461" lon="6.98867">
        <ele>211</ele>
        <time>2012-04-24T11:29:04Z</time>
      </trkpt>
      <trkpt lat="43.71455" lon="6.98881">
        <ele>210</ele>
        <time>2012-04-24T11:29:08Z</time>
      </trkpt>
      <trkpt lat="43.71451" lon="6.98889">
        <ele>209</ele>
        <time>2012-04-24T11:29:11Z</time>
      </trkpt>
      <trkpt lat="43.71455" lon="6.98895">
        <ele>208</ele>
        <time>2012-04-24T11:29:16Z</time>
      </trkpt>
      <trkpt lat="43.71456" lon="6.98896">
        <ele>208</ele>
        <time>2012-04-24T11:29:20Z</time>
      </trkpt>
      <trkpt lat="43.71456" lon="6.98897">
        <ele>208</ele>
        <time>2012-04-24T11:29:48Z</time>
      </trkpt>
      <trkpt lat="43.71456" lon="6.98897">
        <ele>208</ele>
        <time>2012-04-24T11:29:49Z</time>
      </trkpt>
      <trkpt lat="43.71452" lon="6.989">
        <ele>208</ele>
        <time>2012-04-24T11:29:53Z</time>
      </trkpt>
      <trkpt lat="43.7143" lon="6.9889">
        <ele>208</ele>
        <time>2012-04-24T11:30:02Z</time>
      </trkpt>
      <trkpt lat="43.71418" lon="6.9887">
        <ele>210</ele>
        <time>2012-04-24T11:30:09Z</time>
      </trkpt>
      <trkpt lat="43.71414" lon="6.9885">
        <ele>206</ele>
        <time>2012-04-24T11:30:15Z</time>
      </trkpt>
      <trkpt lat="43.71413" lon="6.98819">
        <ele>213</ele>
        <time>2012-04-24T11:30:23Z</time>
      </trkpt>
      <trkpt lat="43.71406" lon="6.98791">
        <ele>214</ele>
        <time>2012-04-24T11:30:31Z</time>
      </trkpt>
      <trkpt lat="43.71393" lon="6.98763">
        <ele>216</ele>
        <time>2012-04-24T11:30:40Z</time>
      </trkpt>
      <trkpt lat="43.71382" lon="6.98744">
        <ele>225</ele>
        <time>2012-04-24T11:30:47Z</time>
      </trkpt>
      <trkpt lat="43.71368" lon="6.98721">
        <ele>224</ele>
        <time>2012-04-24T11:30:55Z</time>
      </trkpt>
      <trkpt lat="43.71356" lon="6.98701">
        <ele>224</ele>
        <time>2012-04-24T11:31:02Z</time>
      </trkpt>
      <trkpt lat="43.7135" lon="6.98685">
        <ele>225</ele>
        <time>2012-04-24T11:31:07Z</time>
      </trkpt>
      <trkpt lat="43.71347" lon="6.98664">
        <ele>229</ele>
        <time>2012-04-24T11:31:12Z</time>
      </trkpt>
      <trkpt lat="43.71341" lon="6.98638">
        <ele>233</ele>
        <time>2012-04-24T11:31:18Z</time>
      </trkpt>
      <trkpt lat="43.71337" lon="6.98616">
        <ele>235</ele>
        <time>2012-04-24T11:31:23Z</time>
      </trkpt>
      <trkpt lat="43.7133" lon="6.98581">
        <ele>231</ele>
        <time>2012-04-24T11:31:31Z</time>
      </trkpt>
      <trkpt lat="43.7132" lon="6.98543">
        <ele>239</ele>
        <time>2012-04-24T11:31:39Z</time>
      </trkpt>
      <trkpt lat="43.71304" lon="6.98527">
        <ele>241</ele>
        <time>2012-04-24T11:31:45Z</time>
      </trkpt>
      <trkpt lat="43.71289" lon="6.98525">
        <ele>241</ele>
        <time>2012-04-24T11:31:49Z</time>
      </trkpt>
      <trkpt lat="43.71266" lon="6.98541">
        <ele>239</ele>
        <time>2012-04-24T11:31:56Z</time>
      </trkpt>
      <trkpt lat="43.71261" lon="6.98558">
        <ele>238</ele>
        <time>2012-04-24T11:32:00Z</time>
      </trkpt>
      <trkpt lat="43.71262" lon="6.98592">
        <ele>231</ele>
        <time>2012-04-24T11:32:07Z</time>
      </trkpt>
      <trkpt lat="43.7126" lon="6.98617">
        <ele>229</ele>
        <time>2012-04-24T11:32:13Z</time>
      </trkpt>
      <trkpt lat="43.71253" lon="6.98645">
        <ele>228</ele>
        <time>2012-04-24T11:32:20Z</time>
      </trkpt>
      <trkpt lat="43.71246" lon="6.9867">
        <ele>229</ele>
        <time>2012-04-24T11:32:26Z</time>
      </trkpt>
      <trkpt lat="43.71237" lon="6.98694">
        <ele>231</ele>
        <time>2012-04-24T11:32:32Z</time>
      </trkpt>
      <trkpt lat="43.71231" lon="6.98707">
        <ele>231</ele>
        <time>2012-04-24T11:32:36Z</time>
      </trkpt>
      <trkpt lat="43.7122" lon="6.98722">
        <ele>231</ele>
        <time>2012-04-24T11:32:41Z</time>
      </trkpt>
      <trkpt lat="43.71204" lon="6.98742">
        <ele>233</ele>
        <time>2012-04-24T11:32:48Z</time>
      </trkpt>
      <trkpt lat="43.71195" lon="6.98757">
        <ele>229</ele>
        <time>2012-04-24T11:32:54Z</time>
      </trkpt>
      <trkpt lat="43.71188" lon="6.98781">
        <ele>229</ele>
        <time>2012-04-24T11:33:01Z</time>
      </trkpt>
      <trkpt lat="43.71178" lon="6.98808">
        <ele>229</ele>
        <time>2012-04-24T11:33:09Z</time>
      </trkpt>
      <trkpt lat="43.71169" lon="6.98833">
        <ele>233</ele>
        <time>2012-04-24T11:33:17Z</time>
      </trkpt>
      <trkpt lat="43.71155" lon="6.9885">
        <ele>235</ele>
        <time>2012-04-24T11:33:24Z</time>
      </trkpt>
      <trkpt lat="43.71136" lon="6.9886">
        <ele>236</ele>
        <time>2012-04-24T11:33:31Z</time>
      </trkpt>
      <trkpt lat="43.71107" lon="6.98873">
        <ele>238</ele>
        <time>2012-04-24T11:33:42Z</time>
      </trkpt>
      <trkpt lat="43.71087" lon="6.98884">
        <ele>238</ele>
        <time>2012-04-24T11:33:50Z</time>
      </trkpt>
      <trkpt lat="43.71084" lon="6.98885">
        <ele>238</ele>
        <time>2012-04-24T11:33:51Z</time>
      </trkpt>
      <trkpt lat="43.71074" lon="6.98891">
        <ele>246</ele>
        <time>2012-04-24T11:33:55Z</time>
      </trkpt>
      <trkpt lat="43.71056" lon="6.98899">
        <ele>247</ele>
        <time>2012-04-24T11:34:02Z</time>
      </trkpt>
      <trkpt lat="43.71027" lon="6.98905">
        <ele>248</ele>
        <time>2012-04-24T11:34:13Z</time>
      </trkpt>
      <trkpt lat="43.71003" lon="6.98913">
        <ele>247</ele>
        <time>2012-04-24T11:34:22Z</time>
      </trkpt>
      <trkpt lat="43.70976" lon="6.98925">
        <ele>245</ele>
        <time>2012-04-24T11:34:33Z</time>
      </trkpt>
      <trkpt lat="43.70951" lon="6.98936">
        <ele>246</ele>
        <time>2012-04-24T11:34:43Z</time>
      </trkpt>
      <trkpt lat="43.70932" lon="6.98946">
        <ele>247</ele>
        <time>2012-04-24T11:34:51Z</time>
      </trkpt>
      <trkpt lat="43.70912" lon="6.98955">
        <ele>253</ele>
        <time>2012-04-24T11:34:59Z</time>
      </trkpt>
      <trkpt lat="43.70895" lon="6.9896">
        <ele>252</ele>
        <time>2012-04-24T11:35:06Z</time>
      </trkpt>
      <trkpt lat="43.70877" lon="6.98956">
        <ele>254</ele>
        <time>2012-04-24T11:35:13Z</time>
      </trkpt>
      <trkpt lat="43.70857" lon="6.98954">
        <ele>255</ele>
        <time>2012-04-24T11:35:21Z</time>
      </trkpt>
      <trkpt lat="43.70836" lon="6.9896">
        <ele>255</ele>
        <time>2012-04-24T11:35:29Z</time>
      </trkpt>
      <trkpt lat="43.70813" lon="6.98969">
        <ele>260</ele>
        <time>2012-04-24T11:35:38Z</time>
      </trkpt>
      <trkpt lat="43.70789" lon="6.98982">
        <ele>260</ele>
        <time>2012-04-24T11:35:48Z</time>
      </trkpt>
      <trkpt lat="43.70751" lon="6.99003">
        <ele>258</ele>
        <time>2012-04-24T11:36:03Z</time>
      </trkpt>
      <trkpt lat="43.70726" lon="6.99016">
        <ele>259</ele>
        <time>2012-04-24T11:36:13Z</time>
      </trkpt>
      <trkpt lat="43.70702" lon="6.99028">
        <ele>261</ele>
        <time>2012-04-24T11:36:23Z</time>
      </trkpt>
      <trkpt lat="43.70677" lon="6.99042">
        <ele>261</ele>
        <time>2012-04-24T11:36:33Z</time>
      </trkpt>
      <trkpt lat="43.70652" lon="6.99056">
        <ele>271</ele>
        <time>2012-04-24T11:36:43Z</time>
      </trkpt>
      <trkpt lat="43.70636" lon="6.99072">
        <ele>271</ele>
        <time>2012-04-24T11:36:51Z</time>
      </trkpt>
      <trkpt lat="43.70615" lon="6.99103">
        <ele>264</ele>
        <time>2012-04-24T11:37:03Z</time>
      </trkpt>
      <trkpt lat="43.70598" lon="6.9912">
        <ele>264</ele>
        <time>2012-04-24T11:37:11Z</time>
      </trkpt>
      <trkpt lat="43.70578" lon="6.99124">
        <ele>271</ele>
        <time>2012-04-24T11:37:19Z</time>
      </trkpt>
      <trkpt lat="43.70548" lon="6.99127">
        <ele>271</ele>
        <time>2012-04-24T11:37:30Z</time>
      </trkpt>
      <trkpt lat="43.70523" lon="6.99129">
        <ele>271</ele>
        <time>2012-04-24T11:37:39Z</time>
      </trkpt>
      <trkpt lat="43.70497" lon="6.99133">
        <ele>273</ele>
        <time>2012-04-24T11:37:49Z</time>
      </trkpt>
      <trkpt lat="43.70474" lon="6.99135">
        <ele>274</ele>
        <time>2012-04-24T11:37:58Z</time>
      </trkpt>
      <trkpt lat="43.70448" lon="6.99139">
        <ele>274</ele>
        <time>2012-04-24T11:38:08Z</time>
      </trkpt>
      <trkpt lat="43.7043" lon="6.9914">
        <ele>274</ele>
        <time>2012-04-24T11:38:15Z</time>
      </trkpt>
      <trkpt lat="43.70406" lon="6.99137">
        <ele>275</ele>
        <time>2012-04-24T11:38:24Z</time>
      </trkpt>
      <trkpt lat="43.70384" lon="6.99129">
        <ele>275</ele>
        <time>2012-04-24T11:38:33Z</time>
      </trkpt>
      <trkpt lat="43.70365" lon="6.99117">
        <ele>276</ele>
        <time>2012-04-24T11:38:41Z</time>
      </trkpt>
      <trkpt lat="43.70352" lon="6.99106">
        <ele>277</ele>
        <time>2012-04-24T11:38:47Z</time>
      </trkpt>
      <trkpt lat="43.70332" lon="6.99088">
        <ele>280</ele>
        <time>2012-04-24T11:38:56Z</time>
      </trkpt>
      <trkpt lat="43.7032" lon="6.99074">
        <ele>286</ele>
        <time>2012-04-24T11:39:03Z</time>
      </trkpt>
      <trkpt lat="43.70302" lon="6.99058">
        <ele>290</ele>
        <time>2012-04-24T11:39:11Z</time>
      </trkpt>
      <trkpt lat="43.70285" lon="6.99049">
        <ele>292</ele>
        <time>2012-04-24T11:39:18Z</time>
      </trkpt>
      <trkpt lat="43.70265" lon="6.99048">
        <ele>292</ele>
        <time>2012-04-24T11:39:26Z</time>
      </trkpt>
      <trkpt lat="43.70253" lon="6.99047">
        <ele>293</ele>
        <time>2012-04-24T11:39:32Z</time>
      </trkpt>
      <trkpt lat="43.70245" lon="6.99034">
        <ele>303</ele>
        <time>2012-04-24T11:39:39Z</time>
      </trkpt>
      <trkpt lat="43.70247" lon="6.99015">
        <ele>303</ele>
        <time>2012-04-24T11:39:47Z</time>
      </trkpt>
      <trkpt lat="43.70251" lon="6.9901">
        <ele>299</ele>
        <time>2012-04-24T11:39:51Z</time>
      </trkpt>
      <trkpt lat="43.70256" lon="6.99009">
        <ele>299</ele>
        <time>2012-04-24T11:39:55Z</time>
      </trkpt>
      <trkpt lat="43.70272" lon="6.99014">
        <ele>296</ele>
        <time>2012-04-24T11:40:06Z</time>
      </trkpt>
      <trkpt lat="43.70287" lon="6.9902">
        <ele>295</ele>
        <time>2012-04-24T11:40:16Z</time>
      </trkpt>
      <trkpt lat="43.70313" lon="6.99026">
        <ele>294</ele>
        <time>2012-04-24T11:40:27Z</time>
      </trkpt>
      <trkpt lat="43.70336" lon="6.99029">
        <ele>293</ele>
        <time>2012-04-24T11:40:35Z</time>
      </trkpt>
      <trkpt lat="43.70364" lon="6.99031">
        <ele>291</ele>
        <time>2012-04-24T11:40:44Z</time>
      </trkpt>
      <trkpt lat="43.70389" lon="6.99028">
        <ele>291</ele>
        <time>2012-04-24T11:40:53Z</time>
      </trkpt>
      <trkpt lat="43.70401" lon="6.99019">
        <ele>293</ele>
        <time>2012-04-24T11:41:02Z</time>
      </trkpt>
      <trkpt lat="43.70409" lon="6.9901">
        <ele>295</ele>
        <time>2012-04-24T11:41:09Z</time>
      </trkpt>
      <trkpt lat="43.70415" lon="6.98993">
        <ele>301</ele>
        <time>2012-04-24T11:41:19Z</time>
      </trkpt>
      <trkpt lat="43.70416" lon="6.98978">
        <ele>304</ele>
        <time>2012-04-24T11:41:27Z</time>
      </trkpt>
      <trkpt lat="43.70414" lon="6.98967">
        <ele>306</ele>
        <time>2012-04-24T11:41:33Z</time>
      </trkpt>
      <trkpt lat="43.70409" lon="6.98953">
        <ele>309</ele>
        <time>2012-04-24T11:41:41Z</time>
      </trkpt>
      <trkpt lat="43.70408" lon="6.98948">
        <ele>309</ele>
        <time>2012-04-24T11:41:44Z</time>
      </trkpt>
      <trkpt lat="43.70404" lon="6.98942">
        <ele>310</ele>
        <time>2012-04-24T11:41:48Z</time>
      </trkpt>
      <trkpt lat="43.70393" lon="6.98933">
        <ele>311</ele>
        <time>2012-04-24T11:41:57Z</time>
      </trkpt>
      <trkpt lat="43.70376" lon="6.98928">
        <ele>311</ele>
        <time>2012-04-24T11:42:09Z</time>
      </trkpt>
      <trkpt lat="43.7036" lon="6.98926">
        <ele>312</ele>
        <time>2012-04-24T11:42:20Z</time>
      </trkpt>
      <trkpt lat="43.70356" lon="6.98924">
        <ele>312</ele>
        <time>2012-04-24T11:42:25Z</time>
      </trkpt>
      <trkpt lat="43.70348" lon="6.98924">
        <ele>314</ele>
        <time>2012-04-24T11:42:31Z</time>
      </trkpt>
      <trkpt lat="43.70335" lon="6.98921">
        <ele>316</ele>
        <time>2012-04-24T11:42:40Z</time>
      </trkpt>
      <trkpt lat="43.70327" lon="6.98917">
        <ele>316</ele>
        <time>2012-04-24T11:42:47Z</time>
      </trkpt>
      <trkpt lat="43.70316" lon="6.98913">
        <ele>323</ele>
        <time>2012-04-24T11:42:55Z</time>
      </trkpt>
      <trkpt lat="43.70305" lon="6.98906">
        <ele>325</ele>
        <time>2012-04-24T11:43:04Z</time>
      </trkpt>
      <trkpt lat="43.70297" lon="6.98901">
        <ele>326</ele>
        <time>2012-04-24T11:43:11Z</time>
      </trkpt>
      <trkpt lat="43.70284" lon="6.98894">
        <ele>327</ele>
        <time>2012-04-24T11:43:21Z</time>
      </trkpt>
      <trkpt lat="43.70276" lon="6.98888">
        <ele>328</ele>
        <time>2012-04-24T11:43:28Z</time>
      </trkpt>
      <trkpt lat="43.70268" lon="6.9888">
        <ele>329</ele>
        <time>2012-04-24T11:43:35Z</time>
      </trkpt>
      <trkpt lat="43.70255" lon="6.98869">
        <ele>331</ele>
        <time>2012-04-24T11:43:45Z</time>
      </trkpt>
      <trkpt lat="43.70242" lon="6.98858">
        <ele>337</ele>
        <time>2012-04-24T11:43:54Z</time>
      </trkpt>
      <trkpt lat="43.70228" lon="6.98851">
        <ele>338</ele>
        <time>2012-04-24T11:43:59Z</time>
      </trkpt>
      <trkpt lat="43.70209" lon="6.98856">
        <ele>338</ele>
        <time>2012-04-24T11:44:04Z</time>
      </trkpt>
      <trkpt lat="43.70195" lon="6.9886">
        <ele>338</ele>
        <time>2012-04-24T11:44:09Z</time>
      </trkpt>
      <trkpt lat="43.70182" lon="6.98861">
        <ele>339</ele>
        <time>2012-04-24T11:44:15Z</time>
      </trkpt>
      <trkpt lat="43.70173" lon="6.98867">
        <ele>339</ele>
        <time>2012-04-24T11:44:21Z</time>
      </trkpt>
      <trkpt lat="43.70173" lon="6.98883">
        <ele>337</ele>
        <time>2012-04-24T11:44:28Z</time>
      </trkpt>
      <trkpt lat="43.7017" lon="6.98897">
        <ele>336</ele>
        <time>2012-04-24T11:44:34Z</time>
      </trkpt>
      <trkpt lat="43.70166" lon="6.98911">
        <ele>336</ele>
        <time>2012-04-24T11:44:40Z</time>
      </trkpt>
      <trkpt lat="43.70164" lon="6.98916">
        <ele>336</ele>
        <time>2012-04-24T11:44:42Z</time>
      </trkpt>
      <trkpt lat="43.70154" lon="6.98921">
        <ele>332</ele>
        <time>2012-04-24T11:44:47Z</time>
      </trkpt>
      <trkpt lat="43.70138" lon="6.98917">
        <ele>330</ele>
        <time>2012-04-24T11:44:54Z</time>
      </trkpt>
      <trkpt lat="43.70135" lon="6.98913">
        <ele>335</ele>
        <time>2012-04-24T11:44:58Z</time>
      </trkpt>
      <trkpt lat="43.70134" lon="6.9891">
        <ele>335</ele>
        <time>2012-04-24T11:45:34Z</time>
      </trkpt>
      <trkpt lat="43.70125" lon="6.98903">
        <ele>335</ele>
        <time>2012-04-24T11:45:40Z</time>
      </trkpt>
      <trkpt lat="43.70123" lon="6.98899">
        <ele>335</ele>
        <time>2012-04-24T11:45:41Z</time>
      </trkpt>
      <trkpt lat="43.70113" lon="6.98876">
        <ele>335</ele>
        <time>2012-04-24T11:45:45Z</time>
      </trkpt>
      <trkpt lat="43.70108" lon="6.98861">
        <ele>336</ele>
        <time>2012-04-24T11:45:47Z</time>
      </trkpt>
      <trkpt lat="43.70101" lon="6.98845">
        <ele>335</ele>
        <time>2012-04-24T11:45:49Z</time>
      </trkpt>
      <trkpt lat="43.70073" lon="6.98797">
        <ele>331</ele>
        <time>2012-04-24T11:45:55Z</time>
      </trkpt>
      <trkpt lat="43.70046" lon="6.98762">
        <ele>331</ele>
        <time>2012-04-24T11:46:01Z</time>
      </trkpt>
      <trkpt lat="43.70027" lon="6.98731">
        <ele>335</ele>
        <time>2012-04-24T11:46:07Z</time>
      </trkpt>
      <trkpt lat="43.70018" lon="6.9871">
        <ele>335</ele>
        <time>2012-04-24T11:46:12Z</time>
      </trkpt>
      <trkpt lat="43.70005" lon="6.98684">
        <ele>335</ele>
        <time>2012-04-24T11:46:18Z</time>
      </trkpt>
      <trkpt lat="43.69994" lon="6.9866">
        <ele>333</ele>
        <time>2012-04-24T11:46:24Z</time>
      </trkpt>
      <trkpt lat="43.69994" lon="6.98653">
        <ele>332</ele>
        <time>2012-04-24T11:46:28Z</time>
      </trkpt>
      <trkpt lat="43.69992" lon="6.98653">
        <ele>332</ele>
        <time>2012-04-24T11:46:38Z</time>
      </trkpt>
      <trkpt lat="43.69996" lon="6.98668">
        <ele>331</ele>
        <time>2012-04-24T11:46:44Z</time>
      </trkpt>
      <trkpt lat="43.70016" lon="6.98697">
        <ele>336</ele>
        <time>2012-04-24T11:46:53Z</time>
      </trkpt>
      <trkpt lat="43.70029" lon="6.98721">
        <ele>336</ele>
        <time>2012-04-24T11:47:00Z</time>
      </trkpt>
      <trkpt lat="43.70042" lon="6.98752">
        <ele>331</ele>
        <time>2012-04-24T11:47:09Z</time>
      </trkpt>
      <trkpt lat="43.70047" lon="6.98764">
        <ele>331</ele>
        <time>2012-04-24T11:47:12Z</time>
      </trkpt>
      <trkpt lat="43.70052" lon="6.98774">
        <ele>331</ele>
        <time>2012-04-24T11:47:14Z</time>
      </trkpt>
      <trkpt lat="43.70061" lon="6.98815">
        <ele>330</ele>
        <time>2012-04-24T11:47:19Z</time>
      </trkpt>
      <trkpt lat="43.70061" lon="6.98824">
        <ele>330</ele>
        <time>2012-04-24T11:47:20Z</time>
      </trkpt>
      <trkpt lat="43.70059" lon="6.98845">
        <ele>324</ele>
        <time>2012-04-24T11:47:22Z</time>
      </trkpt>
      <trkpt lat="43.70075" lon="6.98885">
        <ele>323</ele>
        <time>2012-04-24T11:47:27Z</time>
      </trkpt>
      <trkpt lat="43.70082" lon="6.98904">
        <ele>324</ele>
        <time>2012-04-24T11:47:30Z</time>
      </trkpt>
      <trkpt lat="43.70084" lon="6.98915">
        <ele>327</ele>
        <time>2012-04-24T11:47:32Z</time>
      </trkpt>
      <trkpt lat="43.70084" lon="6.98934">
        <ele>326</ele>
        <time>2012-04-24T11:47:36Z</time>
      </trkpt>
      <trkpt lat="43.70084" lon="6.98935">
        <ele>326</ele>
        <time>2012-04-24T11:47:42Z</time>
      </trkpt>
      <trkpt lat="43.70083" lon="6.98934">
        <ele>319</ele>
        <time>2012-04-24T11:47:53Z</time>
      </trkpt>
      <trkpt lat="43.70083" lon="6.98945">
        <ele>317</ele>
        <time>2012-04-24T11:48:02Z</time>
      </trkpt>
      <trkpt lat="43.70082" lon="6.98951">
        <ele>316</ele>
        <time>2012-04-24T11:48:04Z</time>
      </trkpt>
      <trkpt lat="43.70069" lon="6.98959">
        <ele>314</ele>
        <time>2012-04-24T11:48:08Z</time>
      </trkpt>
      <trkpt lat="43.70039" lon="6.98957">
        <ele>310</ele>
        <time>2012-04-24T11:48:13Z</time>
      </trkpt>
      <trkpt lat="43.70036" lon="6.98958">
        <ele>310</ele>
        <time>2012-04-24T11:48:14Z</time>
      </trkpt>
      <trkpt lat="43.70029" lon="6.98971">
        <ele>308</ele>
        <time>2012-04-24T11:48:19Z</time>
      </trkpt>
      <trkpt lat="43.70025" lon="6.98969">
        <ele>307</ele>
        <time>2012-04-24T11:48:22Z</time>
      </trkpt>
      <trkpt lat="43.70015" lon="6.98949">
        <ele>308</ele>
        <time>2012-04-24T11:48:28Z</time>
      </trkpt>
      <trkpt lat="43.70007" lon="6.98944">
        <ele>307</ele>
        <time>2012-04-24T11:48:31Z</time>
      </trkpt>
      <trkpt lat="43.69989" lon="6.9894">
        <ele>296</ele>
        <time>2012-04-24T11:48:35Z</time>
      </trkpt>
      <trkpt lat="43.69973" lon="6.98942">
        <ele>294</ele>
        <time>2012-04-24T11:48:38Z</time>
      </trkpt>
      <trkpt lat="43.69959" lon="6.98947">
        <ele>293</ele>
        <time>2012-04-24T11:48:41Z</time>
      </trkpt>
      <trkpt lat="43.69937" lon="6.98948">
        <ele>291</ele>
        <time>2012-04-24T11:48:44Z</time>
      </trkpt>
      <trkpt lat="43.69914" lon="6.98946">
        <ele>281</ele>
        <time>2012-04-24T11:48:47Z</time>
      </trkpt>
      <trkpt lat="43.699" lon="6.98934">
        <ele>282</ele>
        <time>2012-04-24T11:48:50Z</time>
      </trkpt>
      <trkpt lat="43.6989" lon="6.98944">
        <ele>278</ele>
        <time>2012-04-24T11:48:54Z</time>
      </trkpt>
      <trkpt lat="43.69884" lon="6.98957">
        <ele>276</ele>
        <time>2012-04-24T11:48:56Z</time>
      </trkpt>
      <trkpt lat="43.69874" lon="6.98978">
        <ele>273</ele>
        <time>2012-04-24T11:49:00Z</time>
      </trkpt>
      <trkpt lat="43.69864" lon="6.98987">
        <ele>271</ele>
        <time>2012-04-24T11:49:03Z</time>
      </trkpt>
      <trkpt lat="43.69849" lon="6.98981">
        <ele>269</ele>
        <time>2012-04-24T11:49:07Z</time>
      </trkpt>
      <trkpt lat="43.69843" lon="6.98982">
        <ele>267</ele>
        <time>2012-04-24T11:49:10Z</time>
      </trkpt>
      <trkpt lat="43.69843" lon="6.98997">
        <ele>264</ele>
        <time>2012-04-24T11:49:13Z</time>
      </trkpt>
      <trkpt lat="43.69848" lon="6.99009">
        <ele>260</ele>
        <time>2012-04-24T11:49:16Z</time>
      </trkpt>
      <trkpt lat="43.69848" lon="6.99034">
        <ele>259</ele>
        <time>2012-04-24T11:49:21Z</time>
      </trkpt>
      <trkpt lat="43.69853" lon="6.99049">
        <ele>258</ele>
        <time>2012-04-24T11:49:25Z</time>
      </trkpt>
      <trkpt lat="43.69846" lon="6.9906">
        <ele>255</ele>
        <time>2012-04-24T11:49:30Z</time>
      </trkpt>
      <trkpt lat="43.69834" lon="6.99075">
        <ele>249</ele>
        <time>2012-04-24T11:49:35Z</time>
      </trkpt>
      <trkpt lat="43.69829" lon="6.99084">
        <ele>242</ele>
        <time>2012-04-24T11:49:39Z</time>
      </trkpt>
      <trkpt lat="43.6982" lon="6.99093">
        <ele>238</ele>
        <time>2012-04-24T11:49:42Z</time>
      </trkpt>
      <trkpt lat="43.69798" lon="6.99088">
        <ele>234</ele>
        <time>2012-04-24T11:49:47Z</time>
      </trkpt>
      <trkpt lat="43.69794" lon="6.99086">
        <ele>234</ele>
        <time>2012-04-24T11:49:48Z</time>
      </trkpt>
      <trkpt lat="43.69788" lon="6.99082">
        <ele>239</ele>
        <time>2012-04-24T11:49:50Z</time>
      </trkpt>
      <trkpt lat="43.69776" lon="6.99092">
        <ele>231</ele>
        <time>2012-04-24T11:49:54Z</time>
      </trkpt>
      <trkpt lat="43.69763" lon="6.99092">
        <ele>230</ele>
        <time>2012-04-24T11:49:58Z</time>
      </trkpt>
      <trkpt lat="43.6976" lon="6.99097">
        <ele>230</ele>
        <time>2012-04-24T11:50:02Z</time>
      </trkpt>
      <trkpt lat="43.69765" lon="6.99104">
        <ele>230</ele>
        <time>2012-04-24T11:50:05Z</time>
      </trkpt>
      <trkpt lat="43.69781" lon="6.99121">
        <ele>231</ele>
        <time>2012-04-24T11:50:13Z</time>
      </trkpt>
      <trkpt lat="43.69794" lon="6.99139">
        <ele>231</ele>
        <time>2012-04-24T11:50:18Z</time>
      </trkpt>
      <trkpt lat="43.69801" lon="6.99166">
        <ele>231</ele>
        <time>2012-04-24T11:50:23Z</time>
      </trkpt>
      <trkpt lat="43.69808" lon="6.99209">
        <ele>225</ele>
        <time>2012-04-24T11:50:30Z</time>
      </trkpt>
      <trkpt lat="43.6981" lon="6.99222">
        <ele>225</ele>
        <time>2012-04-24T11:50:32Z</time>
      </trkpt>
      <trkpt lat="43.69826" lon="6.9926">
        <ele>223</ele>
        <time>2012-04-24T11:50:38Z</time>
      </trkpt>
      <trkpt lat="43.69849" lon="6.99301">
        <ele>228</ele>
        <time>2012-04-24T11:50:44Z</time>
      </trkpt>
      <trkpt lat="43.69878" lon="6.99353">
        <ele>222</ele>
        <time>2012-04-24T11:50:51Z</time>
      </trkpt>
      <trkpt lat="43.69892" lon="6.99379">
        <ele>222</ele>
        <time>2012-04-24T11:50:56Z</time>
      </trkpt>
      <trkpt lat="43.69919" lon="6.99407">
        <ele>226</ele>
        <time>2012-04-24T11:51:04Z</time>
      </trkpt>
      <trkpt lat="43.69942" lon="6.99428">
        <ele>222</ele>
        <time>2012-04-24T11:51:10Z</time>
      </trkpt>
      <trkpt lat="43.69964" lon="6.99452">
        <ele>223</ele>
        <time>2012-04-24T11:51:17Z</time>
      </trkpt>
      <trkpt lat="43.69989" lon="6.99473">
        <ele>223</ele>
        <time>2012-04-24T11:51:25Z</time>
      </trkpt>
      <trkpt lat="43.70009" lon="6.99481">
        <ele>228</ele>
        <time>2012-04-24T11:51:31Z</time>
      </trkpt>
      <trkpt lat="43.70027" lon="6.99485">
        <ele>229</ele>
        <time>2012-04-24T11:51:37Z</time>
      </trkpt>
      <trkpt lat="43.70042" lon="6.99489">
        <ele>230</ele>
        <time>2012-04-24T11:51:42Z</time>
      </trkpt>
      <trkpt lat="43.70058" lon="6.9949">
        <ele>231</ele>
        <time>2012-04-24T11:51:47Z</time>
      </trkpt>
      <trkpt lat="43.70084" lon="6.99497">
        <ele>231</ele>
        <time>2012-04-24T11:51:56Z</time>
      </trkpt>
      <trkpt lat="43.701" lon="6.99501">
        <ele>227</ele>
        <time>2012-04-24T11:52:02Z</time>
      </trkpt>
      <trkpt lat="43.70116" lon="6.99503">
        <ele>225</ele>
        <time>2012-04-24T11:52:08Z</time>
      </trkpt>
      <trkpt lat="43.70134" lon="6.99499">
        <ele>234</ele>
        <time>2012-04-24T11:52:14Z</time>
      </trkpt>
      <trkpt lat="43.70153" lon="6.99493">
        <ele>233</ele>
        <time>2012-04-24T11:52:20Z</time>
      </trkpt>
      <trkpt lat="43.70158" lon="6.99511">
        <ele>227</ele>
        <time>2012-04-24T11:52:25Z</time>
      </trkpt>
      <trkpt lat="43.7016" lon="6.99528">
        <ele>224</ele>
        <time>2012-04-24T11:52:28Z</time>
      </trkpt>
      <trkpt lat="43.70176" lon="6.9953">
        <ele>222</ele>
        <time>2012-04-24T11:52:31Z</time>
      </trkpt>
      <trkpt lat="43.70188" lon="6.99521">
        <ele>223</ele>
        <time>2012-04-24T11:52:33Z</time>
      </trkpt>
      <trkpt lat="43.70205" lon="6.99504">
        <ele>223</ele>
        <time>2012-04-24T11:52:38Z</time>
      </trkpt>
      <trkpt lat="43.7021" lon="6.99502">
        <ele>222</ele>
        <time>2012-04-24T11:52:43Z</time>
      </trkpt>
      <trkpt lat="43.70211" lon="6.99502">
        <ele>222</ele>
        <time>2012-04-24T11:52:46Z</time>
      </trkpt>
    </trkseg>
  </trk>
</gpx>